<?xml version="1.0" encoding="UTF-8" standalone="no" ?>
<gpx xmlns="http://www.topografix.com/GPX/1/1" xmlns:xsi="http://www.w3.org/2001/XMLSchema-instance" xsi:schemaLocation="http://www.topografix.com/GPX/1/1 http://www.topografix.com/GPX/1/1/gpx.xsd" version="1.1" creator="VisuGPX - https://www.visugpx.com">
  <metadata>
    <name>Rando : Tête Grosse à partir de Chabanon</name>
    <desc><![CDATA[Très beau circuit plus cool que le même au départ de Selonnet ,même passage délicat sous le sommet de Tête grosse, très agréable sentier de descente en sous bois pour retourner à Chabanon]]></desc>
  </metadata>
  <trk>
    <name><![CDATA[Chabanon Tête Grosse]]></name>
    <trkseg>
      <trkpt lat="44.34728" lon="6.29564">
        <ele>1553.62793</ele>
        <time>2011-08-25T06:02:23Z</time>
      </trkpt>
      <trkpt lat="44.34726" lon="6.29559">
        <ele>1555.069824</ele>
        <time>2011-08-25T06:02:30Z</time>
      </trkpt>
      <trkpt lat="44.34726" lon="6.29561">
        <ele>1554.589111</ele>
        <time>2011-08-25T06:02:59Z</time>
      </trkpt>
      <trkpt lat="44.34725" lon="6.29562">
        <ele>1555.069824</ele>
        <time>2011-08-25T06:03:40Z</time>
      </trkpt>
      <trkpt lat="44.34725" lon="6.29563">
        <ele>1553.147217</ele>
        <time>2011-08-25T06:03:42Z</time>
      </trkpt>
      <trkpt lat="44.34728" lon="6.29568">
        <ele>1554.108643</ele>
        <time>2011-08-25T06:03:58Z</time>
      </trkpt>
      <trkpt lat="44.3472" lon="6.29579">
        <ele>1553.62793</ele>
        <time>2011-08-25T06:04:20Z</time>
      </trkpt>
      <trkpt lat="44.34715" lon="6.29581">
        <ele>1554.589111</ele>
        <time>2011-08-25T06:04:38Z</time>
      </trkpt>
      <trkpt lat="44.34723" lon="6.29576">
        <ele>1553.62793</ele>
        <time>2011-08-25T06:04:53Z</time>
      </trkpt>
      <trkpt lat="44.34726" lon="6.29573">
        <ele>1557.473145</ele>
        <time>2011-08-25T06:05:48Z</time>
      </trkpt>
      <trkpt lat="44.34732" lon="6.29575">
        <ele>1561.318359</ele>
        <time>2011-08-25T06:05:51Z</time>
      </trkpt>
      <trkpt lat="44.34735" lon="6.29575">
        <ele>1564.683105</ele>
        <time>2011-08-25T06:05:54Z</time>
      </trkpt>
      <trkpt lat="44.34737" lon="6.29575">
        <ele>1567.566895</ele>
        <time>2011-08-25T06:05:57Z</time>
      </trkpt>
      <trkpt lat="44.34737" lon="6.29575">
        <ele>1571.892822</ele>
        <time>2011-08-25T06:06:01Z</time>
      </trkpt>
      <trkpt lat="44.34738" lon="6.29576">
        <ele>1575.257324</ele>
        <time>2011-08-25T06:06:05Z</time>
      </trkpt>
      <trkpt lat="44.34735" lon="6.29578">
        <ele>1578.141357</ele>
        <time>2011-08-25T06:06:10Z</time>
      </trkpt>
      <trkpt lat="44.3473" lon="6.29581">
        <ele>1581.986816</ele>
        <time>2011-08-25T06:06:15Z</time>
      </trkpt>
      <trkpt lat="44.34726" lon="6.29582">
        <ele>1584.87085</ele>
        <time>2011-08-25T06:06:24Z</time>
      </trkpt>
      <trkpt lat="44.34722" lon="6.29579">
        <ele>1588.235352</ele>
        <time>2011-08-25T06:06:31Z</time>
      </trkpt>
      <trkpt lat="44.34721" lon="6.29579">
        <ele>1591.119141</ele>
        <time>2011-08-25T06:06:40Z</time>
      </trkpt>
      <trkpt lat="44.34721" lon="6.29579">
        <ele>1591.599854</ele>
        <time>2011-08-25T06:06:41Z</time>
      </trkpt>
      <trkpt lat="44.34717" lon="6.29575">
        <ele>1594.964355</ele>
        <time>2011-08-25T06:06:58Z</time>
      </trkpt>
      <trkpt lat="44.3471" lon="6.2958">
        <ele>1597.36792</ele>
        <time>2011-08-25T06:07:49Z</time>
      </trkpt>
      <trkpt lat="44.34711" lon="6.29576">
        <ele>1597.36792</ele>
        <time>2011-08-25T06:08:30Z</time>
      </trkpt>
      <trkpt lat="44.34698" lon="6.29573">
        <ele>1597.848633</ele>
        <time>2011-08-25T06:09:59Z</time>
      </trkpt>
      <trkpt lat="44.34719" lon="6.29585">
        <ele>1597.36792</ele>
        <time>2011-08-25T06:10:31Z</time>
      </trkpt>
      <trkpt lat="44.34718" lon="6.29593">
        <ele>1597.848633</ele>
        <time>2011-08-25T06:10:39Z</time>
      </trkpt>
      <trkpt lat="44.34719" lon="6.29606">
        <ele>1597.36792</ele>
        <time>2011-08-25T06:10:54Z</time>
      </trkpt>
      <trkpt lat="44.34721" lon="6.29598">
        <ele>1596.406738</ele>
        <time>2011-08-25T06:11:07Z</time>
      </trkpt>
      <trkpt lat="44.34726" lon="6.29592">
        <ele>1594.964355</ele>
        <time>2011-08-25T06:11:37Z</time>
      </trkpt>
      <trkpt lat="44.34733" lon="6.29594">
        <ele>1593.041748</ele>
        <time>2011-08-25T06:11:46Z</time>
      </trkpt>
      <trkpt lat="44.34738" lon="6.29623">
        <ele>1589.677246</ele>
        <time>2011-08-25T06:12:01Z</time>
      </trkpt>
      <trkpt lat="44.34746" lon="6.29634">
        <ele>1589.196533</ele>
        <time>2011-08-25T06:12:17Z</time>
      </trkpt>
      <trkpt lat="44.34742" lon="6.29645">
        <ele>1589.677246</ele>
        <time>2011-08-25T06:13:00Z</time>
      </trkpt>
      <trkpt lat="44.34737" lon="6.29669">
        <ele>1586.793213</ele>
        <time>2011-08-25T06:13:23Z</time>
      </trkpt>
      <trkpt lat="44.34743" lon="6.29681">
        <ele>1583.909424</ele>
        <time>2011-08-25T06:13:38Z</time>
      </trkpt>
      <trkpt lat="44.34752" lon="6.29677">
        <ele>1581.506104</ele>
        <time>2011-08-25T06:13:55Z</time>
      </trkpt>
      <trkpt lat="44.3477" lon="6.29662">
        <ele>1579.102539</ele>
        <time>2011-08-25T06:14:17Z</time>
      </trkpt>
      <trkpt lat="44.34772" lon="6.29659">
        <ele>1579.102539</ele>
        <time>2011-08-25T06:14:53Z</time>
      </trkpt>
      <trkpt lat="44.34779" lon="6.29643">
        <ele>1577.660645</ele>
        <time>2011-08-25T06:15:18Z</time>
      </trkpt>
      <trkpt lat="44.34783" lon="6.29611">
        <ele>1576.21875</ele>
        <time>2011-08-25T06:15:40Z</time>
      </trkpt>
      <trkpt lat="44.34781" lon="6.29572">
        <ele>1573.81543</ele>
        <time>2011-08-25T06:16:06Z</time>
      </trkpt>
      <trkpt lat="44.34792" lon="6.29546">
        <ele>1572.373535</ele>
        <time>2011-08-25T06:16:27Z</time>
      </trkpt>
      <trkpt lat="44.34797" lon="6.29523">
        <ele>1570.931641</ele>
        <time>2011-08-25T06:16:45Z</time>
      </trkpt>
      <trkpt lat="44.34809" lon="6.29499">
        <ele>1570.450928</ele>
        <time>2011-08-25T06:17:03Z</time>
      </trkpt>
      <trkpt lat="44.34818" lon="6.2947">
        <ele>1568.52832</ele>
        <time>2011-08-25T06:17:24Z</time>
      </trkpt>
      <trkpt lat="44.34824" lon="6.29456">
        <ele>1567.566895</ele>
        <time>2011-08-25T06:17:36Z</time>
      </trkpt>
      <trkpt lat="44.34827" lon="6.2945">
        <ele>1567.566895</ele>
        <time>2011-08-25T06:17:40Z</time>
      </trkpt>
      <trkpt lat="44.34837" lon="6.29423">
        <ele>1566.605713</ele>
        <time>2011-08-25T06:17:58Z</time>
      </trkpt>
      <trkpt lat="44.34843" lon="6.29414">
        <ele>1566.125</ele>
        <time>2011-08-25T06:18:06Z</time>
      </trkpt>
      <trkpt lat="44.34845" lon="6.29407">
        <ele>1566.125</ele>
        <time>2011-08-25T06:18:11Z</time>
      </trkpt>
      <trkpt lat="44.3485" lon="6.29378">
        <ele>1564.683105</ele>
        <time>2011-08-25T06:18:29Z</time>
      </trkpt>
      <trkpt lat="44.34851" lon="6.29347">
        <ele>1563.240967</ele>
        <time>2011-08-25T06:18:49Z</time>
      </trkpt>
      <trkpt lat="44.34854" lon="6.29313">
        <ele>1562.279541</ele>
        <time>2011-08-25T06:19:11Z</time>
      </trkpt>
      <trkpt lat="44.34863" lon="6.29291">
        <ele>1561.318359</ele>
        <time>2011-08-25T06:19:27Z</time>
      </trkpt>
      <trkpt lat="44.34866" lon="6.29287">
        <ele>1560.837646</ele>
        <time>2011-08-25T06:19:31Z</time>
      </trkpt>
      <trkpt lat="44.34869" lon="6.29281">
        <ele>1560.356934</ele>
        <time>2011-08-25T06:19:35Z</time>
      </trkpt>
      <trkpt lat="44.3487" lon="6.29273">
        <ele>1560.356934</ele>
        <time>2011-08-25T06:19:40Z</time>
      </trkpt>
      <trkpt lat="44.34873" lon="6.29262">
        <ele>1559.876221</ele>
        <time>2011-08-25T06:19:49Z</time>
      </trkpt>
      <trkpt lat="44.34878" lon="6.29242">
        <ele>1558.434326</ele>
        <time>2011-08-25T06:20:02Z</time>
      </trkpt>
      <trkpt lat="44.3488" lon="6.29218">
        <ele>1556.992432</ele>
        <time>2011-08-25T06:20:23Z</time>
      </trkpt>
      <trkpt lat="44.34879" lon="6.29213">
        <ele>1556.511719</ele>
        <time>2011-08-25T06:20:30Z</time>
      </trkpt>
      <trkpt lat="44.34884" lon="6.29191">
        <ele>1556.031006</ele>
        <time>2011-08-25T06:20:47Z</time>
      </trkpt>
      <trkpt lat="44.34884" lon="6.29184">
        <ele>1556.031006</ele>
        <time>2011-08-25T06:20:51Z</time>
      </trkpt>
      <trkpt lat="44.34884" lon="6.29163">
        <ele>1555.069824</ele>
        <time>2011-08-25T06:21:08Z</time>
      </trkpt>
      <trkpt lat="44.34882" lon="6.29157">
        <ele>1555.069824</ele>
        <time>2011-08-25T06:21:12Z</time>
      </trkpt>
      <trkpt lat="44.34849" lon="6.29127">
        <ele>1553.147217</ele>
        <time>2011-08-25T06:21:35Z</time>
      </trkpt>
      <trkpt lat="44.34828" lon="6.29114">
        <ele>1552.185791</ele>
        <time>2011-08-25T06:21:53Z</time>
      </trkpt>
      <trkpt lat="44.34824" lon="6.2911">
        <ele>1552.185791</ele>
        <time>2011-08-25T06:21:57Z</time>
      </trkpt>
      <trkpt lat="44.34811" lon="6.29104">
        <ele>1551.705322</ele>
        <time>2011-08-25T06:22:09Z</time>
      </trkpt>
      <trkpt lat="44.34804" lon="6.29101">
        <ele>1551.705322</ele>
        <time>2011-08-25T06:22:16Z</time>
      </trkpt>
      <trkpt lat="44.34787" lon="6.29091">
        <ele>1549.782715</ele>
        <time>2011-08-25T06:22:32Z</time>
      </trkpt>
      <trkpt lat="44.34778" lon="6.29085">
        <ele>1549.782715</ele>
        <time>2011-08-25T06:22:39Z</time>
      </trkpt>
      <trkpt lat="44.34758" lon="6.29078">
        <ele>1548.821289</ele>
        <time>2011-08-25T06:22:59Z</time>
      </trkpt>
      <trkpt lat="44.34744" lon="6.29071">
        <ele>1547.859863</ele>
        <time>2011-08-25T06:23:09Z</time>
      </trkpt>
      <trkpt lat="44.34727" lon="6.29063">
        <ele>1547.37915</ele>
        <time>2011-08-25T06:23:27Z</time>
      </trkpt>
      <trkpt lat="44.34716" lon="6.29057">
        <ele>1546.417969</ele>
        <time>2011-08-25T06:23:44Z</time>
      </trkpt>
      <trkpt lat="44.34715" lon="6.29056">
        <ele>1546.417969</ele>
        <time>2011-08-25T06:23:45Z</time>
      </trkpt>
      <trkpt lat="44.34714" lon="6.29046">
        <ele>1545.937256</ele>
        <time>2011-08-25T06:23:51Z</time>
      </trkpt>
      <trkpt lat="44.34713" lon="6.2902">
        <ele>1545.937256</ele>
        <time>2011-08-25T06:24:06Z</time>
      </trkpt>
      <trkpt lat="44.34711" lon="6.2901">
        <ele>1544.97583</ele>
        <time>2011-08-25T06:24:16Z</time>
      </trkpt>
      <trkpt lat="44.34701" lon="6.29002">
        <ele>1544.495117</ele>
        <time>2011-08-25T06:24:35Z</time>
      </trkpt>
      <trkpt lat="44.34696" lon="6.29">
        <ele>1544.495117</ele>
        <time>2011-08-25T06:24:39Z</time>
      </trkpt>
      <trkpt lat="44.34691" lon="6.28998">
        <ele>1544.495117</ele>
        <time>2011-08-25T06:24:44Z</time>
      </trkpt>
      <trkpt lat="44.34681" lon="6.28988">
        <ele>1544.495117</ele>
        <time>2011-08-25T06:24:54Z</time>
      </trkpt>
      <trkpt lat="44.34664" lon="6.28981">
        <ele>1544.97583</ele>
        <time>2011-08-25T06:25:06Z</time>
      </trkpt>
      <trkpt lat="44.34655" lon="6.28968">
        <ele>1543.053223</ele>
        <time>2011-08-25T06:25:20Z</time>
      </trkpt>
      <trkpt lat="44.34662" lon="6.28949">
        <ele>1542.572754</ele>
        <time>2011-08-25T06:25:40Z</time>
      </trkpt>
      <trkpt lat="44.34688" lon="6.28935">
        <ele>1544.495117</ele>
        <time>2011-08-25T06:26:00Z</time>
      </trkpt>
      <trkpt lat="44.34695" lon="6.2893">
        <ele>1544.495117</ele>
        <time>2011-08-25T06:26:11Z</time>
      </trkpt>
      <trkpt lat="44.34698" lon="6.2893">
        <ele>1544.495117</ele>
        <time>2011-08-25T06:26:14Z</time>
      </trkpt>
      <trkpt lat="44.34721" lon="6.28928">
        <ele>1545.456543</ele>
        <time>2011-08-25T06:26:27Z</time>
      </trkpt>
      <trkpt lat="44.34715" lon="6.28914">
        <ele>1546.417969</ele>
        <time>2011-08-25T06:26:40Z</time>
      </trkpt>
      <trkpt lat="44.34721" lon="6.28891">
        <ele>1546.417969</ele>
        <time>2011-08-25T06:26:57Z</time>
      </trkpt>
      <trkpt lat="44.3472" lon="6.28887">
        <ele>1546.417969</ele>
        <time>2011-08-25T06:27:01Z</time>
      </trkpt>
      <trkpt lat="44.34705" lon="6.28875">
        <ele>1546.417969</ele>
        <time>2011-08-25T06:27:16Z</time>
      </trkpt>
      <trkpt lat="44.34696" lon="6.28866">
        <ele>1545.456543</ele>
        <time>2011-08-25T06:27:26Z</time>
      </trkpt>
      <trkpt lat="44.34686" lon="6.28859">
        <ele>1544.97583</ele>
        <time>2011-08-25T06:27:38Z</time>
      </trkpt>
      <trkpt lat="44.34678" lon="6.28853">
        <ele>1544.97583</ele>
        <time>2011-08-25T06:27:48Z</time>
      </trkpt>
      <trkpt lat="44.34661" lon="6.2885">
        <ele>1543.053223</ele>
        <time>2011-08-25T06:28:08Z</time>
      </trkpt>
      <trkpt lat="44.34658" lon="6.28849">
        <ele>1543.533936</ele>
        <time>2011-08-25T06:28:11Z</time>
      </trkpt>
      <trkpt lat="44.34637" lon="6.28837">
        <ele>1539.688721</ele>
        <time>2011-08-25T06:28:33Z</time>
      </trkpt>
      <trkpt lat="44.34641" lon="6.28808">
        <ele>1539.688721</ele>
        <time>2011-08-25T06:28:52Z</time>
      </trkpt>
      <trkpt lat="44.34651" lon="6.28795">
        <ele>1540.169434</ele>
        <time>2011-08-25T06:29:04Z</time>
      </trkpt>
      <trkpt lat="44.34671" lon="6.28793">
        <ele>1539.208008</ele>
        <time>2011-08-25T06:29:21Z</time>
      </trkpt>
      <trkpt lat="44.34684" lon="6.28794">
        <ele>1537.766113</ele>
        <time>2011-08-25T06:29:35Z</time>
      </trkpt>
      <trkpt lat="44.3471" lon="6.28788">
        <ele>1534.882324</ele>
        <time>2011-08-25T06:29:58Z</time>
      </trkpt>
      <trkpt lat="44.34729" lon="6.28786">
        <ele>1531.517334</ele>
        <time>2011-08-25T06:30:17Z</time>
      </trkpt>
      <trkpt lat="44.34739" lon="6.28785">
        <ele>1530.075439</ele>
        <time>2011-08-25T06:30:25Z</time>
      </trkpt>
      <trkpt lat="44.34755" lon="6.28779">
        <ele>1527.672119</ele>
        <time>2011-08-25T06:30:45Z</time>
      </trkpt>
      <trkpt lat="44.34769" lon="6.28771">
        <ele>1527.672119</ele>
        <time>2011-08-25T06:31:04Z</time>
      </trkpt>
      <trkpt lat="44.34776" lon="6.28759">
        <ele>1528.152832</ele>
        <time>2011-08-25T06:31:12Z</time>
      </trkpt>
      <trkpt lat="44.34781" lon="6.28745">
        <ele>1528.152832</ele>
        <time>2011-08-25T06:31:25Z</time>
      </trkpt>
      <trkpt lat="44.34783" lon="6.28743">
        <ele>1528.633545</ele>
        <time>2011-08-25T06:31:29Z</time>
      </trkpt>
      <trkpt lat="44.34788" lon="6.28726">
        <ele>1528.152832</ele>
        <time>2011-08-25T06:31:40Z</time>
      </trkpt>
      <trkpt lat="44.34798" lon="6.28706">
        <ele>1528.152832</ele>
        <time>2011-08-25T06:31:56Z</time>
      </trkpt>
      <trkpt lat="44.34805" lon="6.28678">
        <ele>1529.594727</ele>
        <time>2011-08-25T06:32:15Z</time>
      </trkpt>
      <trkpt lat="44.34811" lon="6.28659">
        <ele>1530.075439</ele>
        <time>2011-08-25T06:32:30Z</time>
      </trkpt>
      <trkpt lat="44.34826" lon="6.2865">
        <ele>1530.556152</ele>
        <time>2011-08-25T06:32:43Z</time>
      </trkpt>
      <trkpt lat="44.34831" lon="6.28637">
        <ele>1531.036865</ele>
        <time>2011-08-25T06:32:56Z</time>
      </trkpt>
      <trkpt lat="44.34841" lon="6.28623">
        <ele>1531.517334</ele>
        <time>2011-08-25T06:33:06Z</time>
      </trkpt>
      <trkpt lat="44.3486" lon="6.28603">
        <ele>1531.517334</ele>
        <time>2011-08-25T06:33:28Z</time>
      </trkpt>
      <trkpt lat="44.34864" lon="6.28598">
        <ele>1532.959473</ele>
        <time>2011-08-25T06:33:51Z</time>
      </trkpt>
      <trkpt lat="44.34886" lon="6.2859">
        <ele>1533.440186</ele>
        <time>2011-08-25T06:34:19Z</time>
      </trkpt>
      <trkpt lat="44.34906" lon="6.28568">
        <ele>1534.882324</ele>
        <time>2011-08-25T06:34:40Z</time>
      </trkpt>
      <trkpt lat="44.34923" lon="6.28559">
        <ele>1535.843506</ele>
        <time>2011-08-25T06:35:01Z</time>
      </trkpt>
      <trkpt lat="44.34935" lon="6.28565">
        <ele>1536.324219</ele>
        <time>2011-08-25T06:35:20Z</time>
      </trkpt>
      <trkpt lat="44.3495" lon="6.28573">
        <ele>1536.804688</ele>
        <time>2011-08-25T06:35:37Z</time>
      </trkpt>
      <trkpt lat="44.3497" lon="6.28569">
        <ele>1536.804688</ele>
        <time>2011-08-25T06:35:49Z</time>
      </trkpt>
      <trkpt lat="44.34984" lon="6.28569">
        <ele>1537.766113</ele>
        <time>2011-08-25T06:36:04Z</time>
      </trkpt>
      <trkpt lat="44.34987" lon="6.28568">
        <ele>1537.2854</ele>
        <time>2011-08-25T06:36:07Z</time>
      </trkpt>
      <trkpt lat="44.35003" lon="6.28564">
        <ele>1537.766113</ele>
        <time>2011-08-25T06:36:21Z</time>
      </trkpt>
      <trkpt lat="44.35014" lon="6.28557">
        <ele>1538.246826</ele>
        <time>2011-08-25T06:36:32Z</time>
      </trkpt>
      <trkpt lat="44.35025" lon="6.28551">
        <ele>1539.208008</ele>
        <time>2011-08-25T06:36:43Z</time>
      </trkpt>
      <trkpt lat="44.35033" lon="6.28549">
        <ele>1540.169434</ele>
        <time>2011-08-25T06:36:55Z</time>
      </trkpt>
      <trkpt lat="44.35055" lon="6.28541">
        <ele>1540.649902</ele>
        <time>2011-08-25T06:37:16Z</time>
      </trkpt>
      <trkpt lat="44.35065" lon="6.28523">
        <ele>1541.611328</ele>
        <time>2011-08-25T06:37:39Z</time>
      </trkpt>
      <trkpt lat="44.35078" lon="6.28514">
        <ele>1542.092041</ele>
        <time>2011-08-25T06:37:48Z</time>
      </trkpt>
      <trkpt lat="44.35083" lon="6.28511">
        <ele>1542.092041</ele>
        <time>2011-08-25T06:37:53Z</time>
      </trkpt>
      <trkpt lat="44.35092" lon="6.28502">
        <ele>1543.053223</ele>
        <time>2011-08-25T06:38:03Z</time>
      </trkpt>
      <trkpt lat="44.35104" lon="6.28486">
        <ele>1543.533936</ele>
        <time>2011-08-25T06:38:22Z</time>
      </trkpt>
      <trkpt lat="44.35109" lon="6.2847">
        <ele>1544.014648</ele>
        <time>2011-08-25T06:38:38Z</time>
      </trkpt>
      <trkpt lat="44.3511" lon="6.28437">
        <ele>1544.97583</ele>
        <time>2011-08-25T06:38:58Z</time>
      </trkpt>
      <trkpt lat="44.35124" lon="6.28419">
        <ele>1545.937256</ele>
        <time>2011-08-25T06:39:16Z</time>
      </trkpt>
      <trkpt lat="44.3513" lon="6.28398">
        <ele>1546.417969</ele>
        <time>2011-08-25T06:39:34Z</time>
      </trkpt>
      <trkpt lat="44.35139" lon="6.28383">
        <ele>1546.898438</ele>
        <time>2011-08-25T06:39:48Z</time>
      </trkpt>
      <trkpt lat="44.35139" lon="6.28375">
        <ele>1546.898438</ele>
        <time>2011-08-25T06:39:54Z</time>
      </trkpt>
      <trkpt lat="44.35139" lon="6.28368">
        <ele>1547.37915</ele>
        <time>2011-08-25T06:39:58Z</time>
      </trkpt>
      <trkpt lat="44.3514" lon="6.28358">
        <ele>1547.37915</ele>
        <time>2011-08-25T06:40:04Z</time>
      </trkpt>
      <trkpt lat="44.35139" lon="6.28336">
        <ele>1547.859863</ele>
        <time>2011-08-25T06:40:20Z</time>
      </trkpt>
      <trkpt lat="44.35142" lon="6.28325">
        <ele>1548.821289</ele>
        <time>2011-08-25T06:40:27Z</time>
      </trkpt>
      <trkpt lat="44.3514" lon="6.28305">
        <ele>1550.263428</ele>
        <time>2011-08-25T06:40:42Z</time>
      </trkpt>
      <trkpt lat="44.35138" lon="6.28295">
        <ele>1550.743896</ele>
        <time>2011-08-25T06:40:49Z</time>
      </trkpt>
      <trkpt lat="44.35136" lon="6.28275">
        <ele>1550.743896</ele>
        <time>2011-08-25T06:41:05Z</time>
      </trkpt>
      <trkpt lat="44.3513" lon="6.28249">
        <ele>1550.743896</ele>
        <time>2011-08-25T06:41:25Z</time>
      </trkpt>
      <trkpt lat="44.35114" lon="6.28223">
        <ele>1551.224609</ele>
        <time>2011-08-25T06:41:48Z</time>
      </trkpt>
      <trkpt lat="44.35105" lon="6.28202">
        <ele>1552.185791</ele>
        <time>2011-08-25T06:42:06Z</time>
      </trkpt>
      <trkpt lat="44.35092" lon="6.28188">
        <ele>1551.705322</ele>
        <time>2011-08-25T06:42:21Z</time>
      </trkpt>
      <trkpt lat="44.35081" lon="6.28174">
        <ele>1551.705322</ele>
        <time>2011-08-25T06:42:37Z</time>
      </trkpt>
      <trkpt lat="44.35066" lon="6.28157">
        <ele>1553.62793</ele>
        <time>2011-08-25T06:42:59Z</time>
      </trkpt>
      <trkpt lat="44.35047" lon="6.28142">
        <ele>1553.62793</ele>
        <time>2011-08-25T06:43:18Z</time>
      </trkpt>
      <trkpt lat="44.35028" lon="6.28133">
        <ele>1554.589111</ele>
        <time>2011-08-25T06:43:37Z</time>
      </trkpt>
      <trkpt lat="44.3501" lon="6.28123">
        <ele>1556.031006</ele>
        <time>2011-08-25T06:43:57Z</time>
      </trkpt>
      <trkpt lat="44.35005" lon="6.28119">
        <ele>1556.031006</ele>
        <time>2011-08-25T06:44:02Z</time>
      </trkpt>
      <trkpt lat="44.35" lon="6.28119">
        <ele>1556.031006</ele>
        <time>2011-08-25T06:44:08Z</time>
      </trkpt>
      <trkpt lat="44.34982" lon="6.28121">
        <ele>1556.992432</ele>
        <time>2011-08-25T06:44:25Z</time>
      </trkpt>
      <trkpt lat="44.34958" lon="6.28098">
        <ele>1557.953857</ele>
        <time>2011-08-25T06:44:53Z</time>
      </trkpt>
      <trkpt lat="44.34959" lon="6.28071">
        <ele>1557.953857</ele>
        <time>2011-08-25T06:45:20Z</time>
      </trkpt>
      <trkpt lat="44.34976" lon="6.28062">
        <ele>1558.434326</ele>
        <time>2011-08-25T06:45:35Z</time>
      </trkpt>
      <trkpt lat="44.34988" lon="6.2806">
        <ele>1558.915039</ele>
        <time>2011-08-25T06:45:40Z</time>
      </trkpt>
      <trkpt lat="44.34979" lon="6.28036">
        <ele>1559.395752</ele>
        <time>2011-08-25T06:45:52Z</time>
      </trkpt>
      <trkpt lat="44.34968" lon="6.28017">
        <ele>1560.837646</ele>
        <time>2011-08-25T06:46:17Z</time>
      </trkpt>
      <trkpt lat="44.3497" lon="6.27987">
        <ele>1560.837646</ele>
        <time>2011-08-25T06:46:48Z</time>
      </trkpt>
      <trkpt lat="44.34978" lon="6.2799">
        <ele>1560.837646</ele>
        <time>2011-08-25T06:46:56Z</time>
      </trkpt>
      <trkpt lat="44.34989" lon="6.28003">
        <ele>1561.799072</ele>
        <time>2011-08-25T06:47:06Z</time>
      </trkpt>
      <trkpt lat="44.35008" lon="6.28013">
        <ele>1561.799072</ele>
        <time>2011-08-25T06:47:25Z</time>
      </trkpt>
      <trkpt lat="44.35012" lon="6.28014">
        <ele>1561.799072</ele>
        <time>2011-08-25T06:47:28Z</time>
      </trkpt>
      <trkpt lat="44.35033" lon="6.28006">
        <ele>1562.279541</ele>
        <time>2011-08-25T06:47:51Z</time>
      </trkpt>
      <trkpt lat="44.35051" lon="6.28005">
        <ele>1563.240967</ele>
        <time>2011-08-25T06:48:13Z</time>
      </trkpt>
      <trkpt lat="44.35059" lon="6.28007">
        <ele>1563.240967</ele>
        <time>2011-08-25T06:48:21Z</time>
      </trkpt>
      <trkpt lat="44.35079" lon="6.28012">
        <ele>1563.721436</ele>
        <time>2011-08-25T06:48:38Z</time>
      </trkpt>
      <trkpt lat="44.3509" lon="6.28016">
        <ele>1564.683105</ele>
        <time>2011-08-25T06:48:49Z</time>
      </trkpt>
      <trkpt lat="44.35092" lon="6.28017">
        <ele>1564.683105</ele>
        <time>2011-08-25T06:48:51Z</time>
      </trkpt>
      <trkpt lat="44.35099" lon="6.28013">
        <ele>1564.683105</ele>
        <time>2011-08-25T06:48:55Z</time>
      </trkpt>
      <trkpt lat="44.35113" lon="6.2801">
        <ele>1565.163818</ele>
        <time>2011-08-25T06:49:11Z</time>
      </trkpt>
      <trkpt lat="44.35117" lon="6.28">
        <ele>1566.125</ele>
        <time>2011-08-25T06:49:20Z</time>
      </trkpt>
      <trkpt lat="44.35129" lon="6.27972">
        <ele>1566.605713</ele>
        <time>2011-08-25T06:49:41Z</time>
      </trkpt>
      <trkpt lat="44.35134" lon="6.2796">
        <ele>1566.605713</ele>
        <time>2011-08-25T06:49:51Z</time>
      </trkpt>
      <trkpt lat="44.35138" lon="6.27938">
        <ele>1567.566895</ele>
        <time>2011-08-25T06:50:10Z</time>
      </trkpt>
      <trkpt lat="44.35142" lon="6.27902">
        <ele>1568.047607</ele>
        <time>2011-08-25T06:50:30Z</time>
      </trkpt>
      <trkpt lat="44.35151" lon="6.27896">
        <ele>1568.52832</ele>
        <time>2011-08-25T06:50:37Z</time>
      </trkpt>
      <trkpt lat="44.35157" lon="6.27885">
        <ele>1568.52832</ele>
        <time>2011-08-25T06:50:44Z</time>
      </trkpt>
      <trkpt lat="44.3516" lon="6.2788">
        <ele>1568.52832</ele>
        <time>2011-08-25T06:50:48Z</time>
      </trkpt>
      <trkpt lat="44.35157" lon="6.27864">
        <ele>1569.009033</ele>
        <time>2011-08-25T06:50:57Z</time>
      </trkpt>
      <trkpt lat="44.35158" lon="6.2786">
        <ele>1569.009033</ele>
        <time>2011-08-25T06:50:59Z</time>
      </trkpt>
      <trkpt lat="44.35155" lon="6.27843">
        <ele>1569.009033</ele>
        <time>2011-08-25T06:51:11Z</time>
      </trkpt>
      <trkpt lat="44.35161" lon="6.27831">
        <ele>1569.970215</ele>
        <time>2011-08-25T06:51:21Z</time>
      </trkpt>
      <trkpt lat="44.35169" lon="6.27805">
        <ele>1570.450928</ele>
        <time>2011-08-25T06:51:42Z</time>
      </trkpt>
      <trkpt lat="44.3517" lon="6.27802">
        <ele>1569.970215</ele>
        <time>2011-08-25T06:51:45Z</time>
      </trkpt>
      <trkpt lat="44.35172" lon="6.27788">
        <ele>1570.931641</ele>
        <time>2011-08-25T06:51:51Z</time>
      </trkpt>
      <trkpt lat="44.35177" lon="6.27785">
        <ele>1570.931641</ele>
        <time>2011-08-25T06:51:54Z</time>
      </trkpt>
      <trkpt lat="44.35179" lon="6.27773">
        <ele>1570.931641</ele>
        <time>2011-08-25T06:52:01Z</time>
      </trkpt>
      <trkpt lat="44.35182" lon="6.2777">
        <ele>1570.931641</ele>
        <time>2011-08-25T06:52:08Z</time>
      </trkpt>
      <trkpt lat="44.35189" lon="6.27746">
        <ele>1571.892822</ele>
        <time>2011-08-25T06:52:27Z</time>
      </trkpt>
      <trkpt lat="44.35189" lon="6.27743">
        <ele>1571.892822</ele>
        <time>2011-08-25T06:52:29Z</time>
      </trkpt>
      <trkpt lat="44.35187" lon="6.27725">
        <ele>1572.373535</ele>
        <time>2011-08-25T06:52:39Z</time>
      </trkpt>
      <trkpt lat="44.35189" lon="6.27716">
        <ele>1572.373535</ele>
        <time>2011-08-25T06:52:46Z</time>
      </trkpt>
      <trkpt lat="44.35192" lon="6.27705">
        <ele>1573.334961</ele>
        <time>2011-08-25T06:52:55Z</time>
      </trkpt>
      <trkpt lat="44.35191" lon="6.27693">
        <ele>1573.334961</ele>
        <time>2011-08-25T06:53:04Z</time>
      </trkpt>
      <trkpt lat="44.35189" lon="6.27689">
        <ele>1573.81543</ele>
        <time>2011-08-25T06:53:07Z</time>
      </trkpt>
      <trkpt lat="44.35192" lon="6.27668">
        <ele>1573.81543</ele>
        <time>2011-08-25T06:53:24Z</time>
      </trkpt>
      <trkpt lat="44.35191" lon="6.27666">
        <ele>1573.81543</ele>
        <time>2011-08-25T06:53:25Z</time>
      </trkpt>
      <trkpt lat="44.35187" lon="6.2764">
        <ele>1573.334961</ele>
        <time>2011-08-25T06:53:43Z</time>
      </trkpt>
      <trkpt lat="44.35186" lon="6.27613">
        <ele>1572.854248</ele>
        <time>2011-08-25T06:54:00Z</time>
      </trkpt>
      <trkpt lat="44.35187" lon="6.27611">
        <ele>1572.854248</ele>
        <time>2011-08-25T06:54:01Z</time>
      </trkpt>
      <trkpt lat="44.3519" lon="6.27599">
        <ele>1573.334961</ele>
        <time>2011-08-25T06:54:11Z</time>
      </trkpt>
      <trkpt lat="44.35192" lon="6.27569">
        <ele>1573.81543</ele>
        <time>2011-08-25T06:54:30Z</time>
      </trkpt>
      <trkpt lat="44.3519" lon="6.27561">
        <ele>1574.296143</ele>
        <time>2011-08-25T06:54:35Z</time>
      </trkpt>
      <trkpt lat="44.3519" lon="6.27557">
        <ele>1574.296143</ele>
        <time>2011-08-25T06:54:39Z</time>
      </trkpt>
      <trkpt lat="44.35191" lon="6.27552">
        <ele>1574.296143</ele>
        <time>2011-08-25T06:54:42Z</time>
      </trkpt>
      <trkpt lat="44.3519" lon="6.27526">
        <ele>1575.738037</ele>
        <time>2011-08-25T06:55:03Z</time>
      </trkpt>
      <trkpt lat="44.35191" lon="6.27522">
        <ele>1575.738037</ele>
        <time>2011-08-25T06:55:26Z</time>
      </trkpt>
      <trkpt lat="44.35196" lon="6.27514">
        <ele>1574.296143</ele>
        <time>2011-08-25T06:56:49Z</time>
      </trkpt>
      <trkpt lat="44.35195" lon="6.27514">
        <ele>1574.776855</ele>
        <time>2011-08-25T06:56:51Z</time>
      </trkpt>
      <trkpt lat="44.35202" lon="6.27514">
        <ele>1574.296143</ele>
        <time>2011-08-25T06:57:04Z</time>
      </trkpt>
      <trkpt lat="44.35199" lon="6.27513">
        <ele>1574.776855</ele>
        <time>2011-08-25T06:57:38Z</time>
      </trkpt>
      <trkpt lat="44.35199" lon="6.27516">
        <ele>1574.296143</ele>
        <time>2011-08-25T06:57:52Z</time>
      </trkpt>
      <trkpt lat="44.35196" lon="6.27527">
        <ele>1574.296143</ele>
        <time>2011-08-25T06:58:05Z</time>
      </trkpt>
      <trkpt lat="44.35195" lon="6.27522">
        <ele>1573.81543</ele>
        <time>2011-08-25T06:58:35Z</time>
      </trkpt>
      <trkpt lat="44.35195" lon="6.27522">
        <ele>1573.81543</ele>
        <time>2011-08-25T06:58:56Z</time>
      </trkpt>
      <trkpt lat="44.35205" lon="6.27518">
        <ele>1573.81543</ele>
        <time>2011-08-25T06:59:09Z</time>
      </trkpt>
      <trkpt lat="44.35212" lon="6.27523">
        <ele>1573.81543</ele>
        <time>2011-08-25T06:59:16Z</time>
      </trkpt>
      <trkpt lat="44.35223" lon="6.27538">
        <ele>1574.296143</ele>
        <time>2011-08-25T06:59:30Z</time>
      </trkpt>
      <trkpt lat="44.35223" lon="6.27539">
        <ele>1574.296143</ele>
        <time>2011-08-25T06:59:31Z</time>
      </trkpt>
      <trkpt lat="44.35235" lon="6.27554">
        <ele>1575.257324</ele>
        <time>2011-08-25T06:59:47Z</time>
      </trkpt>
      <trkpt lat="44.35235" lon="6.27555">
        <ele>1574.776855</ele>
        <time>2011-08-25T06:59:48Z</time>
      </trkpt>
      <trkpt lat="44.35236" lon="6.27557">
        <ele>1575.257324</ele>
        <time>2011-08-25T06:59:50Z</time>
      </trkpt>
      <trkpt lat="44.35252" lon="6.2757">
        <ele>1578.141357</ele>
        <time>2011-08-25T07:00:10Z</time>
      </trkpt>
      <trkpt lat="44.35266" lon="6.27583">
        <ele>1578.62207</ele>
        <time>2011-08-25T07:00:27Z</time>
      </trkpt>
      <trkpt lat="44.35279" lon="6.27593">
        <ele>1580.064209</ele>
        <time>2011-08-25T07:00:45Z</time>
      </trkpt>
      <trkpt lat="44.35289" lon="6.27611">
        <ele>1581.506104</ele>
        <time>2011-08-25T07:01:00Z</time>
      </trkpt>
      <trkpt lat="44.35299" lon="6.27628">
        <ele>1581.986816</ele>
        <time>2011-08-25T07:01:14Z</time>
      </trkpt>
      <trkpt lat="44.35314" lon="6.27632">
        <ele>1583.428711</ele>
        <time>2011-08-25T07:01:32Z</time>
      </trkpt>
      <trkpt lat="44.35314" lon="6.27627">
        <ele>1583.428711</ele>
        <time>2011-08-25T07:01:37Z</time>
      </trkpt>
      <trkpt lat="44.35314" lon="6.27623">
        <ele>1583.428711</ele>
        <time>2011-08-25T07:01:40Z</time>
      </trkpt>
      <trkpt lat="44.35314" lon="6.27614">
        <ele>1584.87085</ele>
        <time>2011-08-25T07:01:48Z</time>
      </trkpt>
      <trkpt lat="44.35308" lon="6.27597">
        <ele>1586.793213</ele>
        <time>2011-08-25T07:02:03Z</time>
      </trkpt>
      <trkpt lat="44.35302" lon="6.2757">
        <ele>1588.235352</ele>
        <time>2011-08-25T07:02:23Z</time>
      </trkpt>
      <trkpt lat="44.353" lon="6.27566">
        <ele>1588.235352</ele>
        <time>2011-08-25T07:02:27Z</time>
      </trkpt>
      <trkpt lat="44.35299" lon="6.27562">
        <ele>1588.235352</ele>
        <time>2011-08-25T07:02:30Z</time>
      </trkpt>
      <trkpt lat="44.35297" lon="6.27561">
        <ele>1588.716064</ele>
        <time>2011-08-25T07:02:32Z</time>
      </trkpt>
      <trkpt lat="44.35292" lon="6.27545">
        <ele>1590.157959</ele>
        <time>2011-08-25T07:02:44Z</time>
      </trkpt>
      <trkpt lat="44.35291" lon="6.27542">
        <ele>1590.157959</ele>
        <time>2011-08-25T07:02:47Z</time>
      </trkpt>
      <trkpt lat="44.35289" lon="6.27523">
        <ele>1591.119141</ele>
        <time>2011-08-25T07:03:02Z</time>
      </trkpt>
      <trkpt lat="44.35288" lon="6.27502">
        <ele>1593.041748</ele>
        <time>2011-08-25T07:03:19Z</time>
      </trkpt>
      <trkpt lat="44.3528" lon="6.27482">
        <ele>1594.003174</ele>
        <time>2011-08-25T07:03:36Z</time>
      </trkpt>
      <trkpt lat="44.35275" lon="6.27466">
        <ele>1593.522461</ele>
        <time>2011-08-25T07:03:49Z</time>
      </trkpt>
      <trkpt lat="44.35268" lon="6.27448">
        <ele>1594.483643</ele>
        <time>2011-08-25T07:04:05Z</time>
      </trkpt>
      <trkpt lat="44.35267" lon="6.27446">
        <ele>1594.483643</ele>
        <time>2011-08-25T07:04:07Z</time>
      </trkpt>
      <trkpt lat="44.35259" lon="6.27429">
        <ele>1594.964355</ele>
        <time>2011-08-25T07:04:22Z</time>
      </trkpt>
      <trkpt lat="44.35245" lon="6.27413">
        <ele>1595.445068</ele>
        <time>2011-08-25T07:04:40Z</time>
      </trkpt>
      <trkpt lat="44.35236" lon="6.27404">
        <ele>1596.887207</ele>
        <time>2011-08-25T07:04:52Z</time>
      </trkpt>
      <trkpt lat="44.35222" lon="6.2739">
        <ele>1598.329102</ele>
        <time>2011-08-25T07:05:09Z</time>
      </trkpt>
      <trkpt lat="44.35211" lon="6.27375">
        <ele>1600.251953</ele>
        <time>2011-08-25T07:05:26Z</time>
      </trkpt>
      <trkpt lat="44.35208" lon="6.27372">
        <ele>1601.213135</ele>
        <time>2011-08-25T07:05:30Z</time>
      </trkpt>
      <trkpt lat="44.35195" lon="6.27359">
        <ele>1601.213135</ele>
        <time>2011-08-25T07:05:45Z</time>
      </trkpt>
      <trkpt lat="44.35181" lon="6.2733">
        <ele>1602.655029</ele>
        <time>2011-08-25T07:06:08Z</time>
      </trkpt>
      <trkpt lat="44.3518" lon="6.27326">
        <ele>1601.213135</ele>
        <time>2011-08-25T07:06:11Z</time>
      </trkpt>
      <trkpt lat="44.35168" lon="6.27303">
        <ele>1604.097168</ele>
        <time>2011-08-25T07:06:32Z</time>
      </trkpt>
      <trkpt lat="44.35153" lon="6.27294">
        <ele>1606.019531</ele>
        <time>2011-08-25T07:06:50Z</time>
      </trkpt>
      <trkpt lat="44.35142" lon="6.27291">
        <ele>1607.942383</ele>
        <time>2011-08-25T07:07:03Z</time>
      </trkpt>
      <trkpt lat="44.35129" lon="6.27292">
        <ele>1610.345459</ele>
        <time>2011-08-25T07:07:18Z</time>
      </trkpt>
      <trkpt lat="44.35125" lon="6.2729">
        <ele>1611.306885</ele>
        <time>2011-08-25T07:07:23Z</time>
      </trkpt>
      <trkpt lat="44.35114" lon="6.27287">
        <ele>1612.749023</ele>
        <time>2011-08-25T07:07:40Z</time>
      </trkpt>
      <trkpt lat="44.35102" lon="6.27282">
        <ele>1614.190918</ele>
        <time>2011-08-25T07:07:54Z</time>
      </trkpt>
      <trkpt lat="44.35091" lon="6.27276">
        <ele>1615.633057</ele>
        <time>2011-08-25T07:08:07Z</time>
      </trkpt>
      <trkpt lat="44.35071" lon="6.2726">
        <ele>1618.036133</ele>
        <time>2011-08-25T07:08:27Z</time>
      </trkpt>
      <trkpt lat="44.35068" lon="6.27257">
        <ele>1618.036133</ele>
        <time>2011-08-25T07:08:31Z</time>
      </trkpt>
      <trkpt lat="44.35047" lon="6.2726">
        <ele>1620.439453</ele>
        <time>2011-08-25T07:08:55Z</time>
      </trkpt>
      <trkpt lat="44.35045" lon="6.27265">
        <ele>1620.920166</ele>
        <time>2011-08-25T07:08:59Z</time>
      </trkpt>
      <trkpt lat="44.35032" lon="6.27276">
        <ele>1623.803955</ele>
        <time>2011-08-25T07:09:17Z</time>
      </trkpt>
      <trkpt lat="44.35018" lon="6.27292">
        <ele>1626.687988</ele>
        <time>2011-08-25T07:09:36Z</time>
      </trkpt>
      <trkpt lat="44.3501" lon="6.27301">
        <ele>1628.61084</ele>
        <time>2011-08-25T07:09:47Z</time>
      </trkpt>
      <trkpt lat="44.35007" lon="6.27303">
        <ele>1629.572021</ele>
        <time>2011-08-25T07:09:50Z</time>
      </trkpt>
      <trkpt lat="44.34994" lon="6.27315">
        <ele>1632.936523</ele>
        <time>2011-08-25T07:10:06Z</time>
      </trkpt>
      <trkpt lat="44.34977" lon="6.27319">
        <ele>1635.339844</ele>
        <time>2011-08-25T07:10:26Z</time>
      </trkpt>
      <trkpt lat="44.34968" lon="6.27313">
        <ele>1637.743164</ele>
        <time>2011-08-25T07:10:36Z</time>
      </trkpt>
      <trkpt lat="44.34954" lon="6.27321">
        <ele>1638.70459</ele>
        <time>2011-08-25T07:10:52Z</time>
      </trkpt>
      <trkpt lat="44.34939" lon="6.27332">
        <ele>1641.588379</ele>
        <time>2011-08-25T07:11:12Z</time>
      </trkpt>
      <trkpt lat="44.34924" lon="6.27335">
        <ele>1643.030273</ele>
        <time>2011-08-25T07:11:31Z</time>
      </trkpt>
      <trkpt lat="44.34909" lon="6.27344">
        <ele>1645.914551</ele>
        <time>2011-08-25T07:11:51Z</time>
      </trkpt>
      <trkpt lat="44.34895" lon="6.27351">
        <ele>1648.317627</ele>
        <time>2011-08-25T07:12:10Z</time>
      </trkpt>
      <trkpt lat="44.34882" lon="6.27358">
        <ele>1650.720947</ele>
        <time>2011-08-25T07:12:28Z</time>
      </trkpt>
      <trkpt lat="44.34869" lon="6.2736">
        <ele>1653.60498</ele>
        <time>2011-08-25T07:12:49Z</time>
      </trkpt>
      <trkpt lat="44.34859" lon="6.27363">
        <ele>1656.48877</ele>
        <time>2011-08-25T07:13:03Z</time>
      </trkpt>
      <trkpt lat="44.3485" lon="6.27371">
        <ele>1659.853271</ele>
        <time>2011-08-25T07:13:18Z</time>
      </trkpt>
      <trkpt lat="44.3484" lon="6.27383">
        <ele>1661.295654</ele>
        <time>2011-08-25T07:13:35Z</time>
      </trkpt>
      <trkpt lat="44.34834" lon="6.27392">
        <ele>1664.179443</ele>
        <time>2011-08-25T07:13:46Z</time>
      </trkpt>
      <trkpt lat="44.34834" lon="6.27406">
        <ele>1666.102051</ele>
        <time>2011-08-25T07:14:00Z</time>
      </trkpt>
      <trkpt lat="44.34836" lon="6.27408">
        <ele>1666.582764</ele>
        <time>2011-08-25T07:14:02Z</time>
      </trkpt>
      <trkpt lat="44.34845" lon="6.27418">
        <ele>1667.543945</ele>
        <time>2011-08-25T07:14:14Z</time>
      </trkpt>
      <trkpt lat="44.34855" lon="6.27434">
        <ele>1669.466797</ele>
        <time>2011-08-25T07:14:32Z</time>
      </trkpt>
      <trkpt lat="44.34865" lon="6.27456">
        <ele>1670.427979</ele>
        <time>2011-08-25T07:14:52Z</time>
      </trkpt>
      <trkpt lat="44.34869" lon="6.27474">
        <ele>1673.79248</ele>
        <time>2011-08-25T07:15:09Z</time>
      </trkpt>
      <trkpt lat="44.3488" lon="6.27497">
        <ele>1674.753906</ele>
        <time>2011-08-25T07:15:34Z</time>
      </trkpt>
      <trkpt lat="44.34885" lon="6.27513">
        <ele>1677.157471</ele>
        <time>2011-08-25T07:15:49Z</time>
      </trkpt>
      <trkpt lat="44.34886" lon="6.27522">
        <ele>1677.157471</ele>
        <time>2011-08-25T07:15:55Z</time>
      </trkpt>
      <trkpt lat="44.34887" lon="6.27524">
        <ele>1678.599365</ele>
        <time>2011-08-25T07:15:57Z</time>
      </trkpt>
      <trkpt lat="44.34887" lon="6.27532">
        <ele>1680.04126</ele>
        <time>2011-08-25T07:16:04Z</time>
      </trkpt>
      <trkpt lat="44.34888" lon="6.27533">
        <ele>1679.079834</ele>
        <time>2011-08-25T07:16:05Z</time>
      </trkpt>
      <trkpt lat="44.34888" lon="6.27536">
        <ele>1679.079834</ele>
        <time>2011-08-25T07:16:07Z</time>
      </trkpt>
      <trkpt lat="44.34888" lon="6.27539">
        <ele>1679.079834</ele>
        <time>2011-08-25T07:16:10Z</time>
      </trkpt>
      <trkpt lat="44.34885" lon="6.27557">
        <ele>1679.079834</ele>
        <time>2011-08-25T07:16:22Z</time>
      </trkpt>
      <trkpt lat="44.34885" lon="6.27573">
        <ele>1680.521973</ele>
        <time>2011-08-25T07:16:38Z</time>
      </trkpt>
      <trkpt lat="44.34884" lon="6.27574">
        <ele>1680.521973</ele>
        <time>2011-08-25T07:16:39Z</time>
      </trkpt>
      <trkpt lat="44.34871" lon="6.27586">
        <ele>1680.04126</ele>
        <time>2011-08-25T07:16:54Z</time>
      </trkpt>
      <trkpt lat="44.34864" lon="6.27592">
        <ele>1681.963867</ele>
        <time>2011-08-25T07:17:04Z</time>
      </trkpt>
      <trkpt lat="44.34861" lon="6.276">
        <ele>1681.483154</ele>
        <time>2011-08-25T07:17:25Z</time>
      </trkpt>
      <trkpt lat="44.3486" lon="6.27598">
        <ele>1681.963867</ele>
        <time>2011-08-25T07:26:01Z</time>
      </trkpt>
      <trkpt lat="44.34858" lon="6.27594">
        <ele>1682.44458</ele>
        <time>2011-08-25T07:26:44Z</time>
      </trkpt>
      <trkpt lat="44.34853" lon="6.27596">
        <ele>1682.925049</ele>
        <time>2011-08-25T07:27:01Z</time>
      </trkpt>
      <trkpt lat="44.34848" lon="6.27598">
        <ele>1683.886475</ele>
        <time>2011-08-25T07:27:18Z</time>
      </trkpt>
      <trkpt lat="44.34838" lon="6.27599">
        <ele>1683.886475</ele>
        <time>2011-08-25T07:27:28Z</time>
      </trkpt>
      <trkpt lat="44.34823" lon="6.27607">
        <ele>1685.328369</ele>
        <time>2011-08-25T07:27:45Z</time>
      </trkpt>
      <trkpt lat="44.3481" lon="6.2761">
        <ele>1686.770264</ele>
        <time>2011-08-25T07:27:59Z</time>
      </trkpt>
      <trkpt lat="44.34798" lon="6.27609">
        <ele>1688.212402</ele>
        <time>2011-08-25T07:28:14Z</time>
      </trkpt>
      <trkpt lat="44.34786" lon="6.27612">
        <ele>1690.13501</ele>
        <time>2011-08-25T07:28:30Z</time>
      </trkpt>
      <trkpt lat="44.3477" lon="6.27615">
        <ele>1691.576904</ele>
        <time>2011-08-25T07:28:48Z</time>
      </trkpt>
      <trkpt lat="44.34755" lon="6.2762">
        <ele>1693.499756</ele>
        <time>2011-08-25T07:29:06Z</time>
      </trkpt>
      <trkpt lat="44.34741" lon="6.27614">
        <ele>1695.422363</ele>
        <time>2011-08-25T07:29:24Z</time>
      </trkpt>
      <trkpt lat="44.34737" lon="6.27615">
        <ele>1695.422363</ele>
        <time>2011-08-25T07:29:26Z</time>
      </trkpt>
      <trkpt lat="44.34724" lon="6.2761">
        <ele>1696.383789</ele>
        <time>2011-08-25T07:29:44Z</time>
      </trkpt>
      <trkpt lat="44.34704" lon="6.27607">
        <ele>1697.344971</ele>
        <time>2011-08-25T07:30:05Z</time>
      </trkpt>
      <trkpt lat="44.34689" lon="6.27605">
        <ele>1698.786865</ele>
        <time>2011-08-25T07:30:23Z</time>
      </trkpt>
      <trkpt lat="44.34672" lon="6.27603">
        <ele>1700.229004</ele>
        <time>2011-08-25T07:30:42Z</time>
      </trkpt>
      <trkpt lat="44.34659" lon="6.27607">
        <ele>1701.670898</ele>
        <time>2011-08-25T07:30:57Z</time>
      </trkpt>
      <trkpt lat="44.34644" lon="6.27608">
        <ele>1702.63208</ele>
        <time>2011-08-25T07:31:14Z</time>
      </trkpt>
      <trkpt lat="44.34642" lon="6.27609">
        <ele>1702.63208</ele>
        <time>2011-08-25T07:31:16Z</time>
      </trkpt>
      <trkpt lat="44.34634" lon="6.27617">
        <ele>1703.112793</ele>
        <time>2011-08-25T07:31:30Z</time>
      </trkpt>
      <trkpt lat="44.34627" lon="6.27618">
        <ele>1703.593506</ele>
        <time>2011-08-25T07:31:35Z</time>
      </trkpt>
      <trkpt lat="44.34612" lon="6.27624">
        <ele>1705.516113</ele>
        <time>2011-08-25T07:31:50Z</time>
      </trkpt>
      <trkpt lat="44.34603" lon="6.27635">
        <ele>1706.958008</ele>
        <time>2011-08-25T07:32:07Z</time>
      </trkpt>
      <trkpt lat="44.34591" lon="6.27643">
        <ele>1708.880859</ele>
        <time>2011-08-25T07:32:24Z</time>
      </trkpt>
      <trkpt lat="44.34577" lon="6.27654">
        <ele>1710.322754</ele>
        <time>2011-08-25T07:32:40Z</time>
      </trkpt>
      <trkpt lat="44.34557" lon="6.27662">
        <ele>1712.726074</ele>
        <time>2011-08-25T07:33:00Z</time>
      </trkpt>
      <trkpt lat="44.34538" lon="6.27674">
        <ele>1715.610107</ele>
        <time>2011-08-25T07:33:22Z</time>
      </trkpt>
      <trkpt lat="44.34522" lon="6.27683">
        <ele>1718.013184</ele>
        <time>2011-08-25T07:33:45Z</time>
      </trkpt>
      <trkpt lat="44.34507" lon="6.27686">
        <ele>1720.416504</ele>
        <time>2011-08-25T07:34:04Z</time>
      </trkpt>
      <trkpt lat="44.34492" lon="6.27689">
        <ele>1722.339111</ele>
        <time>2011-08-25T07:34:22Z</time>
      </trkpt>
      <trkpt lat="44.34479" lon="6.27691">
        <ele>1722.819824</ele>
        <time>2011-08-25T07:34:38Z</time>
      </trkpt>
      <trkpt lat="44.34462" lon="6.27692">
        <ele>1724.261963</ele>
        <time>2011-08-25T07:34:58Z</time>
      </trkpt>
      <trkpt lat="44.3445" lon="6.27693">
        <ele>1725.703857</ele>
        <time>2011-08-25T07:35:10Z</time>
      </trkpt>
      <trkpt lat="44.34439" lon="6.27699">
        <ele>1727.145996</ele>
        <time>2011-08-25T07:35:25Z</time>
      </trkpt>
      <trkpt lat="44.34438" lon="6.27699">
        <ele>1727.145996</ele>
        <time>2011-08-25T07:35:26Z</time>
      </trkpt>
      <trkpt lat="44.34426" lon="6.27713">
        <ele>1728.107178</ele>
        <time>2011-08-25T07:35:43Z</time>
      </trkpt>
      <trkpt lat="44.34416" lon="6.27718">
        <ele>1728.587891</ele>
        <time>2011-08-25T07:35:54Z</time>
      </trkpt>
      <trkpt lat="44.34413" lon="6.27718">
        <ele>1728.587891</ele>
        <time>2011-08-25T07:35:57Z</time>
      </trkpt>
      <trkpt lat="44.34399" lon="6.27718">
        <ele>1727.626465</ele>
        <time>2011-08-25T07:36:11Z</time>
      </trkpt>
      <trkpt lat="44.34396" lon="6.27719">
        <ele>1728.107178</ele>
        <time>2011-08-25T07:36:13Z</time>
      </trkpt>
      <trkpt lat="44.34378" lon="6.2771">
        <ele>1727.626465</ele>
        <time>2011-08-25T07:36:30Z</time>
      </trkpt>
      <trkpt lat="44.34362" lon="6.27691">
        <ele>1726.665283</ele>
        <time>2011-08-25T07:36:52Z</time>
      </trkpt>
      <trkpt lat="44.34356" lon="6.27684">
        <ele>1727.626465</ele>
        <time>2011-08-25T07:37:02Z</time>
      </trkpt>
      <trkpt lat="44.34351" lon="6.27684">
        <ele>1727.145996</ele>
        <time>2011-08-25T07:37:09Z</time>
      </trkpt>
      <trkpt lat="44.34334" lon="6.27697">
        <ele>1727.145996</ele>
        <time>2011-08-25T07:37:23Z</time>
      </trkpt>
      <trkpt lat="44.34325" lon="6.27698">
        <ele>1726.665283</ele>
        <time>2011-08-25T07:37:34Z</time>
      </trkpt>
      <trkpt lat="44.34316" lon="6.27701">
        <ele>1726.665283</ele>
        <time>2011-08-25T07:37:43Z</time>
      </trkpt>
      <trkpt lat="44.34306" lon="6.27719">
        <ele>1726.18457</ele>
        <time>2011-08-25T07:37:58Z</time>
      </trkpt>
      <trkpt lat="44.34298" lon="6.27723">
        <ele>1724.742676</ele>
        <time>2011-08-25T07:38:05Z</time>
      </trkpt>
      <trkpt lat="44.34283" lon="6.2772">
        <ele>1723.781006</ele>
        <time>2011-08-25T07:38:21Z</time>
      </trkpt>
      <trkpt lat="44.34269" lon="6.27716">
        <ele>1722.339111</ele>
        <time>2011-08-25T07:38:34Z</time>
      </trkpt>
      <trkpt lat="44.34254" lon="6.2771">
        <ele>1721.858398</ele>
        <time>2011-08-25T07:38:49Z</time>
      </trkpt>
      <trkpt lat="44.34244" lon="6.27707">
        <ele>1720.416504</ele>
        <time>2011-08-25T07:38:59Z</time>
      </trkpt>
      <trkpt lat="44.3423" lon="6.277">
        <ele>1719.455322</ele>
        <time>2011-08-25T07:39:17Z</time>
      </trkpt>
      <trkpt lat="44.34204" lon="6.27689">
        <ele>1719.455322</ele>
        <time>2011-08-25T07:39:43Z</time>
      </trkpt>
      <trkpt lat="44.34186" lon="6.27694">
        <ele>1718.013184</ele>
        <time>2011-08-25T07:40:00Z</time>
      </trkpt>
      <trkpt lat="44.34171" lon="6.27683">
        <ele>1718.974609</ele>
        <time>2011-08-25T07:40:15Z</time>
      </trkpt>
      <trkpt lat="44.34171" lon="6.27684">
        <ele>1718.974609</ele>
        <time>2011-08-25T07:40:20Z</time>
      </trkpt>
      <trkpt lat="44.34165" lon="6.27678">
        <ele>1718.013184</ele>
        <time>2011-08-25T07:40:31Z</time>
      </trkpt>
      <trkpt lat="44.34149" lon="6.27674">
        <ele>1716.090576</ele>
        <time>2011-08-25T07:40:48Z</time>
      </trkpt>
      <trkpt lat="44.34131" lon="6.27664">
        <ele>1713.206787</ele>
        <time>2011-08-25T07:41:06Z</time>
      </trkpt>
      <trkpt lat="44.34114" lon="6.27653">
        <ele>1712.245361</ele>
        <time>2011-08-25T07:41:19Z</time>
      </trkpt>
      <trkpt lat="44.34111" lon="6.27649">
        <ele>1711.28418</ele>
        <time>2011-08-25T07:41:24Z</time>
      </trkpt>
      <trkpt lat="44.34097" lon="6.27635">
        <ele>1710.803467</ele>
        <time>2011-08-25T07:41:39Z</time>
      </trkpt>
      <trkpt lat="44.34096" lon="6.27634">
        <ele>1710.803467</ele>
        <time>2011-08-25T07:41:41Z</time>
      </trkpt>
      <trkpt lat="44.34094" lon="6.27631">
        <ele>1709.842041</ele>
        <time>2011-08-25T07:41:49Z</time>
      </trkpt>
      <trkpt lat="44.34092" lon="6.2763">
        <ele>1709.842041</ele>
        <time>2011-08-25T07:41:51Z</time>
      </trkpt>
      <trkpt lat="44.34078" lon="6.27618">
        <ele>1709.842041</ele>
        <time>2011-08-25T07:42:09Z</time>
      </trkpt>
      <trkpt lat="44.34062" lon="6.27617">
        <ele>1708.880859</ele>
        <time>2011-08-25T07:42:26Z</time>
      </trkpt>
      <trkpt lat="44.34048" lon="6.27606">
        <ele>1707.919434</ele>
        <time>2011-08-25T07:42:44Z</time>
      </trkpt>
      <trkpt lat="44.34029" lon="6.27596">
        <ele>1706.958008</ele>
        <time>2011-08-25T07:43:00Z</time>
      </trkpt>
      <trkpt lat="44.3402" lon="6.27589">
        <ele>1705.996582</ele>
        <time>2011-08-25T07:43:14Z</time>
      </trkpt>
      <trkpt lat="44.34003" lon="6.27572">
        <ele>1704.554688</ele>
        <time>2011-08-25T07:43:31Z</time>
      </trkpt>
      <trkpt lat="44.33998" lon="6.2756">
        <ele>1704.074219</ele>
        <time>2011-08-25T07:43:43Z</time>
      </trkpt>
      <trkpt lat="44.33993" lon="6.27556">
        <ele>1703.593506</ele>
        <time>2011-08-25T07:43:48Z</time>
      </trkpt>
      <trkpt lat="44.33979" lon="6.27547">
        <ele>1701.670898</ele>
        <time>2011-08-25T07:44:05Z</time>
      </trkpt>
      <trkpt lat="44.33964" lon="6.27535">
        <ele>1700.709473</ele>
        <time>2011-08-25T07:44:21Z</time>
      </trkpt>
      <trkpt lat="44.33958" lon="6.27533">
        <ele>1700.709473</ele>
        <time>2011-08-25T07:44:26Z</time>
      </trkpt>
      <trkpt lat="44.33952" lon="6.27531">
        <ele>1700.229004</ele>
        <time>2011-08-25T07:44:32Z</time>
      </trkpt>
      <trkpt lat="44.33938" lon="6.27521">
        <ele>1699.748291</ele>
        <time>2011-08-25T07:44:47Z</time>
      </trkpt>
      <trkpt lat="44.33925" lon="6.27512">
        <ele>1699.267578</ele>
        <time>2011-08-25T07:45:00Z</time>
      </trkpt>
      <trkpt lat="44.33921" lon="6.27506">
        <ele>1698.786865</ele>
        <time>2011-08-25T07:45:05Z</time>
      </trkpt>
      <trkpt lat="44.33919" lon="6.27503">
        <ele>1698.786865</ele>
        <time>2011-08-25T07:45:07Z</time>
      </trkpt>
      <trkpt lat="44.33911" lon="6.27494">
        <ele>1698.306152</ele>
        <time>2011-08-25T07:45:15Z</time>
      </trkpt>
      <trkpt lat="44.33902" lon="6.27485">
        <ele>1697.825684</ele>
        <time>2011-08-25T07:45:26Z</time>
      </trkpt>
      <trkpt lat="44.339" lon="6.27483">
        <ele>1697.825684</ele>
        <time>2011-08-25T07:45:28Z</time>
      </trkpt>
      <trkpt lat="44.33887" lon="6.27472">
        <ele>1696.864258</ele>
        <time>2011-08-25T07:45:42Z</time>
      </trkpt>
      <trkpt lat="44.33877" lon="6.27461">
        <ele>1695.903076</ele>
        <time>2011-08-25T07:45:56Z</time>
      </trkpt>
      <trkpt lat="44.33869" lon="6.27458">
        <ele>1695.903076</ele>
        <time>2011-08-25T07:46:03Z</time>
      </trkpt>
      <trkpt lat="44.33862" lon="6.27453">
        <ele>1694.94165</ele>
        <time>2011-08-25T07:46:11Z</time>
      </trkpt>
      <trkpt lat="44.33854" lon="6.2744">
        <ele>1695.422363</ele>
        <time>2011-08-25T07:46:22Z</time>
      </trkpt>
      <trkpt lat="44.33855" lon="6.2743">
        <ele>1697.825684</ele>
        <time>2011-08-25T07:46:28Z</time>
      </trkpt>
      <trkpt lat="44.33857" lon="6.27412">
        <ele>1699.267578</ele>
        <time>2011-08-25T07:46:40Z</time>
      </trkpt>
      <trkpt lat="44.33858" lon="6.27408">
        <ele>1697.825684</ele>
        <time>2011-08-25T07:46:42Z</time>
      </trkpt>
      <trkpt lat="44.33857" lon="6.27392">
        <ele>1696.864258</ele>
        <time>2011-08-25T07:46:55Z</time>
      </trkpt>
      <trkpt lat="44.33857" lon="6.2738">
        <ele>1696.864258</ele>
        <time>2011-08-25T07:47:04Z</time>
      </trkpt>
      <trkpt lat="44.33856" lon="6.27361">
        <ele>1695.903076</ele>
        <time>2011-08-25T07:47:20Z</time>
      </trkpt>
      <trkpt lat="44.33855" lon="6.27355">
        <ele>1694.460938</ele>
        <time>2011-08-25T07:47:25Z</time>
      </trkpt>
      <trkpt lat="44.33847" lon="6.2734">
        <ele>1693.499756</ele>
        <time>2011-08-25T07:47:40Z</time>
      </trkpt>
      <trkpt lat="44.33845" lon="6.27333">
        <ele>1694.460938</ele>
        <time>2011-08-25T07:47:45Z</time>
      </trkpt>
      <trkpt lat="44.3384" lon="6.27318">
        <ele>1693.019043</ele>
        <time>2011-08-25T07:47:57Z</time>
      </trkpt>
      <trkpt lat="44.33835" lon="6.27297">
        <ele>1694.94165</ele>
        <time>2011-08-25T07:48:13Z</time>
      </trkpt>
      <trkpt lat="44.33834" lon="6.27291">
        <ele>1696.383789</ele>
        <time>2011-08-25T07:48:17Z</time>
      </trkpt>
      <trkpt lat="44.33833" lon="6.27288">
        <ele>1697.825684</ele>
        <time>2011-08-25T07:48:20Z</time>
      </trkpt>
      <trkpt lat="44.33832" lon="6.27286">
        <ele>1695.903076</ele>
        <time>2011-08-25T07:48:22Z</time>
      </trkpt>
      <trkpt lat="44.33831" lon="6.27284">
        <ele>1697.344971</ele>
        <time>2011-08-25T07:48:24Z</time>
      </trkpt>
      <trkpt lat="44.33828" lon="6.27272">
        <ele>1696.383789</ele>
        <time>2011-08-25T07:48:34Z</time>
      </trkpt>
      <trkpt lat="44.33827" lon="6.27269">
        <ele>1696.383789</ele>
        <time>2011-08-25T07:48:36Z</time>
      </trkpt>
      <trkpt lat="44.33821" lon="6.27252">
        <ele>1693.980469</ele>
        <time>2011-08-25T07:48:52Z</time>
      </trkpt>
      <trkpt lat="44.33821" lon="6.27246">
        <ele>1692.057861</ele>
        <time>2011-08-25T07:48:57Z</time>
      </trkpt>
      <trkpt lat="44.33821" lon="6.27244">
        <ele>1692.538574</ele>
        <time>2011-08-25T07:48:59Z</time>
      </trkpt>
      <trkpt lat="44.33818" lon="6.27216">
        <ele>1689.173584</ele>
        <time>2011-08-25T07:49:19Z</time>
      </trkpt>
      <trkpt lat="44.33811" lon="6.27192">
        <ele>1689.654297</ele>
        <time>2011-08-25T07:49:37Z</time>
      </trkpt>
      <trkpt lat="44.3381" lon="6.27188">
        <ele>1690.13501</ele>
        <time>2011-08-25T07:49:40Z</time>
      </trkpt>
      <trkpt lat="44.338" lon="6.27171">
        <ele>1688.693115</ele>
        <time>2011-08-25T07:49:57Z</time>
      </trkpt>
      <trkpt lat="44.338" lon="6.27169">
        <ele>1688.212402</ele>
        <time>2011-08-25T07:49:59Z</time>
      </trkpt>
      <trkpt lat="44.33796" lon="6.27151">
        <ele>1686.770264</ele>
        <time>2011-08-25T07:50:13Z</time>
      </trkpt>
      <trkpt lat="44.33786" lon="6.27134">
        <ele>1686.770264</ele>
        <time>2011-08-25T07:50:30Z</time>
      </trkpt>
      <trkpt lat="44.3378" lon="6.27118">
        <ele>1687.731689</ele>
        <time>2011-08-25T07:50:44Z</time>
      </trkpt>
      <trkpt lat="44.33782" lon="6.27111">
        <ele>1688.212402</ele>
        <time>2011-08-25T07:50:48Z</time>
      </trkpt>
      <trkpt lat="44.33783" lon="6.27105">
        <ele>1689.173584</ele>
        <time>2011-08-25T07:50:58Z</time>
      </trkpt>
      <trkpt lat="44.33787" lon="6.27099">
        <ele>1689.654297</ele>
        <time>2011-08-25T07:51:04Z</time>
      </trkpt>
      <trkpt lat="44.33786" lon="6.27086">
        <ele>1690.615479</ele>
        <time>2011-08-25T07:51:15Z</time>
      </trkpt>
      <trkpt lat="44.33784" lon="6.27083">
        <ele>1691.096191</ele>
        <time>2011-08-25T07:51:18Z</time>
      </trkpt>
      <trkpt lat="44.33771" lon="6.27075">
        <ele>1691.096191</ele>
        <time>2011-08-25T07:51:32Z</time>
      </trkpt>
      <trkpt lat="44.33767" lon="6.27069">
        <ele>1691.576904</ele>
        <time>2011-08-25T07:51:38Z</time>
      </trkpt>
      <trkpt lat="44.33768" lon="6.27058">
        <ele>1692.057861</ele>
        <time>2011-08-25T07:51:46Z</time>
      </trkpt>
      <trkpt lat="44.33762" lon="6.27042">
        <ele>1692.057861</ele>
        <time>2011-08-25T07:51:59Z</time>
      </trkpt>
      <trkpt lat="44.33758" lon="6.27027">
        <ele>1693.980469</ele>
        <time>2011-08-25T07:52:12Z</time>
      </trkpt>
      <trkpt lat="44.33757" lon="6.27021">
        <ele>1694.460938</ele>
        <time>2011-08-25T07:52:16Z</time>
      </trkpt>
      <trkpt lat="44.33753" lon="6.27011">
        <ele>1693.499756</ele>
        <time>2011-08-25T07:52:24Z</time>
      </trkpt>
      <trkpt lat="44.33741" lon="6.27001">
        <ele>1693.980469</ele>
        <time>2011-08-25T07:52:40Z</time>
      </trkpt>
      <trkpt lat="44.33739" lon="6.26999">
        <ele>1694.460938</ele>
        <time>2011-08-25T07:52:42Z</time>
      </trkpt>
      <trkpt lat="44.33737" lon="6.26997">
        <ele>1694.460938</ele>
        <time>2011-08-25T07:52:45Z</time>
      </trkpt>
      <trkpt lat="44.33731" lon="6.26988">
        <ele>1694.460938</ele>
        <time>2011-08-25T07:52:55Z</time>
      </trkpt>
      <trkpt lat="44.33729" lon="6.26982">
        <ele>1695.422363</ele>
        <time>2011-08-25T07:52:59Z</time>
      </trkpt>
      <trkpt lat="44.33721" lon="6.26972">
        <ele>1697.825684</ele>
        <time>2011-08-25T07:53:14Z</time>
      </trkpt>
      <trkpt lat="44.33712" lon="6.26955">
        <ele>1698.306152</ele>
        <time>2011-08-25T07:53:30Z</time>
      </trkpt>
      <trkpt lat="44.3371" lon="6.26946">
        <ele>1698.786865</ele>
        <time>2011-08-25T07:53:37Z</time>
      </trkpt>
      <trkpt lat="44.3371" lon="6.26942">
        <ele>1698.786865</ele>
        <time>2011-08-25T07:53:39Z</time>
      </trkpt>
      <trkpt lat="44.33706" lon="6.26929">
        <ele>1699.748291</ele>
        <time>2011-08-25T07:53:50Z</time>
      </trkpt>
      <trkpt lat="44.33706" lon="6.26921">
        <ele>1700.229004</ele>
        <time>2011-08-25T07:53:56Z</time>
      </trkpt>
      <trkpt lat="44.33709" lon="6.26912">
        <ele>1701.670898</ele>
        <time>2011-08-25T07:54:05Z</time>
      </trkpt>
      <trkpt lat="44.33711" lon="6.269">
        <ele>1703.112793</ele>
        <time>2011-08-25T07:54:16Z</time>
      </trkpt>
      <trkpt lat="44.33708" lon="6.26888">
        <ele>1701.670898</ele>
        <time>2011-08-25T07:54:26Z</time>
      </trkpt>
      <trkpt lat="44.33708" lon="6.26879">
        <ele>1701.190186</ele>
        <time>2011-08-25T07:54:33Z</time>
      </trkpt>
      <trkpt lat="44.3371" lon="6.26873">
        <ele>1701.190186</ele>
        <time>2011-08-25T07:54:37Z</time>
      </trkpt>
      <trkpt lat="44.33712" lon="6.2686">
        <ele>1701.190186</ele>
        <time>2011-08-25T07:54:48Z</time>
      </trkpt>
      <trkpt lat="44.33712" lon="6.26841">
        <ele>1702.63208</ele>
        <time>2011-08-25T07:55:02Z</time>
      </trkpt>
      <trkpt lat="44.33718" lon="6.26824">
        <ele>1703.593506</ele>
        <time>2011-08-25T07:55:18Z</time>
      </trkpt>
      <trkpt lat="44.33716" lon="6.26819">
        <ele>1704.074219</ele>
        <time>2011-08-25T07:55:22Z</time>
      </trkpt>
      <trkpt lat="44.33716" lon="6.26799">
        <ele>1705.996582</ele>
        <time>2011-08-25T07:55:39Z</time>
      </trkpt>
      <trkpt lat="44.33705" lon="6.26781">
        <ele>1707.438721</ele>
        <time>2011-08-25T07:56:00Z</time>
      </trkpt>
      <trkpt lat="44.33698" lon="6.26763">
        <ele>1709.361572</ele>
        <time>2011-08-25T07:56:19Z</time>
      </trkpt>
      <trkpt lat="44.33694" lon="6.26771">
        <ele>1711.28418</ele>
        <time>2011-08-25T07:56:31Z</time>
      </trkpt>
      <trkpt lat="44.33688" lon="6.26782">
        <ele>1714.167969</ele>
        <time>2011-08-25T07:56:45Z</time>
      </trkpt>
      <trkpt lat="44.33678" lon="6.26777">
        <ele>1716.571289</ele>
        <time>2011-08-25T07:57:01Z</time>
      </trkpt>
      <trkpt lat="44.33672" lon="6.2676">
        <ele>1718.013184</ele>
        <time>2011-08-25T07:57:16Z</time>
      </trkpt>
      <trkpt lat="44.3367" lon="6.26758">
        <ele>1718.013184</ele>
        <time>2011-08-25T07:57:18Z</time>
      </trkpt>
      <trkpt lat="44.33674" lon="6.26745">
        <ele>1719.455322</ele>
        <time>2011-08-25T07:57:31Z</time>
      </trkpt>
      <trkpt lat="44.33677" lon="6.26736">
        <ele>1720.416504</ele>
        <time>2011-08-25T07:57:42Z</time>
      </trkpt>
      <trkpt lat="44.33678" lon="6.2672">
        <ele>1722.819824</ele>
        <time>2011-08-25T07:57:58Z</time>
      </trkpt>
      <trkpt lat="44.33679" lon="6.26701">
        <ele>1725.703857</ele>
        <time>2011-08-25T07:58:16Z</time>
      </trkpt>
      <trkpt lat="44.33678" lon="6.26684">
        <ele>1728.107178</ele>
        <time>2011-08-25T07:58:33Z</time>
      </trkpt>
      <trkpt lat="44.33673" lon="6.26669">
        <ele>1730.510498</ele>
        <time>2011-08-25T07:58:49Z</time>
      </trkpt>
      <trkpt lat="44.3366" lon="6.26659">
        <ele>1732.913574</ele>
        <time>2011-08-25T07:59:10Z</time>
      </trkpt>
      <trkpt lat="44.33655" lon="6.26653">
        <ele>1734.355713</ele>
        <time>2011-08-25T07:59:27Z</time>
      </trkpt>
      <trkpt lat="44.33653" lon="6.2665">
        <ele>1733.875</ele>
        <time>2011-08-25T08:01:09Z</time>
      </trkpt>
      <trkpt lat="44.33653" lon="6.26649">
        <ele>1733.394287</ele>
        <time>2011-08-25T08:01:16Z</time>
      </trkpt>
      <trkpt lat="44.33657" lon="6.26646">
        <ele>1732.433105</ele>
        <time>2011-08-25T08:01:40Z</time>
      </trkpt>
      <trkpt lat="44.33654" lon="6.26642">
        <ele>1733.394287</ele>
        <time>2011-08-25T08:01:51Z</time>
      </trkpt>
      <trkpt lat="44.33656" lon="6.2664">
        <ele>1731.952393</ele>
        <time>2011-08-25T08:02:01Z</time>
      </trkpt>
      <trkpt lat="44.33658" lon="6.26643">
        <ele>1731.952393</ele>
        <time>2011-08-25T08:02:25Z</time>
      </trkpt>
      <trkpt lat="44.33648" lon="6.26636">
        <ele>1732.913574</ele>
        <time>2011-08-25T08:02:42Z</time>
      </trkpt>
      <trkpt lat="44.33651" lon="6.26637">
        <ele>1732.913574</ele>
        <time>2011-08-25T08:03:12Z</time>
      </trkpt>
      <trkpt lat="44.33652" lon="6.2665">
        <ele>1731.952393</ele>
        <time>2011-08-25T08:03:31Z</time>
      </trkpt>
      <trkpt lat="44.33653" lon="6.26651">
        <ele>1732.433105</ele>
        <time>2011-08-25T08:04:25Z</time>
      </trkpt>
      <trkpt lat="44.33652" lon="6.2665">
        <ele>1733.875</ele>
        <time>2011-08-25T08:05:47Z</time>
      </trkpt>
      <trkpt lat="44.33649" lon="6.2665">
        <ele>1734.836426</ele>
        <time>2011-08-25T08:06:10Z</time>
      </trkpt>
      <trkpt lat="44.33639" lon="6.26646">
        <ele>1735.316895</ele>
        <time>2011-08-25T08:06:28Z</time>
      </trkpt>
      <trkpt lat="44.33633" lon="6.26642">
        <ele>1736.27832</ele>
        <time>2011-08-25T08:06:43Z</time>
      </trkpt>
      <trkpt lat="44.33632" lon="6.26641">
        <ele>1736.27832</ele>
        <time>2011-08-25T08:06:45Z</time>
      </trkpt>
      <trkpt lat="44.33623" lon="6.26634">
        <ele>1735.316895</ele>
        <time>2011-08-25T08:06:59Z</time>
      </trkpt>
      <trkpt lat="44.33621" lon="6.26632">
        <ele>1735.316895</ele>
        <time>2011-08-25T08:07:01Z</time>
      </trkpt>
      <trkpt lat="44.33617" lon="6.2663">
        <ele>1735.797607</ele>
        <time>2011-08-25T08:07:04Z</time>
      </trkpt>
      <trkpt lat="44.33613" lon="6.26625">
        <ele>1735.316895</ele>
        <time>2011-08-25T08:07:07Z</time>
      </trkpt>
      <trkpt lat="44.3361" lon="6.26623">
        <ele>1736.27832</ele>
        <time>2011-08-25T08:07:10Z</time>
      </trkpt>
      <trkpt lat="44.33604" lon="6.26616">
        <ele>1736.27832</ele>
        <time>2011-08-25T08:07:16Z</time>
      </trkpt>
      <trkpt lat="44.33593" lon="6.26603">
        <ele>1737.239502</ele>
        <time>2011-08-25T08:07:28Z</time>
      </trkpt>
      <trkpt lat="44.33581" lon="6.26585">
        <ele>1737.720215</ele>
        <time>2011-08-25T08:07:41Z</time>
      </trkpt>
      <trkpt lat="44.33572" lon="6.26572">
        <ele>1738.200928</ele>
        <time>2011-08-25T08:07:54Z</time>
      </trkpt>
      <trkpt lat="44.33556" lon="6.26555">
        <ele>1739.642822</ele>
        <time>2011-08-25T08:08:16Z</time>
      </trkpt>
      <trkpt lat="44.33543" lon="6.26543">
        <ele>1741.084961</ele>
        <time>2011-08-25T08:08:31Z</time>
      </trkpt>
      <trkpt lat="44.33531" lon="6.26526">
        <ele>1741.565674</ele>
        <time>2011-08-25T08:08:50Z</time>
      </trkpt>
      <trkpt lat="44.33529" lon="6.26521">
        <ele>1742.046387</ele>
        <time>2011-08-25T08:08:55Z</time>
      </trkpt>
      <trkpt lat="44.33518" lon="6.26514">
        <ele>1744.449463</ele>
        <time>2011-08-25T08:09:09Z</time>
      </trkpt>
      <trkpt lat="44.33512" lon="6.26509">
        <ele>1744.449463</ele>
        <time>2011-08-25T08:09:17Z</time>
      </trkpt>
      <trkpt lat="44.33499" lon="6.26494">
        <ele>1745.891602</ele>
        <time>2011-08-25T08:09:37Z</time>
      </trkpt>
      <trkpt lat="44.3349" lon="6.2648">
        <ele>1747.814209</ele>
        <time>2011-08-25T08:09:52Z</time>
      </trkpt>
      <trkpt lat="44.3348" lon="6.26465">
        <ele>1749.736816</ele>
        <time>2011-08-25T08:10:09Z</time>
      </trkpt>
      <trkpt lat="44.33468" lon="6.26456">
        <ele>1750.697998</ele>
        <time>2011-08-25T08:10:25Z</time>
      </trkpt>
      <trkpt lat="44.33457" lon="6.26447">
        <ele>1753.101318</ele>
        <time>2011-08-25T08:10:40Z</time>
      </trkpt>
      <trkpt lat="44.33449" lon="6.26444">
        <ele>1754.062744</ele>
        <time>2011-08-25T08:10:50Z</time>
      </trkpt>
      <trkpt lat="44.33437" lon="6.2643">
        <ele>1754.062744</ele>
        <time>2011-08-25T08:11:06Z</time>
      </trkpt>
      <trkpt lat="44.3343" lon="6.26416">
        <ele>1756.466064</ele>
        <time>2011-08-25T08:11:20Z</time>
      </trkpt>
      <trkpt lat="44.33418" lon="6.26415">
        <ele>1759.830566</ele>
        <time>2011-08-25T08:11:35Z</time>
      </trkpt>
      <trkpt lat="44.33403" lon="6.26411">
        <ele>1760.311279</ele>
        <time>2011-08-25T08:11:53Z</time>
      </trkpt>
      <trkpt lat="44.33394" lon="6.2642">
        <ele>1760.311279</ele>
        <time>2011-08-25T08:12:07Z</time>
      </trkpt>
      <trkpt lat="44.33392" lon="6.26419">
        <ele>1760.311279</ele>
        <time>2011-08-25T08:12:09Z</time>
      </trkpt>
      <trkpt lat="44.33389" lon="6.26414">
        <ele>1760.791992</ele>
        <time>2011-08-25T08:12:18Z</time>
      </trkpt>
      <trkpt lat="44.33385" lon="6.26414">
        <ele>1759.830566</ele>
        <time>2011-08-25T08:12:22Z</time>
      </trkpt>
      <trkpt lat="44.33381" lon="6.26416">
        <ele>1762.233887</ele>
        <time>2011-08-25T08:12:27Z</time>
      </trkpt>
      <trkpt lat="44.33375" lon="6.26423">
        <ele>1765.11792</ele>
        <time>2011-08-25T08:12:35Z</time>
      </trkpt>
      <trkpt lat="44.33374" lon="6.26423">
        <ele>1765.11792</ele>
        <time>2011-08-25T08:12:36Z</time>
      </trkpt>
      <trkpt lat="44.3337" lon="6.26424">
        <ele>1766.079102</ele>
        <time>2011-08-25T08:12:43Z</time>
      </trkpt>
      <trkpt lat="44.3336" lon="6.26418">
        <ele>1765.11792</ele>
        <time>2011-08-25T08:12:55Z</time>
      </trkpt>
      <trkpt lat="44.33344" lon="6.26414">
        <ele>1767.520996</ele>
        <time>2011-08-25T08:13:14Z</time>
      </trkpt>
      <trkpt lat="44.33341" lon="6.26415">
        <ele>1768.482422</ele>
        <time>2011-08-25T08:13:18Z</time>
      </trkpt>
      <trkpt lat="44.33325" lon="6.26422">
        <ele>1771.366211</ele>
        <time>2011-08-25T08:13:35Z</time>
      </trkpt>
      <trkpt lat="44.3331" lon="6.26426">
        <ele>1772.808594</ele>
        <time>2011-08-25T08:13:52Z</time>
      </trkpt>
      <trkpt lat="44.33298" lon="6.26431">
        <ele>1772.808594</ele>
        <time>2011-08-25T08:14:06Z</time>
      </trkpt>
      <trkpt lat="44.3328" lon="6.26432">
        <ele>1774.250488</ele>
        <time>2011-08-25T08:14:23Z</time>
      </trkpt>
      <trkpt lat="44.33271" lon="6.26433">
        <ele>1775.21167</ele>
        <time>2011-08-25T08:14:33Z</time>
      </trkpt>
      <trkpt lat="44.33254" lon="6.26434">
        <ele>1776.173096</ele>
        <time>2011-08-25T08:14:49Z</time>
      </trkpt>
      <trkpt lat="44.33237" lon="6.26445">
        <ele>1776.173096</ele>
        <time>2011-08-25T08:15:07Z</time>
      </trkpt>
      <trkpt lat="44.33233" lon="6.2645">
        <ele>1777.134521</ele>
        <time>2011-08-25T08:15:16Z</time>
      </trkpt>
      <trkpt lat="44.33232" lon="6.26457">
        <ele>1777.134521</ele>
        <time>2011-08-25T08:15:23Z</time>
      </trkpt>
      <trkpt lat="44.33232" lon="6.2646">
        <ele>1776.173096</ele>
        <time>2011-08-25T08:15:26Z</time>
      </trkpt>
      <trkpt lat="44.33231" lon="6.26463">
        <ele>1775.692383</ele>
        <time>2011-08-25T08:15:37Z</time>
      </trkpt>
      <trkpt lat="44.33227" lon="6.26463">
        <ele>1774.731201</ele>
        <time>2011-08-25T08:15:50Z</time>
      </trkpt>
      <trkpt lat="44.33226" lon="6.2647">
        <ele>1773.769775</ele>
        <time>2011-08-25T08:15:58Z</time>
      </trkpt>
      <trkpt lat="44.33221" lon="6.26471">
        <ele>1774.731201</ele>
        <time>2011-08-25T08:16:10Z</time>
      </trkpt>
      <trkpt lat="44.33219" lon="6.26468">
        <ele>1775.21167</ele>
        <time>2011-08-25T08:16:30Z</time>
      </trkpt>
      <trkpt lat="44.33216" lon="6.26471">
        <ele>1777.134521</ele>
        <time>2011-08-25T08:19:01Z</time>
      </trkpt>
      <trkpt lat="44.33214" lon="6.26469">
        <ele>1777.61499</ele>
        <time>2011-08-25T08:19:05Z</time>
      </trkpt>
      <trkpt lat="44.33207" lon="6.26472">
        <ele>1780.499023</ele>
        <time>2011-08-25T08:19:18Z</time>
      </trkpt>
      <trkpt lat="44.33206" lon="6.26473">
        <ele>1780.499023</ele>
        <time>2011-08-25T08:19:33Z</time>
      </trkpt>
      <trkpt lat="44.33207" lon="6.26472">
        <ele>1780.979736</ele>
        <time>2011-08-25T08:19:40Z</time>
      </trkpt>
      <trkpt lat="44.33203" lon="6.26472">
        <ele>1779.537598</ele>
        <time>2011-08-25T08:19:45Z</time>
      </trkpt>
      <trkpt lat="44.33195" lon="6.26477">
        <ele>1777.61499</ele>
        <time>2011-08-25T08:20:04Z</time>
      </trkpt>
      <trkpt lat="44.33193" lon="6.26478">
        <ele>1777.134521</ele>
        <time>2011-08-25T08:20:06Z</time>
      </trkpt>
      <trkpt lat="44.33182" lon="6.26472">
        <ele>1780.499023</ele>
        <time>2011-08-25T08:20:22Z</time>
      </trkpt>
      <trkpt lat="44.33172" lon="6.26472">
        <ele>1780.499023</ele>
        <time>2011-08-25T08:20:33Z</time>
      </trkpt>
      <trkpt lat="44.33153" lon="6.26475">
        <ele>1781.460205</ele>
        <time>2011-08-25T08:20:51Z</time>
      </trkpt>
      <trkpt lat="44.33135" lon="6.26487">
        <ele>1783.863525</ele>
        <time>2011-08-25T08:21:10Z</time>
      </trkpt>
      <trkpt lat="44.33127" lon="6.26498">
        <ele>1786.747314</ele>
        <time>2011-08-25T08:21:26Z</time>
      </trkpt>
      <trkpt lat="44.33117" lon="6.26503">
        <ele>1787.70874</ele>
        <time>2011-08-25T08:21:39Z</time>
      </trkpt>
      <trkpt lat="44.33113" lon="6.26503">
        <ele>1787.70874</ele>
        <time>2011-08-25T08:21:43Z</time>
      </trkpt>
      <trkpt lat="44.33108" lon="6.26506">
        <ele>1788.189697</ele>
        <time>2011-08-25T08:21:48Z</time>
      </trkpt>
      <trkpt lat="44.33107" lon="6.26511">
        <ele>1788.67041</ele>
        <time>2011-08-25T08:21:53Z</time>
      </trkpt>
      <trkpt lat="44.33106" lon="6.26519">
        <ele>1788.67041</ele>
        <time>2011-08-25T08:22:04Z</time>
      </trkpt>
      <trkpt lat="44.33105" lon="6.26518">
        <ele>1789.150879</ele>
        <time>2011-08-25T08:22:22Z</time>
      </trkpt>
      <trkpt lat="44.33107" lon="6.26522">
        <ele>1789.631592</ele>
        <time>2011-08-25T08:23:01Z</time>
      </trkpt>
      <trkpt lat="44.33116" lon="6.26535">
        <ele>1791.073486</ele>
        <time>2011-08-25T08:23:18Z</time>
      </trkpt>
      <trkpt lat="44.33125" lon="6.26553">
        <ele>1793.476807</ele>
        <time>2011-08-25T08:23:40Z</time>
      </trkpt>
      <trkpt lat="44.33132" lon="6.26567">
        <ele>1795.399414</ele>
        <time>2011-08-25T08:23:55Z</time>
      </trkpt>
      <trkpt lat="44.33136" lon="6.26579">
        <ele>1798.283203</ele>
        <time>2011-08-25T08:24:13Z</time>
      </trkpt>
      <trkpt lat="44.33143" lon="6.26584">
        <ele>1801.647949</ele>
        <time>2011-08-25T08:24:26Z</time>
      </trkpt>
      <trkpt lat="44.33153" lon="6.26591">
        <ele>1805.012695</ele>
        <time>2011-08-25T08:24:47Z</time>
      </trkpt>
      <trkpt lat="44.33159" lon="6.26607">
        <ele>1807.416016</ele>
        <time>2011-08-25T08:25:04Z</time>
      </trkpt>
      <trkpt lat="44.33168" lon="6.26616">
        <ele>1810.299805</ele>
        <time>2011-08-25T08:25:22Z</time>
      </trkpt>
      <trkpt lat="44.33175" lon="6.26625">
        <ele>1813.664307</ele>
        <time>2011-08-25T08:25:38Z</time>
      </trkpt>
      <trkpt lat="44.33182" lon="6.26633">
        <ele>1816.54834</ele>
        <time>2011-08-25T08:25:54Z</time>
      </trkpt>
      <trkpt lat="44.33192" lon="6.26636">
        <ele>1819.912842</ele>
        <time>2011-08-25T08:26:13Z</time>
      </trkpt>
      <trkpt lat="44.33201" lon="6.26641">
        <ele>1823.758301</ele>
        <time>2011-08-25T08:26:29Z</time>
      </trkpt>
      <trkpt lat="44.33206" lon="6.26649">
        <ele>1827.123047</ele>
        <time>2011-08-25T08:26:45Z</time>
      </trkpt>
      <trkpt lat="44.33214" lon="6.26655">
        <ele>1830.006836</ele>
        <time>2011-08-25T08:27:01Z</time>
      </trkpt>
      <trkpt lat="44.3322" lon="6.2666">
        <ele>1833.371338</ele>
        <time>2011-08-25T08:27:13Z</time>
      </trkpt>
      <trkpt lat="44.33221" lon="6.26661">
        <ele>1833.371338</ele>
        <time>2011-08-25T08:27:14Z</time>
      </trkpt>
      <trkpt lat="44.33226" lon="6.26673">
        <ele>1835.774658</ele>
        <time>2011-08-25T08:27:33Z</time>
      </trkpt>
      <trkpt lat="44.33223" lon="6.26686">
        <ele>1839.139404</ele>
        <time>2011-08-25T08:27:48Z</time>
      </trkpt>
      <trkpt lat="44.33219" lon="6.26693">
        <ele>1841.062012</ele>
        <time>2011-08-25T08:28:00Z</time>
      </trkpt>
      <trkpt lat="44.33214" lon="6.26708">
        <ele>1842.984619</ele>
        <time>2011-08-25T08:28:19Z</time>
      </trkpt>
      <trkpt lat="44.3321" lon="6.26721">
        <ele>1845.868652</ele>
        <time>2011-08-25T08:28:36Z</time>
      </trkpt>
      <trkpt lat="44.33208" lon="6.26728">
        <ele>1849.233154</ele>
        <time>2011-08-25T08:28:47Z</time>
      </trkpt>
      <trkpt lat="44.33208" lon="6.26729">
        <ele>1849.233154</ele>
        <time>2011-08-25T08:28:48Z</time>
      </trkpt>
      <trkpt lat="44.33205" lon="6.26734">
        <ele>1849.233154</ele>
        <time>2011-08-25T08:28:55Z</time>
      </trkpt>
      <trkpt lat="44.332" lon="6.26745">
        <ele>1851.636475</ele>
        <time>2011-08-25T08:29:10Z</time>
      </trkpt>
      <trkpt lat="44.33196" lon="6.26756">
        <ele>1854.520508</ele>
        <time>2011-08-25T08:29:27Z</time>
      </trkpt>
      <trkpt lat="44.33193" lon="6.26763">
        <ele>1857.885254</ele>
        <time>2011-08-25T08:29:38Z</time>
      </trkpt>
      <trkpt lat="44.3319" lon="6.26768">
        <ele>1859.807617</ele>
        <time>2011-08-25T08:29:47Z</time>
      </trkpt>
      <trkpt lat="44.33185" lon="6.2678">
        <ele>1863.172363</ele>
        <time>2011-08-25T08:30:04Z</time>
      </trkpt>
      <trkpt lat="44.33183" lon="6.26788">
        <ele>1865.575684</ele>
        <time>2011-08-25T08:30:20Z</time>
      </trkpt>
      <trkpt lat="44.33179" lon="6.26793">
        <ele>1867.017578</ele>
        <time>2011-08-25T08:30:39Z</time>
      </trkpt>
      <trkpt lat="44.33179" lon="6.26793">
        <ele>1867.017578</ele>
        <time>2011-08-25T08:30:40Z</time>
      </trkpt>
      <trkpt lat="44.33178" lon="6.26798">
        <ele>1866.536865</ele>
        <time>2011-08-25T08:30:55Z</time>
      </trkpt>
      <trkpt lat="44.33177" lon="6.26803">
        <ele>1868.459717</ele>
        <time>2011-08-25T08:31:21Z</time>
      </trkpt>
      <trkpt lat="44.33169" lon="6.26825">
        <ele>1870.863037</ele>
        <time>2011-08-25T08:31:44Z</time>
      </trkpt>
      <trkpt lat="44.33161" lon="6.26829">
        <ele>1874.708252</ele>
        <time>2011-08-25T08:32:02Z</time>
      </trkpt>
      <trkpt lat="44.33155" lon="6.26836">
        <ele>1878.553467</ele>
        <time>2011-08-25T08:32:18Z</time>
      </trkpt>
      <trkpt lat="44.33155" lon="6.26836">
        <ele>1878.553467</ele>
        <time>2011-08-25T08:32:19Z</time>
      </trkpt>
      <trkpt lat="44.33149" lon="6.26844">
        <ele>1882.398682</ele>
        <time>2011-08-25T08:32:34Z</time>
      </trkpt>
      <trkpt lat="44.33144" lon="6.26854">
        <ele>1884.802246</ele>
        <time>2011-08-25T08:32:52Z</time>
      </trkpt>
      <trkpt lat="44.33142" lon="6.26867">
        <ele>1888.647461</ele>
        <time>2011-08-25T08:33:07Z</time>
      </trkpt>
      <trkpt lat="44.33138" lon="6.26877">
        <ele>1891.53125</ele>
        <time>2011-08-25T08:33:21Z</time>
      </trkpt>
      <trkpt lat="44.33135" lon="6.26883">
        <ele>1894.895752</ele>
        <time>2011-08-25T08:33:37Z</time>
      </trkpt>
      <trkpt lat="44.33131" lon="6.26892">
        <ele>1897.299072</ele>
        <time>2011-08-25T08:33:52Z</time>
      </trkpt>
      <trkpt lat="44.33127" lon="6.26902">
        <ele>1900.18335</ele>
        <time>2011-08-25T08:34:07Z</time>
      </trkpt>
      <trkpt lat="44.33126" lon="6.26914">
        <ele>1902.105713</ele>
        <time>2011-08-25T08:34:25Z</time>
      </trkpt>
      <trkpt lat="44.33125" lon="6.2692">
        <ele>1904.028564</ele>
        <time>2011-08-25T08:34:34Z</time>
      </trkpt>
      <trkpt lat="44.33122" lon="6.26931">
        <ele>1907.393066</ele>
        <time>2011-08-25T08:34:49Z</time>
      </trkpt>
      <trkpt lat="44.3312" lon="6.26944">
        <ele>1910.757568</ele>
        <time>2011-08-25T08:35:05Z</time>
      </trkpt>
      <trkpt lat="44.33117" lon="6.26955">
        <ele>1913.641357</ele>
        <time>2011-08-25T08:35:19Z</time>
      </trkpt>
      <trkpt lat="44.33113" lon="6.26966">
        <ele>1916.525635</ele>
        <time>2011-08-25T08:35:33Z</time>
      </trkpt>
      <trkpt lat="44.3311" lon="6.26979">
        <ele>1919.890137</ele>
        <time>2011-08-25T08:35:51Z</time>
      </trkpt>
      <trkpt lat="44.33106" lon="6.26992">
        <ele>1922.77417</ele>
        <time>2011-08-25T08:36:10Z</time>
      </trkpt>
      <trkpt lat="44.33103" lon="6.27001">
        <ele>1926.138672</ele>
        <time>2011-08-25T08:36:24Z</time>
      </trkpt>
      <trkpt lat="44.33098" lon="6.27011">
        <ele>1929.503174</ele>
        <time>2011-08-25T08:36:40Z</time>
      </trkpt>
      <trkpt lat="44.33095" lon="6.27024">
        <ele>1932.86792</ele>
        <time>2011-08-25T08:36:58Z</time>
      </trkpt>
      <trkpt lat="44.3309" lon="6.2704">
        <ele>1936.232666</ele>
        <time>2011-08-25T08:37:17Z</time>
      </trkpt>
      <trkpt lat="44.33087" lon="6.27051">
        <ele>1939.597168</ele>
        <time>2011-08-25T08:37:35Z</time>
      </trkpt>
      <trkpt lat="44.33082" lon="6.27059">
        <ele>1942.96167</ele>
        <time>2011-08-25T08:37:49Z</time>
      </trkpt>
      <trkpt lat="44.33076" lon="6.27069">
        <ele>1945.845703</ele>
        <time>2011-08-25T08:38:06Z</time>
      </trkpt>
      <trkpt lat="44.33073" lon="6.27076">
        <ele>1949.210449</ele>
        <time>2011-08-25T08:38:17Z</time>
      </trkpt>
      <trkpt lat="44.33073" lon="6.27076">
        <ele>1949.210449</ele>
        <time>2011-08-25T08:38:18Z</time>
      </trkpt>
      <trkpt lat="44.33068" lon="6.27087">
        <ele>1952.574951</ele>
        <time>2011-08-25T08:38:34Z</time>
      </trkpt>
      <trkpt lat="44.33069" lon="6.27088">
        <ele>1952.574951</ele>
        <time>2011-08-25T08:38:35Z</time>
      </trkpt>
      <trkpt lat="44.33068" lon="6.27092">
        <ele>1955.939453</ele>
        <time>2011-08-25T08:38:49Z</time>
      </trkpt>
      <trkpt lat="44.33074" lon="6.27099">
        <ele>1958.823486</ele>
        <time>2011-08-25T08:39:04Z</time>
      </trkpt>
      <trkpt lat="44.33072" lon="6.27109">
        <ele>1961.70752</ele>
        <time>2011-08-25T08:39:20Z</time>
      </trkpt>
      <trkpt lat="44.3306" lon="6.27123">
        <ele>1964.591553</ele>
        <time>2011-08-25T08:39:42Z</time>
      </trkpt>
      <trkpt lat="44.33065" lon="6.27126">
        <ele>1967.956055</ele>
        <time>2011-08-25T08:39:55Z</time>
      </trkpt>
      <trkpt lat="44.33073" lon="6.27135">
        <ele>1971.320557</ele>
        <time>2011-08-25T08:40:15Z</time>
      </trkpt>
      <trkpt lat="44.33069" lon="6.27148">
        <ele>1974.685303</ele>
        <time>2011-08-25T08:40:32Z</time>
      </trkpt>
      <trkpt lat="44.33064" lon="6.27159">
        <ele>1978.049805</ele>
        <time>2011-08-25T08:40:50Z</time>
      </trkpt>
      <trkpt lat="44.33061" lon="6.27168">
        <ele>1981.414551</ele>
        <time>2011-08-25T08:41:02Z</time>
      </trkpt>
      <trkpt lat="44.33062" lon="6.27178">
        <ele>1984.779297</ele>
        <time>2011-08-25T08:41:18Z</time>
      </trkpt>
      <trkpt lat="44.33063" lon="6.27184">
        <ele>1986.70166</ele>
        <time>2011-08-25T08:41:27Z</time>
      </trkpt>
      <trkpt lat="44.33064" lon="6.27188">
        <ele>1988.624512</ele>
        <time>2011-08-25T08:41:31Z</time>
      </trkpt>
      <trkpt lat="44.33064" lon="6.2719">
        <ele>1991.989014</ele>
        <time>2011-08-25T08:42:07Z</time>
      </trkpt>
      <trkpt lat="44.33063" lon="6.27189">
        <ele>1992.469727</ele>
        <time>2011-08-25T08:42:38Z</time>
      </trkpt>
      <trkpt lat="44.33063" lon="6.27189">
        <ele>1990.066406</ele>
        <time>2011-08-25T08:42:45Z</time>
      </trkpt>
      <trkpt lat="44.33064" lon="6.27189">
        <ele>1995.834229</ele>
        <time>2011-08-25T08:43:25Z</time>
      </trkpt>
      <trkpt lat="44.33064" lon="6.27189">
        <ele>1995.834229</ele>
        <time>2011-08-25T08:43:26Z</time>
      </trkpt>
      <trkpt lat="44.33064" lon="6.27189">
        <ele>1993.911621</ele>
        <time>2011-08-25T08:43:29Z</time>
      </trkpt>
      <trkpt lat="44.33064" lon="6.27189">
        <ele>1992.950195</ele>
        <time>2011-08-25T08:43:31Z</time>
      </trkpt>
      <trkpt lat="44.33064" lon="6.27189">
        <ele>1995.834229</ele>
        <time>2011-08-25T08:43:40Z</time>
      </trkpt>
      <trkpt lat="44.33063" lon="6.27189">
        <ele>1992.950195</ele>
        <time>2011-08-25T08:44:03Z</time>
      </trkpt>
      <trkpt lat="44.33063" lon="6.27189">
        <ele>1995.353516</ele>
        <time>2011-08-25T08:44:05Z</time>
      </trkpt>
      <trkpt lat="44.33063" lon="6.27188">
        <ele>1993.430908</ele>
        <time>2011-08-25T08:44:33Z</time>
      </trkpt>
      <trkpt lat="44.33063" lon="6.27189">
        <ele>1991.027588</ele>
        <time>2011-08-25T08:44:40Z</time>
      </trkpt>
      <trkpt lat="44.33063" lon="6.27189">
        <ele>1994.39209</ele>
        <time>2011-08-25T08:45:00Z</time>
      </trkpt>
      <trkpt lat="44.33063" lon="6.27189">
        <ele>1992.469727</ele>
        <time>2011-08-25T08:45:27Z</time>
      </trkpt>
      <trkpt lat="44.33064" lon="6.27189">
        <ele>1991.508301</ele>
        <time>2011-08-25T08:46:04Z</time>
      </trkpt>
      <trkpt lat="44.33064" lon="6.27192">
        <ele>1990.066406</ele>
        <time>2011-08-25T08:46:11Z</time>
      </trkpt>
      <trkpt lat="44.33063" lon="6.27192">
        <ele>1991.989014</ele>
        <time>2011-08-25T08:46:13Z</time>
      </trkpt>
      <trkpt lat="44.33063" lon="6.27191">
        <ele>1994.39209</ele>
        <time>2011-08-25T08:46:29Z</time>
      </trkpt>
      <trkpt lat="44.33066" lon="6.2719">
        <ele>1992.950195</ele>
        <time>2011-08-25T08:47:08Z</time>
      </trkpt>
      <trkpt lat="44.33065" lon="6.2719">
        <ele>1992.469727</ele>
        <time>2011-08-25T08:47:18Z</time>
      </trkpt>
      <trkpt lat="44.33064" lon="6.27189">
        <ele>1990.546875</ele>
        <time>2011-08-25T08:47:23Z</time>
      </trkpt>
      <trkpt lat="44.33061" lon="6.2719">
        <ele>1992.950195</ele>
        <time>2011-08-25T08:47:39Z</time>
      </trkpt>
      <trkpt lat="44.33061" lon="6.2719">
        <ele>1992.469727</ele>
        <time>2011-08-25T08:47:53Z</time>
      </trkpt>
      <trkpt lat="44.3306" lon="6.27192">
        <ele>1992.950195</ele>
        <time>2011-08-25T08:48:30Z</time>
      </trkpt>
      <trkpt lat="44.33059" lon="6.27192">
        <ele>1992.469727</ele>
        <time>2011-08-25T08:49:00Z</time>
      </trkpt>
      <trkpt lat="44.33061" lon="6.27192">
        <ele>1992.469727</ele>
        <time>2011-08-25T08:49:04Z</time>
      </trkpt>
      <trkpt lat="44.33061" lon="6.27192">
        <ele>1990.546875</ele>
        <time>2011-08-25T08:49:23Z</time>
      </trkpt>
      <trkpt lat="44.3306" lon="6.27192">
        <ele>1992.950195</ele>
        <time>2011-08-25T08:49:25Z</time>
      </trkpt>
      <trkpt lat="44.3306" lon="6.27193">
        <ele>1991.027588</ele>
        <time>2011-08-25T08:49:28Z</time>
      </trkpt>
      <trkpt lat="44.33064" lon="6.27192">
        <ele>1991.027588</ele>
        <time>2011-08-25T08:49:35Z</time>
      </trkpt>
      <trkpt lat="44.33065" lon="6.2719">
        <ele>1993.911621</ele>
        <time>2011-08-25T08:49:56Z</time>
      </trkpt>
      <trkpt lat="44.3306" lon="6.2719">
        <ele>1995.834229</ele>
        <time>2011-08-25T08:50:54Z</time>
      </trkpt>
      <trkpt lat="44.33062" lon="6.27194">
        <ele>1992.469727</ele>
        <time>2011-08-25T08:51:29Z</time>
      </trkpt>
      <trkpt lat="44.3306" lon="6.27198">
        <ele>1990.546875</ele>
        <time>2011-08-25T08:51:36Z</time>
      </trkpt>
      <trkpt lat="44.33053" lon="6.27203">
        <ele>1990.546875</ele>
        <time>2011-08-25T08:51:54Z</time>
      </trkpt>
      <trkpt lat="44.33052" lon="6.27204">
        <ele>1993.430908</ele>
        <time>2011-08-25T08:52:29Z</time>
      </trkpt>
      <trkpt lat="44.33054" lon="6.27206">
        <ele>1993.430908</ele>
        <time>2011-08-25T08:52:54Z</time>
      </trkpt>
      <trkpt lat="44.33064" lon="6.27201">
        <ele>1994.39209</ele>
        <time>2011-08-25T08:53:08Z</time>
      </trkpt>
      <trkpt lat="44.33064" lon="6.27201">
        <ele>1992.950195</ele>
        <time>2011-08-25T08:53:10Z</time>
      </trkpt>
      <trkpt lat="44.33065" lon="6.27203">
        <ele>1994.872803</ele>
        <time>2011-08-25T08:53:12Z</time>
      </trkpt>
      <trkpt lat="44.33068" lon="6.2721">
        <ele>1991.508301</ele>
        <time>2011-08-25T08:53:30Z</time>
      </trkpt>
      <trkpt lat="44.3307" lon="6.27212">
        <ele>1991.508301</ele>
        <time>2011-08-25T08:53:32Z</time>
      </trkpt>
      <trkpt lat="44.33078" lon="6.27228">
        <ele>1989.10498</ele>
        <time>2011-08-25T08:53:51Z</time>
      </trkpt>
      <trkpt lat="44.33081" lon="6.27238">
        <ele>1989.10498</ele>
        <time>2011-08-25T08:54:00Z</time>
      </trkpt>
      <trkpt lat="44.3308" lon="6.27254">
        <ele>1990.546875</ele>
        <time>2011-08-25T08:54:17Z</time>
      </trkpt>
      <trkpt lat="44.33079" lon="6.27265">
        <ele>1993.911621</ele>
        <time>2011-08-25T08:54:34Z</time>
      </trkpt>
      <trkpt lat="44.3308" lon="6.27272">
        <ele>1996.795654</ele>
        <time>2011-08-25T08:54:57Z</time>
      </trkpt>
      <trkpt lat="44.33085" lon="6.27279">
        <ele>1999.679688</ele>
        <time>2011-08-25T08:55:14Z</time>
      </trkpt>
      <trkpt lat="44.33088" lon="6.27279">
        <ele>2000.640869</ele>
        <time>2011-08-25T08:55:29Z</time>
      </trkpt>
      <trkpt lat="44.33089" lon="6.27285">
        <ele>2002.082764</ele>
        <time>2011-08-25T08:55:45Z</time>
      </trkpt>
      <trkpt lat="44.33092" lon="6.27286">
        <ele>2005.44751</ele>
        <time>2011-08-25T08:56:06Z</time>
      </trkpt>
      <trkpt lat="44.33091" lon="6.27291">
        <ele>2008.331299</ele>
        <time>2011-08-25T08:56:23Z</time>
      </trkpt>
      <trkpt lat="44.33094" lon="6.27293">
        <ele>2010.734619</ele>
        <time>2011-08-25T08:56:39Z</time>
      </trkpt>
      <trkpt lat="44.33095" lon="6.27299">
        <ele>2013.138184</ele>
        <time>2011-08-25T08:56:50Z</time>
      </trkpt>
      <trkpt lat="44.33098" lon="6.27305">
        <ele>2015.060791</ele>
        <time>2011-08-25T08:57:08Z</time>
      </trkpt>
      <trkpt lat="44.33098" lon="6.27311">
        <ele>2016.983398</ele>
        <time>2011-08-25T08:57:23Z</time>
      </trkpt>
      <trkpt lat="44.33101" lon="6.27316">
        <ele>2018.425293</ele>
        <time>2011-08-25T08:57:42Z</time>
      </trkpt>
      <trkpt lat="44.33106" lon="6.27317">
        <ele>2018.906006</ele>
        <time>2011-08-25T08:58:04Z</time>
      </trkpt>
      <trkpt lat="44.33112" lon="6.27319">
        <ele>2018.425293</ele>
        <time>2011-08-25T08:58:17Z</time>
      </trkpt>
      <trkpt lat="44.33115" lon="6.27322">
        <ele>2020.3479</ele>
        <time>2011-08-25T08:58:33Z</time>
      </trkpt>
      <trkpt lat="44.33117" lon="6.27325">
        <ele>2018.906006</ele>
        <time>2011-08-25T08:58:45Z</time>
      </trkpt>
      <trkpt lat="44.33117" lon="6.27325">
        <ele>2021.309082</ele>
        <time>2011-08-25T08:59:09Z</time>
      </trkpt>
      <trkpt lat="44.33118" lon="6.27325">
        <ele>2024.193115</ele>
        <time>2011-08-25T09:05:04Z</time>
      </trkpt>
      <trkpt lat="44.33116" lon="6.2733">
        <ele>2025.63501</ele>
        <time>2011-08-25T09:05:20Z</time>
      </trkpt>
      <trkpt lat="44.33114" lon="6.27336">
        <ele>2027.557617</ele>
        <time>2011-08-25T09:05:37Z</time>
      </trkpt>
      <trkpt lat="44.33112" lon="6.27338">
        <ele>2028.519287</ele>
        <time>2011-08-25T09:05:53Z</time>
      </trkpt>
      <trkpt lat="44.3311" lon="6.27344">
        <ele>2029.480469</ele>
        <time>2011-08-25T09:06:37Z</time>
      </trkpt>
      <trkpt lat="44.33111" lon="6.27339">
        <ele>2028.999756</ele>
        <time>2011-08-25T09:06:58Z</time>
      </trkpt>
      <trkpt lat="44.33111" lon="6.27339">
        <ele>2027.557617</ele>
        <time>2011-08-25T09:07:06Z</time>
      </trkpt>
      <trkpt lat="44.33112" lon="6.27337">
        <ele>2028.999756</ele>
        <time>2011-08-25T09:07:47Z</time>
      </trkpt>
      <trkpt lat="44.33111" lon="6.27336">
        <ele>2029.961182</ele>
        <time>2011-08-25T09:08:18Z</time>
      </trkpt>
      <trkpt lat="44.33115" lon="6.2734">
        <ele>2029.480469</ele>
        <time>2011-08-25T09:09:01Z</time>
      </trkpt>
      <trkpt lat="44.33115" lon="6.27345">
        <ele>2029.961182</ele>
        <time>2011-08-25T09:09:18Z</time>
      </trkpt>
      <trkpt lat="44.33114" lon="6.27348">
        <ele>2030.922607</ele>
        <time>2011-08-25T09:10:04Z</time>
      </trkpt>
      <trkpt lat="44.33117" lon="6.2735">
        <ele>2030.922607</ele>
        <time>2011-08-25T09:11:53Z</time>
      </trkpt>
      <trkpt lat="44.33116" lon="6.27356">
        <ele>2030.922607</ele>
        <time>2011-08-25T09:12:05Z</time>
      </trkpt>
      <trkpt lat="44.33124" lon="6.27366">
        <ele>2031.883789</ele>
        <time>2011-08-25T09:12:24Z</time>
      </trkpt>
      <trkpt lat="44.33134" lon="6.27375">
        <ele>2031.883789</ele>
        <time>2011-08-25T09:12:37Z</time>
      </trkpt>
      <trkpt lat="44.33152" lon="6.27388">
        <ele>2032.844971</ele>
        <time>2011-08-25T09:12:54Z</time>
      </trkpt>
      <trkpt lat="44.33153" lon="6.27389">
        <ele>2032.844971</ele>
        <time>2011-08-25T09:12:55Z</time>
      </trkpt>
      <trkpt lat="44.33157" lon="6.27395">
        <ele>2032.844971</ele>
        <time>2011-08-25T09:13:00Z</time>
      </trkpt>
      <trkpt lat="44.33158" lon="6.27398">
        <ele>2032.844971</ele>
        <time>2011-08-25T09:13:03Z</time>
      </trkpt>
      <trkpt lat="44.33176" lon="6.27422">
        <ele>2033.806396</ele>
        <time>2011-08-25T09:13:23Z</time>
      </trkpt>
      <trkpt lat="44.33189" lon="6.27435">
        <ele>2033.806396</ele>
        <time>2011-08-25T09:13:36Z</time>
      </trkpt>
      <trkpt lat="44.33195" lon="6.27441">
        <ele>2034.287109</ele>
        <time>2011-08-25T09:13:42Z</time>
      </trkpt>
      <trkpt lat="44.33199" lon="6.27445">
        <ele>2033.325684</ele>
        <time>2011-08-25T09:13:46Z</time>
      </trkpt>
      <trkpt lat="44.33208" lon="6.27457">
        <ele>2035.248291</ele>
        <time>2011-08-25T09:14:07Z</time>
      </trkpt>
      <trkpt lat="44.3321" lon="6.27459">
        <ele>2033.806396</ele>
        <time>2011-08-25T09:14:10Z</time>
      </trkpt>
      <trkpt lat="44.33211" lon="6.2746">
        <ele>2034.287109</ele>
        <time>2011-08-25T09:14:11Z</time>
      </trkpt>
      <trkpt lat="44.33217" lon="6.27469">
        <ele>2033.325684</ele>
        <time>2011-08-25T09:14:21Z</time>
      </trkpt>
      <trkpt lat="44.33219" lon="6.27471">
        <ele>2032.844971</ele>
        <time>2011-08-25T09:14:24Z</time>
      </trkpt>
      <trkpt lat="44.33225" lon="6.27477">
        <ele>2032.364502</ele>
        <time>2011-08-25T09:14:31Z</time>
      </trkpt>
      <trkpt lat="44.33233" lon="6.27487">
        <ele>2030.922607</ele>
        <time>2011-08-25T09:14:43Z</time>
      </trkpt>
      <trkpt lat="44.33236" lon="6.27488">
        <ele>2029.961182</ele>
        <time>2011-08-25T09:14:46Z</time>
      </trkpt>
      <trkpt lat="44.33237" lon="6.27489">
        <ele>2029.961182</ele>
        <time>2011-08-25T09:14:47Z</time>
      </trkpt>
      <trkpt lat="44.33249" lon="6.27507">
        <ele>2028.519287</ele>
        <time>2011-08-25T09:15:06Z</time>
      </trkpt>
      <trkpt lat="44.33256" lon="6.27517">
        <ele>2028.519287</ele>
        <time>2011-08-25T09:15:17Z</time>
      </trkpt>
      <trkpt lat="44.33263" lon="6.2753">
        <ele>2026.115723</ele>
        <time>2011-08-25T09:15:31Z</time>
      </trkpt>
      <trkpt lat="44.33268" lon="6.27536">
        <ele>2024.193115</ele>
        <time>2011-08-25T09:15:38Z</time>
      </trkpt>
      <trkpt lat="44.3327" lon="6.27542">
        <ele>2023.712402</ele>
        <time>2011-08-25T09:15:44Z</time>
      </trkpt>
      <trkpt lat="44.33275" lon="6.27552">
        <ele>2022.751221</ele>
        <time>2011-08-25T09:15:54Z</time>
      </trkpt>
      <trkpt lat="44.33278" lon="6.27554">
        <ele>2021.789795</ele>
        <time>2011-08-25T09:15:58Z</time>
      </trkpt>
      <trkpt lat="44.33281" lon="6.27561">
        <ele>2020.828613</ele>
        <time>2011-08-25T09:16:05Z</time>
      </trkpt>
      <trkpt lat="44.33282" lon="6.27563">
        <ele>2018.425293</ele>
        <time>2011-08-25T09:16:08Z</time>
      </trkpt>
      <trkpt lat="44.33285" lon="6.2757">
        <ele>2016.021973</ele>
        <time>2011-08-25T09:16:15Z</time>
      </trkpt>
      <trkpt lat="44.33292" lon="6.27582">
        <ele>2013.138184</ele>
        <time>2011-08-25T09:16:34Z</time>
      </trkpt>
      <trkpt lat="44.33299" lon="6.27591">
        <ele>2010.734619</ele>
        <time>2011-08-25T09:16:49Z</time>
      </trkpt>
      <trkpt lat="44.33308" lon="6.27604">
        <ele>2009.292725</ele>
        <time>2011-08-25T09:17:06Z</time>
      </trkpt>
      <trkpt lat="44.33309" lon="6.27606">
        <ele>2007.85083</ele>
        <time>2011-08-25T09:17:08Z</time>
      </trkpt>
      <trkpt lat="44.33316" lon="6.27618">
        <ele>2005.44751</ele>
        <time>2011-08-25T09:17:22Z</time>
      </trkpt>
      <trkpt lat="44.33318" lon="6.27621">
        <ele>2004.005615</ele>
        <time>2011-08-25T09:17:24Z</time>
      </trkpt>
      <trkpt lat="44.3332" lon="6.27627">
        <ele>2002.082764</ele>
        <time>2011-08-25T09:17:29Z</time>
      </trkpt>
      <trkpt lat="44.3333" lon="6.27639">
        <ele>1998.718262</ele>
        <time>2011-08-25T09:17:46Z</time>
      </trkpt>
      <trkpt lat="44.33333" lon="6.27647">
        <ele>1997.276367</ele>
        <time>2011-08-25T09:17:54Z</time>
      </trkpt>
      <trkpt lat="44.3334" lon="6.27663">
        <ele>1995.353516</ele>
        <time>2011-08-25T09:18:10Z</time>
      </trkpt>
      <trkpt lat="44.33342" lon="6.27667">
        <ele>1996.795654</ele>
        <time>2011-08-25T09:18:13Z</time>
      </trkpt>
      <trkpt lat="44.33347" lon="6.27683">
        <ele>1998.718262</ele>
        <time>2011-08-25T09:18:27Z</time>
      </trkpt>
      <trkpt lat="44.3335" lon="6.27698">
        <ele>1995.353516</ele>
        <time>2011-08-25T09:18:39Z</time>
      </trkpt>
      <trkpt lat="44.3335" lon="6.27699">
        <ele>1995.353516</ele>
        <time>2011-08-25T09:18:40Z</time>
      </trkpt>
      <trkpt lat="44.33352" lon="6.27708">
        <ele>1995.353516</ele>
        <time>2011-08-25T09:18:47Z</time>
      </trkpt>
      <trkpt lat="44.33356" lon="6.27716">
        <ele>1992.469727</ele>
        <time>2011-08-25T09:18:55Z</time>
      </trkpt>
      <trkpt lat="44.3336" lon="6.27726">
        <ele>1990.066406</ele>
        <time>2011-08-25T09:19:04Z</time>
      </trkpt>
      <trkpt lat="44.33363" lon="6.27733">
        <ele>1989.10498</ele>
        <time>2011-08-25T09:19:11Z</time>
      </trkpt>
      <trkpt lat="44.33367" lon="6.27745">
        <ele>1986.70166</ele>
        <time>2011-08-25T09:19:22Z</time>
      </trkpt>
      <trkpt lat="44.3337" lon="6.27758">
        <ele>1983.817871</ele>
        <time>2011-08-25T09:19:34Z</time>
      </trkpt>
      <trkpt lat="44.33371" lon="6.27762">
        <ele>1982.856445</ele>
        <time>2011-08-25T09:19:37Z</time>
      </trkpt>
      <trkpt lat="44.33373" lon="6.27766">
        <ele>1981.414551</ele>
        <time>2011-08-25T09:19:41Z</time>
      </trkpt>
      <trkpt lat="44.33381" lon="6.27778">
        <ele>1978.530518</ele>
        <time>2011-08-25T09:19:55Z</time>
      </trkpt>
      <trkpt lat="44.33383" lon="6.27784">
        <ele>1977.088623</ele>
        <time>2011-08-25T09:20:01Z</time>
      </trkpt>
      <trkpt lat="44.33388" lon="6.27793">
        <ele>1974.685303</ele>
        <time>2011-08-25T09:20:09Z</time>
      </trkpt>
      <trkpt lat="44.33394" lon="6.27806">
        <ele>1970.840088</ele>
        <time>2011-08-25T09:20:23Z</time>
      </trkpt>
      <trkpt lat="44.334" lon="6.27819">
        <ele>1966.51416</ele>
        <time>2011-08-25T09:20:37Z</time>
      </trkpt>
      <trkpt lat="44.33405" lon="6.27839">
        <ele>1963.629883</ele>
        <time>2011-08-25T09:20:56Z</time>
      </trkpt>
      <trkpt lat="44.33411" lon="6.2785">
        <ele>1960.746094</ele>
        <time>2011-08-25T09:21:06Z</time>
      </trkpt>
      <trkpt lat="44.33412" lon="6.27852">
        <ele>1958.823486</ele>
        <time>2011-08-25T09:21:08Z</time>
      </trkpt>
      <trkpt lat="44.33418" lon="6.27873">
        <ele>1957.862305</ele>
        <time>2011-08-25T09:21:25Z</time>
      </trkpt>
      <trkpt lat="44.33431" lon="6.2789">
        <ele>1956.420166</ele>
        <time>2011-08-25T09:21:39Z</time>
      </trkpt>
      <trkpt lat="44.33439" lon="6.27906">
        <ele>1955.939453</ele>
        <time>2011-08-25T09:21:52Z</time>
      </trkpt>
      <trkpt lat="44.33441" lon="6.27922">
        <ele>1955.458984</ele>
        <time>2011-08-25T09:22:01Z</time>
      </trkpt>
      <trkpt lat="44.33445" lon="6.27932">
        <ele>1955.458984</ele>
        <time>2011-08-25T09:22:09Z</time>
      </trkpt>
      <trkpt lat="44.33452" lon="6.27959">
        <ele>1955.458984</ele>
        <time>2011-08-25T09:22:27Z</time>
      </trkpt>
      <trkpt lat="44.33458" lon="6.27986">
        <ele>1953.055664</ele>
        <time>2011-08-25T09:22:45Z</time>
      </trkpt>
      <trkpt lat="44.33472" lon="6.28008">
        <ele>1954.497559</ele>
        <time>2011-08-25T09:23:05Z</time>
      </trkpt>
      <trkpt lat="44.33482" lon="6.28021">
        <ele>1954.497559</ele>
        <time>2011-08-25T09:23:19Z</time>
      </trkpt>
      <trkpt lat="44.33491" lon="6.28034">
        <ele>1954.497559</ele>
        <time>2011-08-25T09:23:34Z</time>
      </trkpt>
      <trkpt lat="44.33499" lon="6.28045">
        <ele>1954.01709</ele>
        <time>2011-08-25T09:23:46Z</time>
      </trkpt>
      <trkpt lat="44.33513" lon="6.28064">
        <ele>1954.01709</ele>
        <time>2011-08-25T09:24:05Z</time>
      </trkpt>
      <trkpt lat="44.33516" lon="6.28071">
        <ele>1954.01709</ele>
        <time>2011-08-25T09:24:13Z</time>
      </trkpt>
      <trkpt lat="44.3353" lon="6.28088">
        <ele>1954.01709</ele>
        <time>2011-08-25T09:24:31Z</time>
      </trkpt>
      <trkpt lat="44.33533" lon="6.28089">
        <ele>1953.055664</ele>
        <time>2011-08-25T09:24:34Z</time>
      </trkpt>
      <trkpt lat="44.33545" lon="6.281">
        <ele>1949.691162</ele>
        <time>2011-08-25T09:24:50Z</time>
      </trkpt>
      <trkpt lat="44.33564" lon="6.28113">
        <ele>1946.806885</ele>
        <time>2011-08-25T09:25:13Z</time>
      </trkpt>
      <trkpt lat="44.33584" lon="6.2813">
        <ele>1945.36499</ele>
        <time>2011-08-25T09:25:36Z</time>
      </trkpt>
      <trkpt lat="44.33602" lon="6.28143">
        <ele>1944.403564</ele>
        <time>2011-08-25T09:25:56Z</time>
      </trkpt>
      <trkpt lat="44.33614" lon="6.28153">
        <ele>1944.403564</ele>
        <time>2011-08-25T09:26:10Z</time>
      </trkpt>
      <trkpt lat="44.33622" lon="6.28162">
        <ele>1943.442383</ele>
        <time>2011-08-25T09:26:21Z</time>
      </trkpt>
      <trkpt lat="44.33636" lon="6.2818">
        <ele>1943.442383</ele>
        <time>2011-08-25T09:26:40Z</time>
      </trkpt>
      <trkpt lat="44.33637" lon="6.28182">
        <ele>1942.96167</ele>
        <time>2011-08-25T09:26:42Z</time>
      </trkpt>
      <trkpt lat="44.3365" lon="6.282">
        <ele>1941.519775</ele>
        <time>2011-08-25T09:27:01Z</time>
      </trkpt>
      <trkpt lat="44.33665" lon="6.28216">
        <ele>1939.597168</ele>
        <time>2011-08-25T09:27:19Z</time>
      </trkpt>
      <trkpt lat="44.33673" lon="6.28221">
        <ele>1938.635986</ele>
        <time>2011-08-25T09:27:29Z</time>
      </trkpt>
      <trkpt lat="44.33686" lon="6.28234">
        <ele>1937.193848</ele>
        <time>2011-08-25T09:27:45Z</time>
      </trkpt>
      <trkpt lat="44.33691" lon="6.28239">
        <ele>1937.674561</ele>
        <time>2011-08-25T09:27:51Z</time>
      </trkpt>
      <trkpt lat="44.33691" lon="6.28246">
        <ele>1938.155273</ele>
        <time>2011-08-25T09:27:55Z</time>
      </trkpt>
      <trkpt lat="44.33692" lon="6.28271">
        <ele>1939.116455</ele>
        <time>2011-08-25T09:28:13Z</time>
      </trkpt>
      <trkpt lat="44.33695" lon="6.28282">
        <ele>1936.713135</ele>
        <time>2011-08-25T09:28:22Z</time>
      </trkpt>
      <trkpt lat="44.33698" lon="6.28285">
        <ele>1936.232666</ele>
        <time>2011-08-25T09:28:25Z</time>
      </trkpt>
      <trkpt lat="44.33702" lon="6.28305">
        <ele>1934.790771</ele>
        <time>2011-08-25T09:28:40Z</time>
      </trkpt>
      <trkpt lat="44.33706" lon="6.28324">
        <ele>1933.829346</ele>
        <time>2011-08-25T09:28:54Z</time>
      </trkpt>
      <trkpt lat="44.33709" lon="6.28354">
        <ele>1931.425781</ele>
        <time>2011-08-25T09:29:13Z</time>
      </trkpt>
      <trkpt lat="44.33709" lon="6.28361">
        <ele>1931.425781</ele>
        <time>2011-08-25T09:29:18Z</time>
      </trkpt>
      <trkpt lat="44.33707" lon="6.28386">
        <ele>1930.4646</ele>
        <time>2011-08-25T09:29:33Z</time>
      </trkpt>
      <trkpt lat="44.33706" lon="6.28399">
        <ele>1931.425781</ele>
        <time>2011-08-25T09:29:43Z</time>
      </trkpt>
      <trkpt lat="44.33704" lon="6.28401">
        <ele>1932.86792</ele>
        <time>2011-08-25T09:29:45Z</time>
      </trkpt>
      <trkpt lat="44.33699" lon="6.2842">
        <ele>1933.829346</ele>
        <time>2011-08-25T09:29:57Z</time>
      </trkpt>
      <trkpt lat="44.33696" lon="6.28426">
        <ele>1931.425781</ele>
        <time>2011-08-25T09:30:01Z</time>
      </trkpt>
      <trkpt lat="44.33686" lon="6.28448">
        <ele>1930.4646</ele>
        <time>2011-08-25T09:30:20Z</time>
      </trkpt>
      <trkpt lat="44.33682" lon="6.28459">
        <ele>1931.425781</ele>
        <time>2011-08-25T09:30:29Z</time>
      </trkpt>
      <trkpt lat="44.3368" lon="6.28465">
        <ele>1931.906494</ele>
        <time>2011-08-25T09:30:34Z</time>
      </trkpt>
      <trkpt lat="44.33678" lon="6.28468">
        <ele>1930.4646</ele>
        <time>2011-08-25T09:30:36Z</time>
      </trkpt>
      <trkpt lat="44.33665" lon="6.28486">
        <ele>1931.906494</ele>
        <time>2011-08-25T09:30:55Z</time>
      </trkpt>
      <trkpt lat="44.3365" lon="6.28502">
        <ele>1933.348633</ele>
        <time>2011-08-25T09:31:14Z</time>
      </trkpt>
      <trkpt lat="44.33638" lon="6.28519">
        <ele>1934.790771</ele>
        <time>2011-08-25T09:31:34Z</time>
      </trkpt>
      <trkpt lat="44.33626" lon="6.28533">
        <ele>1936.713135</ele>
        <time>2011-08-25T09:31:52Z</time>
      </trkpt>
      <trkpt lat="44.33614" lon="6.28548">
        <ele>1938.635986</ele>
        <time>2011-08-25T09:32:10Z</time>
      </trkpt>
      <trkpt lat="44.33599" lon="6.28568">
        <ele>1940.077881</ele>
        <time>2011-08-25T09:32:31Z</time>
      </trkpt>
      <trkpt lat="44.33588" lon="6.28585">
        <ele>1942.481201</ele>
        <time>2011-08-25T09:32:51Z</time>
      </trkpt>
      <trkpt lat="44.33583" lon="6.28593">
        <ele>1944.403564</ele>
        <time>2011-08-25T09:32:59Z</time>
      </trkpt>
      <trkpt lat="44.3358" lon="6.28598">
        <ele>1943.442383</ele>
        <time>2011-08-25T09:33:04Z</time>
      </trkpt>
      <trkpt lat="44.33567" lon="6.28619">
        <ele>1945.36499</ele>
        <time>2011-08-25T09:33:26Z</time>
      </trkpt>
      <trkpt lat="44.33553" lon="6.28637">
        <ele>1948.249023</ele>
        <time>2011-08-25T09:33:47Z</time>
      </trkpt>
      <trkpt lat="44.33541" lon="6.28658">
        <ele>1949.210449</ele>
        <time>2011-08-25T09:34:09Z</time>
      </trkpt>
      <trkpt lat="44.33526" lon="6.28675">
        <ele>1952.574951</ele>
        <time>2011-08-25T09:34:31Z</time>
      </trkpt>
      <trkpt lat="44.3352" lon="6.28685">
        <ele>1955.939453</ele>
        <time>2011-08-25T09:34:42Z</time>
      </trkpt>
      <trkpt lat="44.33519" lon="6.28685">
        <ele>1955.939453</ele>
        <time>2011-08-25T09:34:43Z</time>
      </trkpt>
      <trkpt lat="44.33507" lon="6.28697">
        <ele>1959.784668</ele>
        <time>2011-08-25T09:35:01Z</time>
      </trkpt>
      <trkpt lat="44.33494" lon="6.28715">
        <ele>1960.265381</ele>
        <time>2011-08-25T09:35:20Z</time>
      </trkpt>
      <trkpt lat="44.33488" lon="6.28722">
        <ele>1962.668701</ele>
        <time>2011-08-25T09:35:28Z</time>
      </trkpt>
      <trkpt lat="44.33487" lon="6.28723">
        <ele>1961.226807</ele>
        <time>2011-08-25T09:35:30Z</time>
      </trkpt>
      <trkpt lat="44.33473" lon="6.28739">
        <ele>1962.187988</ele>
        <time>2011-08-25T09:35:53Z</time>
      </trkpt>
      <trkpt lat="44.33469" lon="6.2875">
        <ele>1965.552979</ele>
        <time>2011-08-25T09:36:03Z</time>
      </trkpt>
      <trkpt lat="44.33468" lon="6.28751">
        <ele>1965.072266</ele>
        <time>2011-08-25T09:36:04Z</time>
      </trkpt>
      <trkpt lat="44.33467" lon="6.28754">
        <ele>1966.51416</ele>
        <time>2011-08-25T09:36:07Z</time>
      </trkpt>
      <trkpt lat="44.33455" lon="6.28771">
        <ele>1969.398193</ele>
        <time>2011-08-25T09:36:27Z</time>
      </trkpt>
      <trkpt lat="44.33454" lon="6.28772">
        <ele>1969.398193</ele>
        <time>2011-08-25T09:36:28Z</time>
      </trkpt>
      <trkpt lat="44.33448" lon="6.28779">
        <ele>1971.320557</ele>
        <time>2011-08-25T09:36:35Z</time>
      </trkpt>
      <trkpt lat="44.33434" lon="6.28798">
        <ele>1970.840088</ele>
        <time>2011-08-25T09:36:55Z</time>
      </trkpt>
      <trkpt lat="44.33423" lon="6.28811">
        <ele>1972.281982</ele>
        <time>2011-08-25T09:37:09Z</time>
      </trkpt>
      <trkpt lat="44.3341" lon="6.28826">
        <ele>1974.685303</ele>
        <time>2011-08-25T09:37:26Z</time>
      </trkpt>
      <trkpt lat="44.33394" lon="6.28842">
        <ele>1974.685303</ele>
        <time>2011-08-25T09:37:44Z</time>
      </trkpt>
      <trkpt lat="44.33385" lon="6.28855">
        <ele>1972.762695</ele>
        <time>2011-08-25T09:37:56Z</time>
      </trkpt>
      <trkpt lat="44.3338" lon="6.28867">
        <ele>1976.127197</ele>
        <time>2011-08-25T09:38:06Z</time>
      </trkpt>
      <trkpt lat="44.33373" lon="6.28892">
        <ele>1977.569092</ele>
        <time>2011-08-25T09:38:25Z</time>
      </trkpt>
      <trkpt lat="44.33368" lon="6.28922">
        <ele>1978.049805</ele>
        <time>2011-08-25T09:38:47Z</time>
      </trkpt>
      <trkpt lat="44.33364" lon="6.2895">
        <ele>1980.453369</ele>
        <time>2011-08-25T09:39:07Z</time>
      </trkpt>
      <trkpt lat="44.33357" lon="6.28975">
        <ele>1982.375977</ele>
        <time>2011-08-25T09:39:25Z</time>
      </trkpt>
      <trkpt lat="44.33357" lon="6.28976">
        <ele>1982.375977</ele>
        <time>2011-08-25T09:39:26Z</time>
      </trkpt>
      <trkpt lat="44.33349" lon="6.28996">
        <ele>1985.259766</ele>
        <time>2011-08-25T09:39:41Z</time>
      </trkpt>
      <trkpt lat="44.33344" lon="6.29009">
        <ele>1986.70166</ele>
        <time>2011-08-25T09:39:54Z</time>
      </trkpt>
      <trkpt lat="44.33343" lon="6.29011">
        <ele>1984.779297</ele>
        <time>2011-08-25T09:39:56Z</time>
      </trkpt>
      <trkpt lat="44.33343" lon="6.29013">
        <ele>1986.221191</ele>
        <time>2011-08-25T09:39:58Z</time>
      </trkpt>
      <trkpt lat="44.33338" lon="6.29023">
        <ele>1987.182373</ele>
        <time>2011-08-25T09:40:07Z</time>
      </trkpt>
      <trkpt lat="44.3333" lon="6.29044">
        <ele>1987.182373</ele>
        <time>2011-08-25T09:40:24Z</time>
      </trkpt>
      <trkpt lat="44.33322" lon="6.29062">
        <ele>1988.624512</ele>
        <time>2011-08-25T09:40:41Z</time>
      </trkpt>
      <trkpt lat="44.33311" lon="6.29083">
        <ele>1987.182373</ele>
        <time>2011-08-25T09:41:00Z</time>
      </trkpt>
      <trkpt lat="44.333" lon="6.29099">
        <ele>1986.221191</ele>
        <time>2011-08-25T09:41:17Z</time>
      </trkpt>
      <trkpt lat="44.33298" lon="6.29102">
        <ele>1986.221191</ele>
        <time>2011-08-25T09:41:20Z</time>
      </trkpt>
      <trkpt lat="44.33281" lon="6.29124">
        <ele>1988.143799</ele>
        <time>2011-08-25T09:41:40Z</time>
      </trkpt>
      <trkpt lat="44.33269" lon="6.29147">
        <ele>1989.10498</ele>
        <time>2011-08-25T09:42:00Z</time>
      </trkpt>
      <trkpt lat="44.33254" lon="6.29166">
        <ele>1987.663086</ele>
        <time>2011-08-25T09:42:18Z</time>
      </trkpt>
      <trkpt lat="44.33235" lon="6.29187">
        <ele>1986.70166</ele>
        <time>2011-08-25T09:42:41Z</time>
      </trkpt>
      <trkpt lat="44.33231" lon="6.29193">
        <ele>1986.70166</ele>
        <time>2011-08-25T09:42:46Z</time>
      </trkpt>
      <trkpt lat="44.33213" lon="6.29205">
        <ele>1987.663086</ele>
        <time>2011-08-25T09:43:07Z</time>
      </trkpt>
      <trkpt lat="44.33201" lon="6.29217">
        <ele>1988.143799</ele>
        <time>2011-08-25T09:43:22Z</time>
      </trkpt>
      <trkpt lat="44.33181" lon="6.29228">
        <ele>1989.585693</ele>
        <time>2011-08-25T09:43:42Z</time>
      </trkpt>
      <trkpt lat="44.33164" lon="6.29236">
        <ele>1990.546875</ele>
        <time>2011-08-25T09:44:02Z</time>
      </trkpt>
      <trkpt lat="44.33144" lon="6.29243">
        <ele>1990.546875</ele>
        <time>2011-08-25T09:44:23Z</time>
      </trkpt>
      <trkpt lat="44.33135" lon="6.29242">
        <ele>1992.469727</ele>
        <time>2011-08-25T09:44:43Z</time>
      </trkpt>
      <trkpt lat="44.33136" lon="6.29242">
        <ele>1991.989014</ele>
        <time>2011-08-25T09:45:50Z</time>
      </trkpt>
      <trkpt lat="44.33136" lon="6.29243">
        <ele>1992.950195</ele>
        <time>2011-08-25T09:47:12Z</time>
      </trkpt>
      <trkpt lat="44.3314" lon="6.29241">
        <ele>1991.989014</ele>
        <time>2011-08-25T09:47:47Z</time>
      </trkpt>
      <trkpt lat="44.3314" lon="6.29241">
        <ele>1992.469727</ele>
        <time>2011-08-25T09:48:39Z</time>
      </trkpt>
      <trkpt lat="44.33141" lon="6.29243">
        <ele>1991.508301</ele>
        <time>2011-08-25T09:49:53Z</time>
      </trkpt>
      <trkpt lat="44.33147" lon="6.29236">
        <ele>1991.989014</ele>
        <time>2011-08-25T09:50:36Z</time>
      </trkpt>
      <trkpt lat="44.33146" lon="6.29234">
        <ele>1991.508301</ele>
        <time>2011-08-25T09:51:01Z</time>
      </trkpt>
      <trkpt lat="44.33146" lon="6.29239">
        <ele>1991.027588</ele>
        <time>2011-08-25T09:51:33Z</time>
      </trkpt>
      <trkpt lat="44.33145" lon="6.2924">
        <ele>1991.027588</ele>
        <time>2011-08-25T09:52:01Z</time>
      </trkpt>
      <trkpt lat="44.33136" lon="6.29237">
        <ele>1990.066406</ele>
        <time>2011-08-25T09:52:13Z</time>
      </trkpt>
      <trkpt lat="44.33135" lon="6.29237">
        <ele>1992.950195</ele>
        <time>2011-08-25T09:52:49Z</time>
      </trkpt>
      <trkpt lat="44.33135" lon="6.29237">
        <ele>1992.950195</ele>
        <time>2011-08-25T09:52:50Z</time>
      </trkpt>
      <trkpt lat="44.33136" lon="6.29237">
        <ele>1992.469727</ele>
        <time>2011-08-25T09:53:00Z</time>
      </trkpt>
      <trkpt lat="44.33143" lon="6.29235">
        <ele>1992.469727</ele>
        <time>2011-08-25T09:53:23Z</time>
      </trkpt>
      <trkpt lat="44.33156" lon="6.29234">
        <ele>1991.508301</ele>
        <time>2011-08-25T09:53:48Z</time>
      </trkpt>
      <trkpt lat="44.33163" lon="6.29232">
        <ele>1991.989014</ele>
        <time>2011-08-25T09:53:57Z</time>
      </trkpt>
      <trkpt lat="44.33183" lon="6.29221">
        <ele>1990.546875</ele>
        <time>2011-08-25T09:54:20Z</time>
      </trkpt>
      <trkpt lat="44.33199" lon="6.29214">
        <ele>1990.066406</ele>
        <time>2011-08-25T09:54:38Z</time>
      </trkpt>
      <trkpt lat="44.33222" lon="6.29201">
        <ele>1988.143799</ele>
        <time>2011-08-25T09:55:02Z</time>
      </trkpt>
      <trkpt lat="44.3324" lon="6.29189">
        <ele>1987.663086</ele>
        <time>2011-08-25T09:55:21Z</time>
      </trkpt>
      <trkpt lat="44.33259" lon="6.29181">
        <ele>1985.259766</ele>
        <time>2011-08-25T09:55:41Z</time>
      </trkpt>
      <trkpt lat="44.33282" lon="6.29168">
        <ele>1985.259766</ele>
        <time>2011-08-25T09:56:06Z</time>
      </trkpt>
      <trkpt lat="44.33283" lon="6.29168">
        <ele>1985.259766</ele>
        <time>2011-08-25T09:56:07Z</time>
      </trkpt>
      <trkpt lat="44.33301" lon="6.2916">
        <ele>1983.337158</ele>
        <time>2011-08-25T09:56:25Z</time>
      </trkpt>
      <trkpt lat="44.33313" lon="6.29157">
        <ele>1982.856445</ele>
        <time>2011-08-25T09:56:36Z</time>
      </trkpt>
      <trkpt lat="44.33316" lon="6.29155">
        <ele>1982.856445</ele>
        <time>2011-08-25T09:56:39Z</time>
      </trkpt>
      <trkpt lat="44.33331" lon="6.29153">
        <ele>1981.414551</ele>
        <time>2011-08-25T09:56:54Z</time>
      </trkpt>
      <trkpt lat="44.33345" lon="6.29153">
        <ele>1980.934082</ele>
        <time>2011-08-25T09:57:05Z</time>
      </trkpt>
      <trkpt lat="44.33365" lon="6.29151">
        <ele>1979.491699</ele>
        <time>2011-08-25T09:57:24Z</time>
      </trkpt>
      <trkpt lat="44.33389" lon="6.29154">
        <ele>1978.049805</ele>
        <time>2011-08-25T09:57:46Z</time>
      </trkpt>
      <trkpt lat="44.33407" lon="6.29162">
        <ele>1976.60791</ele>
        <time>2011-08-25T09:58:00Z</time>
      </trkpt>
      <trkpt lat="44.33407" lon="6.29163">
        <ele>1976.60791</ele>
        <time>2011-08-25T09:58:01Z</time>
      </trkpt>
      <trkpt lat="44.33425" lon="6.29188">
        <ele>1974.20459</ele>
        <time>2011-08-25T09:58:22Z</time>
      </trkpt>
      <trkpt lat="44.33432" lon="6.29201">
        <ele>1974.20459</ele>
        <time>2011-08-25T09:58:39Z</time>
      </trkpt>
      <trkpt lat="44.33439" lon="6.29224">
        <ele>1974.20459</ele>
        <time>2011-08-25T09:58:54Z</time>
      </trkpt>
      <trkpt lat="44.33442" lon="6.29239">
        <ele>1970.840088</ele>
        <time>2011-08-25T09:59:04Z</time>
      </trkpt>
      <trkpt lat="44.33445" lon="6.29255">
        <ele>1970.840088</ele>
        <time>2011-08-25T09:59:15Z</time>
      </trkpt>
      <trkpt lat="44.33448" lon="6.29264">
        <ele>1971.80127</ele>
        <time>2011-08-25T09:59:21Z</time>
      </trkpt>
      <trkpt lat="44.33448" lon="6.29268">
        <ele>1971.80127</ele>
        <time>2011-08-25T09:59:25Z</time>
      </trkpt>
      <trkpt lat="44.33449" lon="6.29273">
        <ele>1974.685303</ele>
        <time>2011-08-25T09:59:28Z</time>
      </trkpt>
      <trkpt lat="44.3345" lon="6.29276">
        <ele>1976.127197</ele>
        <time>2011-08-25T09:59:30Z</time>
      </trkpt>
      <trkpt lat="44.33451" lon="6.29279">
        <ele>1974.20459</ele>
        <time>2011-08-25T09:59:32Z</time>
      </trkpt>
      <trkpt lat="44.33452" lon="6.29283">
        <ele>1972.281982</ele>
        <time>2011-08-25T09:59:35Z</time>
      </trkpt>
      <trkpt lat="44.33454" lon="6.29288">
        <ele>1971.80127</ele>
        <time>2011-08-25T09:59:39Z</time>
      </trkpt>
      <trkpt lat="44.33455" lon="6.2929">
        <ele>1971.80127</ele>
        <time>2011-08-25T09:59:41Z</time>
      </trkpt>
      <trkpt lat="44.33459" lon="6.29293">
        <ele>1973.723877</ele>
        <time>2011-08-25T09:59:46Z</time>
      </trkpt>
      <trkpt lat="44.33477" lon="6.29319">
        <ele>1975.646484</ele>
        <time>2011-08-25T10:00:12Z</time>
      </trkpt>
      <trkpt lat="44.33481" lon="6.29335">
        <ele>1977.088623</ele>
        <time>2011-08-25T10:00:23Z</time>
      </trkpt>
      <trkpt lat="44.33485" lon="6.29362">
        <ele>1979.010986</ele>
        <time>2011-08-25T10:00:42Z</time>
      </trkpt>
      <trkpt lat="44.33487" lon="6.29384">
        <ele>1980.934082</ele>
        <time>2011-08-25T10:00:58Z</time>
      </trkpt>
      <trkpt lat="44.33487" lon="6.29387">
        <ele>1980.934082</ele>
        <time>2011-08-25T10:01:00Z</time>
      </trkpt>
      <trkpt lat="44.3349" lon="6.29397">
        <ele>1978.530518</ele>
        <time>2011-08-25T10:01:08Z</time>
      </trkpt>
      <trkpt lat="44.33491" lon="6.29419">
        <ele>1978.530518</ele>
        <time>2011-08-25T10:01:25Z</time>
      </trkpt>
      <trkpt lat="44.33494" lon="6.29428">
        <ele>1977.088623</ele>
        <time>2011-08-25T10:01:31Z</time>
      </trkpt>
      <trkpt lat="44.33493" lon="6.29431">
        <ele>1976.127197</ele>
        <time>2011-08-25T10:01:33Z</time>
      </trkpt>
      <trkpt lat="44.33493" lon="6.29434">
        <ele>1978.530518</ele>
        <time>2011-08-25T10:01:36Z</time>
      </trkpt>
      <trkpt lat="44.33494" lon="6.29436">
        <ele>1979.010986</ele>
        <time>2011-08-25T10:01:38Z</time>
      </trkpt>
      <trkpt lat="44.33496" lon="6.29459">
        <ele>1979.972412</ele>
        <time>2011-08-25T10:01:54Z</time>
      </trkpt>
      <trkpt lat="44.33498" lon="6.29465">
        <ele>1981.414551</ele>
        <time>2011-08-25T10:01:59Z</time>
      </trkpt>
      <trkpt lat="44.33497" lon="6.29467">
        <ele>1979.491699</ele>
        <time>2011-08-25T10:02:01Z</time>
      </trkpt>
      <trkpt lat="44.33496" lon="6.29491">
        <ele>1979.972412</ele>
        <time>2011-08-25T10:02:17Z</time>
      </trkpt>
      <trkpt lat="44.33495" lon="6.29494">
        <ele>1981.414551</ele>
        <time>2011-08-25T10:02:19Z</time>
      </trkpt>
      <trkpt lat="44.33495" lon="6.29502">
        <ele>1980.453369</ele>
        <time>2011-08-25T10:02:24Z</time>
      </trkpt>
      <trkpt lat="44.33495" lon="6.29504">
        <ele>1978.049805</ele>
        <time>2011-08-25T10:02:26Z</time>
      </trkpt>
      <trkpt lat="44.33494" lon="6.29508">
        <ele>1980.453369</ele>
        <time>2011-08-25T10:02:29Z</time>
      </trkpt>
      <trkpt lat="44.33493" lon="6.29514">
        <ele>1982.375977</ele>
        <time>2011-08-25T10:02:33Z</time>
      </trkpt>
      <trkpt lat="44.3349" lon="6.2954">
        <ele>1982.375977</ele>
        <time>2011-08-25T10:02:51Z</time>
      </trkpt>
      <trkpt lat="44.3349" lon="6.29573">
        <ele>1980.453369</ele>
        <time>2011-08-25T10:03:14Z</time>
      </trkpt>
      <trkpt lat="44.3349" lon="6.29586">
        <ele>1979.010986</ele>
        <time>2011-08-25T10:03:26Z</time>
      </trkpt>
      <trkpt lat="44.33489" lon="6.29602">
        <ele>1980.453369</ele>
        <time>2011-08-25T10:03:38Z</time>
      </trkpt>
      <trkpt lat="44.3349" lon="6.29611">
        <ele>1979.491699</ele>
        <time>2011-08-25T10:03:46Z</time>
      </trkpt>
      <trkpt lat="44.33491" lon="6.29618">
        <ele>1977.088623</ele>
        <time>2011-08-25T10:03:52Z</time>
      </trkpt>
      <trkpt lat="44.33497" lon="6.2963">
        <ele>1975.646484</ele>
        <time>2011-08-25T10:04:04Z</time>
      </trkpt>
      <trkpt lat="44.335" lon="6.29637">
        <ele>1974.20459</ele>
        <time>2011-08-25T10:04:17Z</time>
      </trkpt>
      <trkpt lat="44.33501" lon="6.29639">
        <ele>1974.20459</ele>
        <time>2011-08-25T10:04:32Z</time>
      </trkpt>
      <trkpt lat="44.33501" lon="6.29639">
        <ele>1974.20459</ele>
        <time>2011-08-25T10:05:13Z</time>
      </trkpt>
      <trkpt lat="44.33505" lon="6.29642">
        <ele>1974.20459</ele>
        <time>2011-08-25T10:05:42Z</time>
      </trkpt>
      <trkpt lat="44.33504" lon="6.29646">
        <ele>1974.20459</ele>
        <time>2011-08-25T10:05:59Z</time>
      </trkpt>
      <trkpt lat="44.33501" lon="6.2965">
        <ele>1972.762695</ele>
        <time>2011-08-25T10:06:11Z</time>
      </trkpt>
      <trkpt lat="44.33501" lon="6.2965">
        <ele>1972.762695</ele>
        <time>2011-08-25T10:06:31Z</time>
      </trkpt>
      <trkpt lat="44.335" lon="6.29651">
        <ele>1974.20459</ele>
        <time>2011-08-25T10:06:34Z</time>
      </trkpt>
      <trkpt lat="44.33501" lon="6.29651">
        <ele>1975.165771</ele>
        <time>2011-08-25T10:06:39Z</time>
      </trkpt>
      <trkpt lat="44.33499" lon="6.29651">
        <ele>1975.165771</ele>
        <time>2011-08-25T10:07:03Z</time>
      </trkpt>
      <trkpt lat="44.33499" lon="6.2965">
        <ele>1974.685303</ele>
        <time>2011-08-25T10:07:24Z</time>
      </trkpt>
      <trkpt lat="44.33499" lon="6.2965">
        <ele>1975.165771</ele>
        <time>2011-08-25T10:07:54Z</time>
      </trkpt>
      <trkpt lat="44.33497" lon="6.29648">
        <ele>1976.127197</ele>
        <time>2011-08-25T10:08:40Z</time>
      </trkpt>
      <trkpt lat="44.33497" lon="6.29646">
        <ele>1975.165771</ele>
        <time>2011-08-25T10:09:25Z</time>
      </trkpt>
      <trkpt lat="44.33498" lon="6.29646">
        <ele>1972.762695</ele>
        <time>2011-08-25T11:06:42Z</time>
      </trkpt>
      <trkpt lat="44.33498" lon="6.29646">
        <ele>1972.281982</ele>
        <time>2011-08-25T11:06:46Z</time>
      </trkpt>
      <trkpt lat="44.33498" lon="6.29646">
        <ele>1974.20459</ele>
        <time>2011-08-25T11:07:56Z</time>
      </trkpt>
      <trkpt lat="44.33498" lon="6.29646">
        <ele>1971.320557</ele>
        <time>2011-08-25T11:09:49Z</time>
      </trkpt>
      <trkpt lat="44.33498" lon="6.29646">
        <ele>1972.281982</ele>
        <time>2011-08-25T11:09:58Z</time>
      </trkpt>
      <trkpt lat="44.33498" lon="6.29646">
        <ele>1971.80127</ele>
        <time>2011-08-25T11:10:24Z</time>
      </trkpt>
      <trkpt lat="44.33498" lon="6.29646">
        <ele>1972.281982</ele>
        <time>2011-08-25T11:10:47Z</time>
      </trkpt>
      <trkpt lat="44.33498" lon="6.29646">
        <ele>1973.243408</ele>
        <time>2011-08-25T11:10:52Z</time>
      </trkpt>
      <trkpt lat="44.33498" lon="6.29645">
        <ele>1972.762695</ele>
        <time>2011-08-25T11:12:06Z</time>
      </trkpt>
      <trkpt lat="44.33498" lon="6.29645">
        <ele>1971.80127</ele>
        <time>2011-08-25T11:12:34Z</time>
      </trkpt>
      <trkpt lat="44.33498" lon="6.29645">
        <ele>1973.723877</ele>
        <time>2011-08-25T11:12:57Z</time>
      </trkpt>
      <trkpt lat="44.33499" lon="6.29644">
        <ele>1972.281982</ele>
        <time>2011-08-25T11:13:38Z</time>
      </trkpt>
      <trkpt lat="44.33499" lon="6.29644">
        <ele>1971.320557</ele>
        <time>2011-08-25T11:14:46Z</time>
      </trkpt>
      <trkpt lat="44.33499" lon="6.29644">
        <ele>1972.281982</ele>
        <time>2011-08-25T11:14:48Z</time>
      </trkpt>
      <trkpt lat="44.33499" lon="6.29644">
        <ele>1973.723877</ele>
        <time>2011-08-25T11:15:27Z</time>
      </trkpt>
      <trkpt lat="44.33499" lon="6.29644">
        <ele>1974.685303</ele>
        <time>2011-08-25T11:15:37Z</time>
      </trkpt>
      <trkpt lat="44.33499" lon="6.29645">
        <ele>1973.243408</ele>
        <time>2011-08-25T11:16:33Z</time>
      </trkpt>
      <trkpt lat="44.33498" lon="6.29645">
        <ele>1972.281982</ele>
        <time>2011-08-25T11:26:58Z</time>
      </trkpt>
      <trkpt lat="44.33498" lon="6.29646">
        <ele>1971.80127</ele>
        <time>2011-08-25T11:27:32Z</time>
      </trkpt>
      <trkpt lat="44.33498" lon="6.29646">
        <ele>1974.685303</ele>
        <time>2011-08-25T11:27:34Z</time>
      </trkpt>
      <trkpt lat="44.33499" lon="6.29645">
        <ele>1973.243408</ele>
        <time>2011-08-25T11:27:36Z</time>
      </trkpt>
      <trkpt lat="44.33495" lon="6.29644">
        <ele>1973.243408</ele>
        <time>2011-08-25T11:27:49Z</time>
      </trkpt>
      <trkpt lat="44.33496" lon="6.29644">
        <ele>1972.762695</ele>
        <time>2011-08-25T11:28:25Z</time>
      </trkpt>
      <trkpt lat="44.33496" lon="6.29643">
        <ele>1972.281982</ele>
        <time>2011-08-25T11:29:39Z</time>
      </trkpt>
      <trkpt lat="44.33496" lon="6.29643">
        <ele>1972.281982</ele>
        <time>2011-08-25T11:31:42Z</time>
      </trkpt>
      <trkpt lat="44.33496" lon="6.29642">
        <ele>1971.80127</ele>
        <time>2011-08-25T11:32:58Z</time>
      </trkpt>
      <trkpt lat="44.33499" lon="6.29643">
        <ele>1971.80127</ele>
        <time>2011-08-25T11:33:32Z</time>
      </trkpt>
      <trkpt lat="44.33501" lon="6.29643">
        <ele>1971.320557</ele>
        <time>2011-08-25T11:33:45Z</time>
      </trkpt>
      <trkpt lat="44.33511" lon="6.2964">
        <ele>1970.840088</ele>
        <time>2011-08-25T11:33:57Z</time>
      </trkpt>
      <trkpt lat="44.33517" lon="6.2964">
        <ele>1969.398193</ele>
        <time>2011-08-25T11:34:14Z</time>
      </trkpt>
      <trkpt lat="44.33523" lon="6.29641">
        <ele>1968.91748</ele>
        <time>2011-08-25T11:34:31Z</time>
      </trkpt>
      <trkpt lat="44.33528" lon="6.29641">
        <ele>1967.956055</ele>
        <time>2011-08-25T11:34:47Z</time>
      </trkpt>
      <trkpt lat="44.33534" lon="6.29641">
        <ele>1966.033447</ele>
        <time>2011-08-25T11:35:08Z</time>
      </trkpt>
      <trkpt lat="44.33541" lon="6.29639">
        <ele>1964.11084</ele>
        <time>2011-08-25T11:35:17Z</time>
      </trkpt>
      <trkpt lat="44.33551" lon="6.29642">
        <ele>1961.226807</ele>
        <time>2011-08-25T11:35:31Z</time>
      </trkpt>
      <trkpt lat="44.33552" lon="6.29641">
        <ele>1962.668701</ele>
        <time>2011-08-25T11:35:34Z</time>
      </trkpt>
      <trkpt lat="44.33565" lon="6.29647">
        <ele>1960.265381</ele>
        <time>2011-08-25T11:35:50Z</time>
      </trkpt>
      <trkpt lat="44.33575" lon="6.29652">
        <ele>1958.823486</ele>
        <time>2011-08-25T11:36:04Z</time>
      </trkpt>
      <trkpt lat="44.33583" lon="6.29659">
        <ele>1954.497559</ele>
        <time>2011-08-25T11:36:19Z</time>
      </trkpt>
      <trkpt lat="44.33589" lon="6.29672">
        <ele>1951.133057</ele>
        <time>2011-08-25T11:36:33Z</time>
      </trkpt>
      <trkpt lat="44.33596" lon="6.29683">
        <ele>1947.768311</ele>
        <time>2011-08-25T11:36:49Z</time>
      </trkpt>
      <trkpt lat="44.33606" lon="6.29696">
        <ele>1944.884277</ele>
        <time>2011-08-25T11:37:06Z</time>
      </trkpt>
      <trkpt lat="44.3361" lon="6.29699">
        <ele>1944.403564</ele>
        <time>2011-08-25T11:37:11Z</time>
      </trkpt>
      <trkpt lat="44.33621" lon="6.29706">
        <ele>1940.55835</ele>
        <time>2011-08-25T11:37:26Z</time>
      </trkpt>
      <trkpt lat="44.33631" lon="6.29717">
        <ele>1937.674561</ele>
        <time>2011-08-25T11:37:42Z</time>
      </trkpt>
      <trkpt lat="44.33641" lon="6.29725">
        <ele>1934.790771</ele>
        <time>2011-08-25T11:37:56Z</time>
      </trkpt>
      <trkpt lat="44.33654" lon="6.29734">
        <ele>1932.86792</ele>
        <time>2011-08-25T11:38:13Z</time>
      </trkpt>
      <trkpt lat="44.33664" lon="6.29745">
        <ele>1929.503174</ele>
        <time>2011-08-25T11:38:29Z</time>
      </trkpt>
      <trkpt lat="44.33665" lon="6.29745">
        <ele>1929.022461</ele>
        <time>2011-08-25T11:38:31Z</time>
      </trkpt>
      <trkpt lat="44.33669" lon="6.29747">
        <ele>1927.100098</ele>
        <time>2011-08-25T11:38:37Z</time>
      </trkpt>
      <trkpt lat="44.33679" lon="6.29752">
        <ele>1924.216064</ele>
        <time>2011-08-25T11:38:51Z</time>
      </trkpt>
      <trkpt lat="44.33683" lon="6.29755">
        <ele>1925.657959</ele>
        <time>2011-08-25T11:38:57Z</time>
      </trkpt>
      <trkpt lat="44.33685" lon="6.29757">
        <ele>1922.77417</ele>
        <time>2011-08-25T11:39:01Z</time>
      </trkpt>
      <trkpt lat="44.33687" lon="6.29758">
        <ele>1922.293457</ele>
        <time>2011-08-25T11:39:03Z</time>
      </trkpt>
      <trkpt lat="44.33692" lon="6.2976">
        <ele>1922.293457</ele>
        <time>2011-08-25T11:39:11Z</time>
      </trkpt>
      <trkpt lat="44.33693" lon="6.29761">
        <ele>1920.851563</ele>
        <time>2011-08-25T11:39:13Z</time>
      </trkpt>
      <trkpt lat="44.33698" lon="6.29763">
        <ele>1919.890137</ele>
        <time>2011-08-25T11:39:18Z</time>
      </trkpt>
      <trkpt lat="44.33702" lon="6.29765">
        <ele>1918.448242</ele>
        <time>2011-08-25T11:39:23Z</time>
      </trkpt>
      <trkpt lat="44.33706" lon="6.29768">
        <ele>1916.525635</ele>
        <time>2011-08-25T11:39:28Z</time>
      </trkpt>
      <trkpt lat="44.33708" lon="6.29768">
        <ele>1914.602783</ele>
        <time>2011-08-25T11:39:32Z</time>
      </trkpt>
      <trkpt lat="44.33708" lon="6.29769">
        <ele>1915.564209</ele>
        <time>2011-08-25T11:39:34Z</time>
      </trkpt>
      <trkpt lat="44.33717" lon="6.29773">
        <ele>1913.641357</ele>
        <time>2011-08-25T11:39:49Z</time>
      </trkpt>
      <trkpt lat="44.33719" lon="6.29776">
        <ele>1911.718994</ele>
        <time>2011-08-25T11:39:53Z</time>
      </trkpt>
      <trkpt lat="44.33728" lon="6.29784">
        <ele>1908.354248</ele>
        <time>2011-08-25T11:40:08Z</time>
      </trkpt>
      <trkpt lat="44.33733" lon="6.29784">
        <ele>1905.470459</ele>
        <time>2011-08-25T11:40:19Z</time>
      </trkpt>
      <trkpt lat="44.33734" lon="6.29786">
        <ele>1904.028564</ele>
        <time>2011-08-25T11:40:21Z</time>
      </trkpt>
      <trkpt lat="44.33736" lon="6.29788">
        <ele>1901.625244</ele>
        <time>2011-08-25T11:40:27Z</time>
      </trkpt>
      <trkpt lat="44.33744" lon="6.29793">
        <ele>1897.779785</ele>
        <time>2011-08-25T11:40:41Z</time>
      </trkpt>
      <trkpt lat="44.33745" lon="6.29792">
        <ele>1897.779785</ele>
        <time>2011-08-25T11:40:42Z</time>
      </trkpt>
      <trkpt lat="44.33753" lon="6.29797">
        <ele>1894.895752</ele>
        <time>2011-08-25T11:40:55Z</time>
      </trkpt>
      <trkpt lat="44.33759" lon="6.29798">
        <ele>1892.973145</ele>
        <time>2011-08-25T11:41:02Z</time>
      </trkpt>
      <trkpt lat="44.33768" lon="6.29799">
        <ele>1889.608643</ele>
        <time>2011-08-25T11:41:15Z</time>
      </trkpt>
      <trkpt lat="44.33772" lon="6.29799">
        <ele>1888.166748</ele>
        <time>2011-08-25T11:41:20Z</time>
      </trkpt>
      <trkpt lat="44.33786" lon="6.29806">
        <ele>1884.802246</ele>
        <time>2011-08-25T11:41:36Z</time>
      </trkpt>
      <trkpt lat="44.33795" lon="6.29811">
        <ele>1881.917969</ele>
        <time>2011-08-25T11:41:50Z</time>
      </trkpt>
      <trkpt lat="44.33802" lon="6.29818">
        <ele>1878.553467</ele>
        <time>2011-08-25T11:42:02Z</time>
      </trkpt>
      <trkpt lat="44.33811" lon="6.29824">
        <ele>1875.669434</ele>
        <time>2011-08-25T11:42:15Z</time>
      </trkpt>
      <trkpt lat="44.33821" lon="6.29831">
        <ele>1872.304932</ele>
        <time>2011-08-25T11:42:29Z</time>
      </trkpt>
      <trkpt lat="44.33829" lon="6.29837">
        <ele>1868.94043</ele>
        <time>2011-08-25T11:42:41Z</time>
      </trkpt>
      <trkpt lat="44.33839" lon="6.29853">
        <ele>1866.056152</ele>
        <time>2011-08-25T11:42:59Z</time>
      </trkpt>
      <trkpt lat="44.33846" lon="6.29861">
        <ele>1862.69165</ele>
        <time>2011-08-25T11:43:13Z</time>
      </trkpt>
      <trkpt lat="44.33852" lon="6.29866">
        <ele>1859.807617</ele>
        <time>2011-08-25T11:43:23Z</time>
      </trkpt>
      <trkpt lat="44.33856" lon="6.29877">
        <ele>1856.443115</ele>
        <time>2011-08-25T11:43:36Z</time>
      </trkpt>
      <trkpt lat="44.33855" lon="6.29887">
        <ele>1854.040039</ele>
        <time>2011-08-25T11:43:48Z</time>
      </trkpt>
      <trkpt lat="44.33851" lon="6.29904">
        <ele>1851.155762</ele>
        <time>2011-08-25T11:44:04Z</time>
      </trkpt>
      <trkpt lat="44.33853" lon="6.29913">
        <ele>1848.271729</ele>
        <time>2011-08-25T11:44:18Z</time>
      </trkpt>
      <trkpt lat="44.33857" lon="6.29917">
        <ele>1845.387939</ele>
        <time>2011-08-25T11:44:33Z</time>
      </trkpt>
      <trkpt lat="44.33856" lon="6.29925">
        <ele>1842.984619</ele>
        <time>2011-08-25T11:44:49Z</time>
      </trkpt>
      <trkpt lat="44.33853" lon="6.29933">
        <ele>1840.581299</ele>
        <time>2011-08-25T11:45:00Z</time>
      </trkpt>
      <trkpt lat="44.33851" lon="6.29941">
        <ele>1838.178223</ele>
        <time>2011-08-25T11:45:13Z</time>
      </trkpt>
      <trkpt lat="44.33849" lon="6.29948">
        <ele>1835.293945</ele>
        <time>2011-08-25T11:45:27Z</time>
      </trkpt>
      <trkpt lat="44.3386" lon="6.29948">
        <ele>1832.410156</ele>
        <time>2011-08-25T11:45:40Z</time>
      </trkpt>
      <trkpt lat="44.3386" lon="6.29953">
        <ele>1830.968262</ele>
        <time>2011-08-25T11:45:47Z</time>
      </trkpt>
      <trkpt lat="44.3386" lon="6.2996">
        <ele>1829.04541</ele>
        <time>2011-08-25T11:45:59Z</time>
      </trkpt>
      <trkpt lat="44.3386" lon="6.29961">
        <ele>1827.123047</ele>
        <time>2011-08-25T11:46:01Z</time>
      </trkpt>
      <trkpt lat="44.33863" lon="6.29964">
        <ele>1823.758301</ele>
        <time>2011-08-25T11:46:09Z</time>
      </trkpt>
      <trkpt lat="44.33864" lon="6.29964">
        <ele>1823.758301</ele>
        <time>2011-08-25T11:46:10Z</time>
      </trkpt>
      <trkpt lat="44.33867" lon="6.2997">
        <ele>1821.835693</ele>
        <time>2011-08-25T11:46:20Z</time>
      </trkpt>
      <trkpt lat="44.33872" lon="6.29981">
        <ele>1819.432373</ele>
        <time>2011-08-25T11:46:36Z</time>
      </trkpt>
      <trkpt lat="44.33873" lon="6.29982">
        <ele>1817.990234</ele>
        <time>2011-08-25T11:46:40Z</time>
      </trkpt>
      <trkpt lat="44.33876" lon="6.29985">
        <ele>1815.587158</ele>
        <time>2011-08-25T11:46:50Z</time>
      </trkpt>
      <trkpt lat="44.33879" lon="6.29987">
        <ele>1815.106445</ele>
        <time>2011-08-25T11:47:04Z</time>
      </trkpt>
      <trkpt lat="44.33881" lon="6.2999">
        <ele>1813.664307</ele>
        <time>2011-08-25T11:47:10Z</time>
      </trkpt>
      <trkpt lat="44.33888" lon="6.30001">
        <ele>1810.780518</ele>
        <time>2011-08-25T11:47:25Z</time>
      </trkpt>
      <trkpt lat="44.33888" lon="6.30002">
        <ele>1809.819092</ele>
        <time>2011-08-25T11:47:27Z</time>
      </trkpt>
      <trkpt lat="44.33893" lon="6.30007">
        <ele>1807.896729</ele>
        <time>2011-08-25T11:47:36Z</time>
      </trkpt>
      <trkpt lat="44.33896" lon="6.30009">
        <ele>1806.45459</ele>
        <time>2011-08-25T11:47:41Z</time>
      </trkpt>
      <trkpt lat="44.33897" lon="6.30012">
        <ele>1808.85791</ele>
        <time>2011-08-25T11:47:43Z</time>
      </trkpt>
      <trkpt lat="44.33899" lon="6.30013">
        <ele>1805.493408</ele>
        <time>2011-08-25T11:47:46Z</time>
      </trkpt>
      <trkpt lat="44.339" lon="6.30013">
        <ele>1806.45459</ele>
        <time>2011-08-25T11:47:47Z</time>
      </trkpt>
      <trkpt lat="44.33902" lon="6.30013">
        <ele>1805.493408</ele>
        <time>2011-08-25T11:47:50Z</time>
      </trkpt>
      <trkpt lat="44.33902" lon="6.30013">
        <ele>1807.896729</ele>
        <time>2011-08-25T11:47:52Z</time>
      </trkpt>
      <trkpt lat="44.33905" lon="6.30016">
        <ele>1805.012695</ele>
        <time>2011-08-25T11:47:55Z</time>
      </trkpt>
      <trkpt lat="44.33909" lon="6.30022">
        <ele>1804.051514</ele>
        <time>2011-08-25T11:48:03Z</time>
      </trkpt>
      <trkpt lat="44.3391" lon="6.30025">
        <ele>1802.609131</ele>
        <time>2011-08-25T11:48:06Z</time>
      </trkpt>
      <trkpt lat="44.33912" lon="6.30033">
        <ele>1802.128418</ele>
        <time>2011-08-25T11:48:11Z</time>
      </trkpt>
      <trkpt lat="44.33913" lon="6.30036">
        <ele>1801.647949</ele>
        <time>2011-08-25T11:48:15Z</time>
      </trkpt>
      <trkpt lat="44.33918" lon="6.30043">
        <ele>1800.206055</ele>
        <time>2011-08-25T11:48:21Z</time>
      </trkpt>
      <trkpt lat="44.33923" lon="6.30056">
        <ele>1799.725342</ele>
        <time>2011-08-25T11:48:31Z</time>
      </trkpt>
      <trkpt lat="44.33925" lon="6.30065">
        <ele>1799.244629</ele>
        <time>2011-08-25T11:48:45Z</time>
      </trkpt>
      <trkpt lat="44.33925" lon="6.30065">
        <ele>1799.725342</ele>
        <time>2011-08-25T11:48:47Z</time>
      </trkpt>
      <trkpt lat="44.33926" lon="6.30069">
        <ele>1799.244629</ele>
        <time>2011-08-25T11:48:54Z</time>
      </trkpt>
      <trkpt lat="44.33928" lon="6.30071">
        <ele>1799.725342</ele>
        <time>2011-08-25T11:48:57Z</time>
      </trkpt>
      <trkpt lat="44.33929" lon="6.3008">
        <ele>1801.647949</ele>
        <time>2011-08-25T11:49:06Z</time>
      </trkpt>
      <trkpt lat="44.3393" lon="6.30089">
        <ele>1802.128418</ele>
        <time>2011-08-25T11:49:18Z</time>
      </trkpt>
      <trkpt lat="44.3393" lon="6.3009">
        <ele>1802.128418</ele>
        <time>2011-08-25T11:49:19Z</time>
      </trkpt>
      <trkpt lat="44.33932" lon="6.30093">
        <ele>1803.089844</ele>
        <time>2011-08-25T11:49:25Z</time>
      </trkpt>
      <trkpt lat="44.33936" lon="6.30097">
        <ele>1802.609131</ele>
        <time>2011-08-25T11:49:30Z</time>
      </trkpt>
      <trkpt lat="44.33938" lon="6.301">
        <ele>1803.089844</ele>
        <time>2011-08-25T11:49:34Z</time>
      </trkpt>
      <trkpt lat="44.33945" lon="6.30119">
        <ele>1804.051514</ele>
        <time>2011-08-25T11:49:47Z</time>
      </trkpt>
      <trkpt lat="44.33954" lon="6.30133">
        <ele>1805.493408</ele>
        <time>2011-08-25T11:50:05Z</time>
      </trkpt>
      <trkpt lat="44.33964" lon="6.3015">
        <ele>1807.896729</ele>
        <time>2011-08-25T11:50:25Z</time>
      </trkpt>
      <trkpt lat="44.33974" lon="6.30159">
        <ele>1806.935303</ele>
        <time>2011-08-25T11:50:41Z</time>
      </trkpt>
      <trkpt lat="44.33983" lon="6.30171">
        <ele>1806.45459</ele>
        <time>2011-08-25T11:50:55Z</time>
      </trkpt>
      <trkpt lat="44.33988" lon="6.30171">
        <ele>1805.493408</ele>
        <time>2011-08-25T11:51:12Z</time>
      </trkpt>
      <trkpt lat="44.33987" lon="6.30171">
        <ele>1806.45459</ele>
        <time>2011-08-25T11:51:44Z</time>
      </trkpt>
      <trkpt lat="44.3399" lon="6.3017">
        <ele>1805.493408</ele>
        <time>2011-08-25T11:51:59Z</time>
      </trkpt>
      <trkpt lat="44.33998" lon="6.30177">
        <ele>1805.012695</ele>
        <time>2011-08-25T11:52:13Z</time>
      </trkpt>
      <trkpt lat="44.34006" lon="6.3018">
        <ele>1804.051514</ele>
        <time>2011-08-25T11:52:21Z</time>
      </trkpt>
      <trkpt lat="44.34017" lon="6.30192">
        <ele>1801.647949</ele>
        <time>2011-08-25T11:52:37Z</time>
      </trkpt>
      <trkpt lat="44.34027" lon="6.30196">
        <ele>1798.763916</ele>
        <time>2011-08-25T11:52:54Z</time>
      </trkpt>
      <trkpt lat="44.34038" lon="6.30196">
        <ele>1797.322021</ele>
        <time>2011-08-25T11:53:10Z</time>
      </trkpt>
      <trkpt lat="44.34044" lon="6.30201">
        <ele>1795.880127</ele>
        <time>2011-08-25T11:53:18Z</time>
      </trkpt>
      <trkpt lat="44.34053" lon="6.30208">
        <ele>1793.476807</ele>
        <time>2011-08-25T11:53:32Z</time>
      </trkpt>
      <trkpt lat="44.34064" lon="6.30215">
        <ele>1790.112305</ele>
        <time>2011-08-25T11:53:48Z</time>
      </trkpt>
      <trkpt lat="44.34073" lon="6.30227">
        <ele>1786.747314</ele>
        <time>2011-08-25T11:54:06Z</time>
      </trkpt>
      <trkpt lat="44.34083" lon="6.30229">
        <ele>1784.344238</ele>
        <time>2011-08-25T11:54:22Z</time>
      </trkpt>
      <trkpt lat="44.34093" lon="6.3023">
        <ele>1781.460205</ele>
        <time>2011-08-25T11:54:34Z</time>
      </trkpt>
      <trkpt lat="44.34094" lon="6.30231">
        <ele>1780.979736</ele>
        <time>2011-08-25T11:54:37Z</time>
      </trkpt>
      <trkpt lat="44.34109" lon="6.30249">
        <ele>1779.056885</ele>
        <time>2011-08-25T11:54:56Z</time>
      </trkpt>
      <trkpt lat="44.34115" lon="6.3025">
        <ele>1776.653809</ele>
        <time>2011-08-25T11:55:05Z</time>
      </trkpt>
      <trkpt lat="44.34124" lon="6.30253">
        <ele>1774.250488</ele>
        <time>2011-08-25T11:55:20Z</time>
      </trkpt>
      <trkpt lat="44.34133" lon="6.30254">
        <ele>1771.846924</ele>
        <time>2011-08-25T11:55:35Z</time>
      </trkpt>
      <trkpt lat="44.3414" lon="6.30245">
        <ele>1770.405029</ele>
        <time>2011-08-25T11:55:49Z</time>
      </trkpt>
      <trkpt lat="44.34153" lon="6.30247">
        <ele>1767.520996</ele>
        <time>2011-08-25T11:56:05Z</time>
      </trkpt>
      <trkpt lat="44.34161" lon="6.30263">
        <ele>1764.156494</ele>
        <time>2011-08-25T11:56:20Z</time>
      </trkpt>
      <trkpt lat="44.3417" lon="6.30269">
        <ele>1761.272705</ele>
        <time>2011-08-25T11:56:34Z</time>
      </trkpt>
      <trkpt lat="44.34171" lon="6.3027">
        <ele>1760.311279</ele>
        <time>2011-08-25T11:56:35Z</time>
      </trkpt>
      <trkpt lat="44.34174" lon="6.30274">
        <ele>1759.830566</ele>
        <time>2011-08-25T11:56:40Z</time>
      </trkpt>
      <trkpt lat="44.34177" lon="6.30282">
        <ele>1757.42749</ele>
        <time>2011-08-25T11:56:51Z</time>
      </trkpt>
      <trkpt lat="44.34186" lon="6.30287">
        <ele>1754.543213</ele>
        <time>2011-08-25T11:57:07Z</time>
      </trkpt>
      <trkpt lat="44.34194" lon="6.30277">
        <ele>1752.620605</ele>
        <time>2011-08-25T11:57:23Z</time>
      </trkpt>
      <trkpt lat="44.34197" lon="6.30273">
        <ele>1751.659424</ele>
        <time>2011-08-25T11:57:28Z</time>
      </trkpt>
      <trkpt lat="44.34205" lon="6.30276">
        <ele>1750.217529</ele>
        <time>2011-08-25T11:57:40Z</time>
      </trkpt>
      <trkpt lat="44.34213" lon="6.30276">
        <ele>1746.852783</ele>
        <time>2011-08-25T11:57:54Z</time>
      </trkpt>
      <trkpt lat="44.34221" lon="6.30277">
        <ele>1745.410889</ele>
        <time>2011-08-25T11:58:04Z</time>
      </trkpt>
      <trkpt lat="44.34227" lon="6.30286">
        <ele>1743.488281</ele>
        <time>2011-08-25T11:58:19Z</time>
      </trkpt>
      <trkpt lat="44.34232" lon="6.30282">
        <ele>1741.565674</ele>
        <time>2011-08-25T11:58:31Z</time>
      </trkpt>
      <trkpt lat="44.34234" lon="6.3028">
        <ele>1740.123779</ele>
        <time>2011-08-25T11:58:34Z</time>
      </trkpt>
      <trkpt lat="44.34236" lon="6.3028">
        <ele>1739.642822</ele>
        <time>2011-08-25T11:58:37Z</time>
      </trkpt>
      <trkpt lat="44.34247" lon="6.30272">
        <ele>1737.239502</ele>
        <time>2011-08-25T11:58:50Z</time>
      </trkpt>
      <trkpt lat="44.34258" lon="6.30266">
        <ele>1733.875</ele>
        <time>2011-08-25T11:59:05Z</time>
      </trkpt>
      <trkpt lat="44.34262" lon="6.30261">
        <ele>1733.875</ele>
        <time>2011-08-25T11:59:08Z</time>
      </trkpt>
      <trkpt lat="44.34266" lon="6.30253">
        <ele>1730.029785</ele>
        <time>2011-08-25T11:59:23Z</time>
      </trkpt>
      <trkpt lat="44.34271" lon="6.30243">
        <ele>1728.107178</ele>
        <time>2011-08-25T11:59:39Z</time>
      </trkpt>
      <trkpt lat="44.34274" lon="6.30234">
        <ele>1726.665283</ele>
        <time>2011-08-25T11:59:50Z</time>
      </trkpt>
      <trkpt lat="44.34282" lon="6.30207">
        <ele>1724.261963</ele>
        <time>2011-08-25T12:00:10Z</time>
      </trkpt>
      <trkpt lat="44.34285" lon="6.30189">
        <ele>1721.377686</ele>
        <time>2011-08-25T12:00:30Z</time>
      </trkpt>
      <trkpt lat="44.34285" lon="6.30187">
        <ele>1720.416504</ele>
        <time>2011-08-25T12:00:32Z</time>
      </trkpt>
      <trkpt lat="44.34289" lon="6.30172">
        <ele>1718.493896</ele>
        <time>2011-08-25T12:00:47Z</time>
      </trkpt>
      <trkpt lat="44.34286" lon="6.30156">
        <ele>1715.129395</ele>
        <time>2011-08-25T12:01:03Z</time>
      </trkpt>
      <trkpt lat="44.34282" lon="6.30137">
        <ele>1711.764893</ele>
        <time>2011-08-25T12:01:17Z</time>
      </trkpt>
      <trkpt lat="44.3428" lon="6.30125">
        <ele>1710.803467</ele>
        <time>2011-08-25T12:01:31Z</time>
      </trkpt>
      <trkpt lat="44.34281" lon="6.30111">
        <ele>1711.28418</ele>
        <time>2011-08-25T12:01:53Z</time>
      </trkpt>
      <trkpt lat="44.34281" lon="6.30111">
        <ele>1710.803467</ele>
        <time>2011-08-25T12:02:21Z</time>
      </trkpt>
      <trkpt lat="44.34281" lon="6.30111">
        <ele>1707.438721</ele>
        <time>2011-08-25T12:02:52Z</time>
      </trkpt>
      <trkpt lat="44.34278" lon="6.30101">
        <ele>1705.516113</ele>
        <time>2011-08-25T12:03:54Z</time>
      </trkpt>
      <trkpt lat="44.34267" lon="6.30094">
        <ele>1707.438721</ele>
        <time>2011-08-25T12:04:39Z</time>
      </trkpt>
      <trkpt lat="44.34255" lon="6.3009">
        <ele>1707.438721</ele>
        <time>2011-08-25T12:06:41Z</time>
      </trkpt>
      <trkpt lat="44.34254" lon="6.30086">
        <ele>1706.958008</ele>
        <time>2011-08-25T12:06:43Z</time>
      </trkpt>
      <trkpt lat="44.34241" lon="6.30072">
        <ele>1703.593506</ele>
        <time>2011-08-25T12:07:01Z</time>
      </trkpt>
      <trkpt lat="44.34234" lon="6.30053">
        <ele>1700.709473</ele>
        <time>2011-08-25T12:07:18Z</time>
      </trkpt>
      <trkpt lat="44.34229" lon="6.30036">
        <ele>1698.786865</ele>
        <time>2011-08-25T12:07:30Z</time>
      </trkpt>
      <trkpt lat="44.34226" lon="6.30032">
        <ele>1697.825684</ele>
        <time>2011-08-25T12:07:35Z</time>
      </trkpt>
      <trkpt lat="44.34226" lon="6.30024">
        <ele>1695.422363</ele>
        <time>2011-08-25T12:07:45Z</time>
      </trkpt>
      <trkpt lat="44.34222" lon="6.30013">
        <ele>1693.019043</ele>
        <time>2011-08-25T12:08:02Z</time>
      </trkpt>
      <trkpt lat="44.34215" lon="6.30004">
        <ele>1693.499756</ele>
        <time>2011-08-25T12:08:21Z</time>
      </trkpt>
      <trkpt lat="44.34214" lon="6.30002">
        <ele>1692.057861</ele>
        <time>2011-08-25T12:08:24Z</time>
      </trkpt>
      <trkpt lat="44.34209" lon="6.29998">
        <ele>1690.615479</ele>
        <time>2011-08-25T12:08:29Z</time>
      </trkpt>
      <trkpt lat="44.34224" lon="6.29986">
        <ele>1689.654297</ele>
        <time>2011-08-25T12:08:47Z</time>
      </trkpt>
      <trkpt lat="44.34249" lon="6.29982">
        <ele>1690.13501</ele>
        <time>2011-08-25T12:09:06Z</time>
      </trkpt>
      <trkpt lat="44.34268" lon="6.29976">
        <ele>1690.13501</ele>
        <time>2011-08-25T12:09:26Z</time>
      </trkpt>
      <trkpt lat="44.34282" lon="6.29979">
        <ele>1688.212402</ele>
        <time>2011-08-25T12:09:43Z</time>
      </trkpt>
      <trkpt lat="44.34296" lon="6.29976">
        <ele>1685.328369</ele>
        <time>2011-08-25T12:10:00Z</time>
      </trkpt>
      <trkpt lat="44.34306" lon="6.2998">
        <ele>1681.963867</ele>
        <time>2011-08-25T12:10:17Z</time>
      </trkpt>
      <trkpt lat="44.34321" lon="6.29975">
        <ele>1679.079834</ele>
        <time>2011-08-25T12:10:36Z</time>
      </trkpt>
      <trkpt lat="44.34333" lon="6.29985">
        <ele>1675.715088</ele>
        <time>2011-08-25T12:10:48Z</time>
      </trkpt>
      <trkpt lat="44.34358" lon="6.29975">
        <ele>1675.234375</ele>
        <time>2011-08-25T12:11:09Z</time>
      </trkpt>
      <trkpt lat="44.34368" lon="6.29967">
        <ele>1675.715088</ele>
        <time>2011-08-25T12:11:28Z</time>
      </trkpt>
      <trkpt lat="44.34383" lon="6.29957">
        <ele>1678.118652</ele>
        <time>2011-08-25T12:11:45Z</time>
      </trkpt>
      <trkpt lat="44.344" lon="6.29963">
        <ele>1677.637939</ele>
        <time>2011-08-25T12:12:01Z</time>
      </trkpt>
      <trkpt lat="44.34407" lon="6.2997">
        <ele>1676.676758</ele>
        <time>2011-08-25T12:12:13Z</time>
      </trkpt>
      <trkpt lat="44.34411" lon="6.29972">
        <ele>1675.715088</ele>
        <time>2011-08-25T12:12:18Z</time>
      </trkpt>
      <trkpt lat="44.3442" lon="6.29981">
        <ele>1674.273193</ele>
        <time>2011-08-25T12:12:36Z</time>
      </trkpt>
      <trkpt lat="44.34422" lon="6.29982">
        <ele>1673.312012</ele>
        <time>2011-08-25T12:12:38Z</time>
      </trkpt>
      <trkpt lat="44.34441" lon="6.29992">
        <ele>1671.38916</ele>
        <time>2011-08-25T12:12:54Z</time>
      </trkpt>
      <trkpt lat="44.3446" lon="6.29994">
        <ele>1669.466797</ele>
        <time>2011-08-25T12:13:11Z</time>
      </trkpt>
      <trkpt lat="44.34472" lon="6.29999">
        <ele>1668.024658</ele>
        <time>2011-08-25T12:13:23Z</time>
      </trkpt>
      <trkpt lat="44.34474" lon="6.30002">
        <ele>1668.024658</ele>
        <time>2011-08-25T12:13:26Z</time>
      </trkpt>
      <trkpt lat="44.34494" lon="6.30007">
        <ele>1666.102051</ele>
        <time>2011-08-25T12:13:40Z</time>
      </trkpt>
      <trkpt lat="44.34513" lon="6.3001">
        <ele>1664.660156</ele>
        <time>2011-08-25T12:13:57Z</time>
      </trkpt>
      <trkpt lat="44.34524" lon="6.30005">
        <ele>1663.218262</ele>
        <time>2011-08-25T12:14:09Z</time>
      </trkpt>
      <trkpt lat="44.34532" lon="6.29994">
        <ele>1661.295654</ele>
        <time>2011-08-25T12:14:23Z</time>
      </trkpt>
      <trkpt lat="44.34541" lon="6.29977">
        <ele>1658.89209</ele>
        <time>2011-08-25T12:14:39Z</time>
      </trkpt>
      <trkpt lat="44.34543" lon="6.29962">
        <ele>1656.008057</ele>
        <time>2011-08-25T12:14:54Z</time>
      </trkpt>
      <trkpt lat="44.34551" lon="6.29941">
        <ele>1652.643555</ele>
        <time>2011-08-25T12:15:10Z</time>
      </trkpt>
      <trkpt lat="44.34555" lon="6.29926">
        <ele>1649.759766</ele>
        <time>2011-08-25T12:15:24Z</time>
      </trkpt>
      <trkpt lat="44.34563" lon="6.29914">
        <ele>1646.875732</ele>
        <time>2011-08-25T12:15:37Z</time>
      </trkpt>
      <trkpt lat="44.34572" lon="6.29897">
        <ele>1643.510986</ele>
        <time>2011-08-25T12:15:54Z</time>
      </trkpt>
      <trkpt lat="44.34575" lon="6.29887">
        <ele>1642.069092</ele>
        <time>2011-08-25T12:16:04Z</time>
      </trkpt>
      <trkpt lat="44.34572" lon="6.29875">
        <ele>1641.588379</ele>
        <time>2011-08-25T12:16:20Z</time>
      </trkpt>
      <trkpt lat="44.34574" lon="6.29866">
        <ele>1638.70459</ele>
        <time>2011-08-25T12:16:59Z</time>
      </trkpt>
      <trkpt lat="44.34589" lon="6.29852">
        <ele>1635.820557</ele>
        <time>2011-08-25T12:17:17Z</time>
      </trkpt>
      <trkpt lat="44.34593" lon="6.29842">
        <ele>1634.378662</ele>
        <time>2011-08-25T12:17:33Z</time>
      </trkpt>
      <trkpt lat="44.34602" lon="6.2983">
        <ele>1631.01416</ele>
        <time>2011-08-25T12:17:50Z</time>
      </trkpt>
      <trkpt lat="44.34609" lon="6.29821">
        <ele>1628.61084</ele>
        <time>2011-08-25T12:18:03Z</time>
      </trkpt>
      <trkpt lat="44.34616" lon="6.29809">
        <ele>1625.24585</ele>
        <time>2011-08-25T12:18:18Z</time>
      </trkpt>
      <trkpt lat="44.34623" lon="6.29801">
        <ele>1622.842773</ele>
        <time>2011-08-25T12:18:32Z</time>
      </trkpt>
      <trkpt lat="44.34627" lon="6.29795">
        <ele>1621.881348</ele>
        <time>2011-08-25T12:18:39Z</time>
      </trkpt>
      <trkpt lat="44.34635" lon="6.29784">
        <ele>1619.95874</ele>
        <time>2011-08-25T12:18:51Z</time>
      </trkpt>
      <trkpt lat="44.34637" lon="6.29778">
        <ele>1619.95874</ele>
        <time>2011-08-25T12:18:56Z</time>
      </trkpt>
      <trkpt lat="44.34643" lon="6.29766">
        <ele>1619.478271</ele>
        <time>2011-08-25T12:19:13Z</time>
      </trkpt>
      <trkpt lat="44.34639" lon="6.29763">
        <ele>1619.478271</ele>
        <time>2011-08-25T12:19:32Z</time>
      </trkpt>
      <trkpt lat="44.3464" lon="6.29765">
        <ele>1619.95874</ele>
        <time>2011-08-25T12:20:07Z</time>
      </trkpt>
      <trkpt lat="44.34643" lon="6.29753">
        <ele>1619.95874</ele>
        <time>2011-08-25T12:20:57Z</time>
      </trkpt>
      <trkpt lat="44.34639" lon="6.2974">
        <ele>1619.478271</ele>
        <time>2011-08-25T12:21:07Z</time>
      </trkpt>
      <trkpt lat="44.34645" lon="6.29726">
        <ele>1618.516846</ele>
        <time>2011-08-25T12:21:19Z</time>
      </trkpt>
      <trkpt lat="44.34648" lon="6.29711">
        <ele>1618.036133</ele>
        <time>2011-08-25T12:21:33Z</time>
      </trkpt>
      <trkpt lat="44.34655" lon="6.29695">
        <ele>1617.074951</ele>
        <time>2011-08-25T12:21:45Z</time>
      </trkpt>
      <trkpt lat="44.34656" lon="6.29689">
        <ele>1616.113525</ele>
        <time>2011-08-25T12:21:49Z</time>
      </trkpt>
      <trkpt lat="44.34656" lon="6.29684">
        <ele>1616.113525</ele>
        <time>2011-08-25T12:21:53Z</time>
      </trkpt>
      <trkpt lat="44.34658" lon="6.29683">
        <ele>1616.113525</ele>
        <time>2011-08-25T12:21:55Z</time>
      </trkpt>
      <trkpt lat="44.34656" lon="6.29676">
        <ele>1615.633057</ele>
        <time>2011-08-25T12:22:00Z</time>
      </trkpt>
      <trkpt lat="44.34656" lon="6.29673">
        <ele>1615.633057</ele>
        <time>2011-08-25T12:22:02Z</time>
      </trkpt>
      <trkpt lat="44.34657" lon="6.29664">
        <ele>1615.152344</ele>
        <time>2011-08-25T12:22:10Z</time>
      </trkpt>
      <trkpt lat="44.34658" lon="6.29662">
        <ele>1615.152344</ele>
        <time>2011-08-25T12:22:13Z</time>
      </trkpt>
      <trkpt lat="44.3466" lon="6.2966">
        <ele>1615.152344</ele>
        <time>2011-08-25T12:22:16Z</time>
      </trkpt>
      <trkpt lat="44.34662" lon="6.29657">
        <ele>1614.671631</ele>
        <time>2011-08-25T12:22:18Z</time>
      </trkpt>
      <trkpt lat="44.34666" lon="6.29637">
        <ele>1614.671631</ele>
        <time>2011-08-25T12:22:33Z</time>
      </trkpt>
      <trkpt lat="44.34666" lon="6.29627">
        <ele>1615.152344</ele>
        <time>2011-08-25T12:22:39Z</time>
      </trkpt>
      <trkpt lat="44.3467" lon="6.29612">
        <ele>1615.633057</ele>
        <time>2011-08-25T12:22:52Z</time>
      </trkpt>
      <trkpt lat="44.34673" lon="6.29606">
        <ele>1615.152344</ele>
        <time>2011-08-25T12:22:57Z</time>
      </trkpt>
      <trkpt lat="44.34673" lon="6.29603">
        <ele>1615.633057</ele>
        <time>2011-08-25T12:22:59Z</time>
      </trkpt>
      <trkpt lat="44.34678" lon="6.2959">
        <ele>1615.152344</ele>
        <time>2011-08-25T12:23:08Z</time>
      </trkpt>
      <trkpt lat="44.34683" lon="6.29582">
        <ele>1615.633057</ele>
        <time>2011-08-25T12:23:16Z</time>
      </trkpt>
      <trkpt lat="44.34693" lon="6.29568">
        <ele>1615.633057</ele>
        <time>2011-08-25T12:23:28Z</time>
      </trkpt>
      <trkpt lat="44.34696" lon="6.29559">
        <ele>1614.671631</ele>
        <time>2011-08-25T12:23:34Z</time>
      </trkpt>
      <trkpt lat="44.34699" lon="6.29557">
        <ele>1614.671631</ele>
        <time>2011-08-25T12:23:36Z</time>
      </trkpt>
      <trkpt lat="44.34703" lon="6.29554">
        <ele>1614.671631</ele>
        <time>2011-08-25T12:23:39Z</time>
      </trkpt>
      <trkpt lat="44.34713" lon="6.29546">
        <ele>1613.229736</ele>
        <time>2011-08-25T12:23:54Z</time>
      </trkpt>
      <trkpt lat="44.34713" lon="6.29548">
        <ele>1613.229736</ele>
        <time>2011-08-25T12:23:55Z</time>
      </trkpt>
      <trkpt lat="44.34719" lon="6.29558">
        <ele>1612.268311</ele>
        <time>2011-08-25T12:24:07Z</time>
      </trkpt>
      <trkpt lat="44.34725" lon="6.29571">
        <ele>1612.749023</ele>
        <time>2011-08-25T12:24:20Z</time>
      </trkpt>
      <trkpt lat="44.34726" lon="6.29573">
        <ele>1610.345459</ele>
        <time>2011-08-25T12:24:44Z</time>
      </trkpt>
      <trkpt lat="44.34727" lon="6.29567">
        <ele>1612.749023</ele>
        <time>2011-08-25T12:25:00Z</time>
      </trkpt>
      <trkpt lat="44.34726" lon="6.29566">
        <ele>1610.345459</ele>
        <time>2011-08-25T12:25:21Z</time>
      </trkpt>
    </trkseg>
  </trk>
</gpx>